<?xml version="1.0" encoding="UTF-8" standalone="no" ?>
<gpx xmlns="http://www.topografix.com/GPX/1/1" xmlns:xsi="http://www.w3.org/2001/XMLSchema-instance" xsi:schemaLocation="http://www.topografix.com/GPX/1/1 http://www.topografix.com/GPX/1/1/gpx.xsd" version="1.1" creator="VisuGPX - https://www.visugpx.com">
  <metadata>
    <name>les moulins des gorges de Véroncle</name>
    <desc><![CDATA[gorges de veroncle Gordes/ Murs
les Moulins]]></desc>
  </metadata>
  <trk>
    <name><![CDATA[03-JUIN-13 15:38:49]]></name>
    <trkseg>
      <trkpt lat="43.92721" lon="5.20788">
        <ele>434.17</ele>
        <time>2013-06-03T07:19:41Z</time>
      </trkpt>
      <trkpt lat="43.92801" lon="5.20819">
        <ele>438.02</ele>
        <time>2013-06-03T07:20:06Z</time>
      </trkpt>
      <trkpt lat="43.92801" lon="5.20821">
        <ele>441.38</ele>
        <time>2013-06-03T07:20:08Z</time>
      </trkpt>
      <trkpt lat="43.928" lon="5.20822">
        <ele>445.71</ele>
        <time>2013-06-03T07:20:10Z</time>
      </trkpt>
      <trkpt lat="43.928" lon="5.20822">
        <ele>445.71</ele>
        <time>2013-06-03T07:20:11Z</time>
      </trkpt>
      <trkpt lat="43.92801" lon="5.20824">
        <ele>448.11</ele>
        <time>2013-06-03T07:20:13Z</time>
      </trkpt>
      <trkpt lat="43.92801" lon="5.20824">
        <ele>451.96</ele>
        <time>2013-06-03T07:20:17Z</time>
      </trkpt>
      <trkpt lat="43.92801" lon="5.20825">
        <ele>455.32</ele>
        <time>2013-06-03T07:20:22Z</time>
      </trkpt>
      <trkpt lat="43.92803" lon="5.20826">
        <ele>458.69</ele>
        <time>2013-06-03T07:20:28Z</time>
      </trkpt>
      <trkpt lat="43.92802" lon="5.20826">
        <ele>459.17</ele>
        <time>2013-06-03T07:20:29Z</time>
      </trkpt>
      <trkpt lat="43.92803" lon="5.20826">
        <ele>461.09</ele>
        <time>2013-06-03T07:20:33Z</time>
      </trkpt>
      <trkpt lat="43.92802" lon="5.20824">
        <ele>462.05</ele>
        <time>2013-06-03T07:20:35Z</time>
      </trkpt>
      <trkpt lat="43.92802" lon="5.20825">
        <ele>463.97</ele>
        <time>2013-06-03T07:20:47Z</time>
      </trkpt>
      <trkpt lat="43.928" lon="5.2083">
        <ele>464.93</ele>
        <time>2013-06-03T07:21:02Z</time>
      </trkpt>
      <trkpt lat="43.928" lon="5.20832">
        <ele>464.93</ele>
        <time>2013-06-03T07:21:15Z</time>
      </trkpt>
      <trkpt lat="43.92803" lon="5.20831">
        <ele>464.93</ele>
        <time>2013-06-03T07:21:47Z</time>
      </trkpt>
      <trkpt lat="43.92803" lon="5.20832">
        <ele>464.93</ele>
        <time>2013-06-03T07:22:01Z</time>
      </trkpt>
      <trkpt lat="43.92802" lon="5.20834">
        <ele>464.93</ele>
        <time>2013-06-03T07:22:19Z</time>
      </trkpt>
      <trkpt lat="43.92802" lon="5.20836">
        <ele>464.93</ele>
        <time>2013-06-03T07:22:34Z</time>
      </trkpt>
      <trkpt lat="43.92802" lon="5.20836">
        <ele>464.93</ele>
        <time>2013-06-03T07:22:55Z</time>
      </trkpt>
      <trkpt lat="43.92801" lon="5.20837">
        <ele>464.93</ele>
        <time>2013-06-03T07:23:15Z</time>
      </trkpt>
      <trkpt lat="43.92801" lon="5.20836">
        <ele>464.93</ele>
        <time>2013-06-03T07:23:31Z</time>
      </trkpt>
      <trkpt lat="43.92801" lon="5.20835">
        <ele>464.93</ele>
        <time>2013-06-03T07:23:54Z</time>
      </trkpt>
      <trkpt lat="43.92804" lon="5.20836">
        <ele>464.93</ele>
        <time>2013-06-03T07:24:15Z</time>
      </trkpt>
      <trkpt lat="43.92802" lon="5.20837">
        <ele>464.93</ele>
        <time>2013-06-03T07:24:26Z</time>
      </trkpt>
      <trkpt lat="43.92802" lon="5.20838">
        <ele>464.45</ele>
        <time>2013-06-03T07:24:36Z</time>
      </trkpt>
      <trkpt lat="43.92803" lon="5.2084">
        <ele>463.97</ele>
        <time>2013-06-03T07:24:47Z</time>
      </trkpt>
      <trkpt lat="43.92801" lon="5.20838">
        <ele>464.45</ele>
        <time>2013-06-03T07:25:02Z</time>
      </trkpt>
      <trkpt lat="43.92801" lon="5.20839">
        <ele>464.45</ele>
        <time>2013-06-03T07:25:20Z</time>
      </trkpt>
      <trkpt lat="43.92801" lon="5.20838">
        <ele>464.45</ele>
        <time>2013-06-03T07:25:35Z</time>
      </trkpt>
      <trkpt lat="43.92802" lon="5.20839">
        <ele>463.97</ele>
        <time>2013-06-03T07:25:45Z</time>
      </trkpt>
      <trkpt lat="43.92801" lon="5.20841">
        <ele>463.97</ele>
        <time>2013-06-03T07:26:06Z</time>
      </trkpt>
      <trkpt lat="43.92801" lon="5.20843">
        <ele>463.97</ele>
        <time>2013-06-03T07:26:18Z</time>
      </trkpt>
      <trkpt lat="43.92802" lon="5.20844">
        <ele>464.45</ele>
        <time>2013-06-03T07:26:35Z</time>
      </trkpt>
      <trkpt lat="43.92803" lon="5.20839">
        <ele>464.45</ele>
        <time>2013-06-03T07:26:53Z</time>
      </trkpt>
      <trkpt lat="43.92804" lon="5.20837">
        <ele>464.45</ele>
        <time>2013-06-03T07:27:08Z</time>
      </trkpt>
      <trkpt lat="43.92802" lon="5.20835">
        <ele>464.45</ele>
        <time>2013-06-03T07:27:25Z</time>
      </trkpt>
      <trkpt lat="43.92802" lon="5.20837">
        <ele>464.45</ele>
        <time>2013-06-03T07:27:45Z</time>
      </trkpt>
      <trkpt lat="43.92803" lon="5.20836">
        <ele>464.45</ele>
        <time>2013-06-03T07:27:59Z</time>
      </trkpt>
      <trkpt lat="43.92805" lon="5.20839">
        <ele>464.45</ele>
        <time>2013-06-03T07:28:12Z</time>
      </trkpt>
      <trkpt lat="43.92806" lon="5.20842">
        <ele>464.45</ele>
        <time>2013-06-03T07:28:24Z</time>
      </trkpt>
      <trkpt lat="43.92807" lon="5.20843">
        <ele>464.45</ele>
        <time>2013-06-03T07:28:25Z</time>
      </trkpt>
      <trkpt lat="43.92817" lon="5.20858">
        <ele>463.97</ele>
        <time>2013-06-03T07:28:41Z</time>
      </trkpt>
      <trkpt lat="43.92824" lon="5.20866">
        <ele>464.93</ele>
        <time>2013-06-03T07:28:52Z</time>
      </trkpt>
      <trkpt lat="43.92835" lon="5.20875">
        <ele>465.42</ele>
        <time>2013-06-03T07:29:04Z</time>
      </trkpt>
      <trkpt lat="43.92846" lon="5.20883">
        <ele>465.9</ele>
        <time>2013-06-03T07:29:17Z</time>
      </trkpt>
      <trkpt lat="43.92849" lon="5.20886">
        <ele>466.38</ele>
        <time>2013-06-03T07:29:21Z</time>
      </trkpt>
      <trkpt lat="43.92853" lon="5.20891">
        <ele>466.38</ele>
        <time>2013-06-03T07:29:27Z</time>
      </trkpt>
      <trkpt lat="43.92854" lon="5.20894">
        <ele>466.38</ele>
        <time>2013-06-03T07:29:29Z</time>
      </trkpt>
      <trkpt lat="43.92864" lon="5.20907">
        <ele>467.34</ele>
        <time>2013-06-03T07:29:41Z</time>
      </trkpt>
      <trkpt lat="43.92867" lon="5.20914">
        <ele>467.82</ele>
        <time>2013-06-03T07:29:48Z</time>
      </trkpt>
      <trkpt lat="43.92873" lon="5.20929">
        <ele>468.3</ele>
        <time>2013-06-03T07:30:01Z</time>
      </trkpt>
      <trkpt lat="43.92874" lon="5.20931">
        <ele>468.3</ele>
        <time>2013-06-03T07:30:02Z</time>
      </trkpt>
      <trkpt lat="43.92875" lon="5.20932">
        <ele>468.3</ele>
        <time>2013-06-03T07:30:04Z</time>
      </trkpt>
      <trkpt lat="43.92876" lon="5.20935">
        <ele>468.78</ele>
        <time>2013-06-03T07:30:06Z</time>
      </trkpt>
      <trkpt lat="43.92881" lon="5.20945">
        <ele>468.78</ele>
        <time>2013-06-03T07:30:15Z</time>
      </trkpt>
      <trkpt lat="43.92884" lon="5.2095">
        <ele>468.78</ele>
        <time>2013-06-03T07:30:20Z</time>
      </trkpt>
      <trkpt lat="43.92886" lon="5.2096">
        <ele>469.26</ele>
        <time>2013-06-03T07:30:26Z</time>
      </trkpt>
      <trkpt lat="43.92888" lon="5.20965">
        <ele>469.26</ele>
        <time>2013-06-03T07:30:29Z</time>
      </trkpt>
      <trkpt lat="43.92894" lon="5.20982">
        <ele>469.74</ele>
        <time>2013-06-03T07:30:41Z</time>
      </trkpt>
      <trkpt lat="43.929" lon="5.20998">
        <ele>470.7</ele>
        <time>2013-06-03T07:30:53Z</time>
      </trkpt>
      <trkpt lat="43.92909" lon="5.21012">
        <ele>470.7</ele>
        <time>2013-06-03T07:31:05Z</time>
      </trkpt>
      <trkpt lat="43.92921" lon="5.21026">
        <ele>471.66</ele>
        <time>2013-06-03T07:31:19Z</time>
      </trkpt>
      <trkpt lat="43.92927" lon="5.21032">
        <ele>472.14</ele>
        <time>2013-06-03T07:31:26Z</time>
      </trkpt>
      <trkpt lat="43.9294" lon="5.21043">
        <ele>472.63</ele>
        <time>2013-06-03T07:31:41Z</time>
      </trkpt>
      <trkpt lat="43.92953" lon="5.21054">
        <ele>473.11</ele>
        <time>2013-06-03T07:31:55Z</time>
      </trkpt>
      <trkpt lat="43.92968" lon="5.21066">
        <ele>473.59</ele>
        <time>2013-06-03T07:32:10Z</time>
      </trkpt>
      <trkpt lat="43.92981" lon="5.21078">
        <ele>474.07</ele>
        <time>2013-06-03T07:32:24Z</time>
      </trkpt>
      <trkpt lat="43.92992" lon="5.21089">
        <ele>474.55</ele>
        <time>2013-06-03T07:32:37Z</time>
      </trkpt>
      <trkpt lat="43.93003" lon="5.21103">
        <ele>475.03</ele>
        <time>2013-06-03T07:32:51Z</time>
      </trkpt>
      <trkpt lat="43.9301" lon="5.21118">
        <ele>474.07</ele>
        <time>2013-06-03T07:33:04Z</time>
      </trkpt>
      <trkpt lat="43.93017" lon="5.21131">
        <ele>473.11</ele>
        <time>2013-06-03T07:33:17Z</time>
      </trkpt>
      <trkpt lat="43.93021" lon="5.21144">
        <ele>472.14</ele>
        <time>2013-06-03T07:33:30Z</time>
      </trkpt>
      <trkpt lat="43.93024" lon="5.21153">
        <ele>471.66</ele>
        <time>2013-06-03T07:33:38Z</time>
      </trkpt>
      <trkpt lat="43.93024" lon="5.21156">
        <ele>471.66</ele>
        <time>2013-06-03T07:33:40Z</time>
      </trkpt>
      <trkpt lat="43.93018" lon="5.21177">
        <ele>469.26</ele>
        <time>2013-06-03T07:33:56Z</time>
      </trkpt>
      <trkpt lat="43.93015" lon="5.21182">
        <ele>468.78</ele>
        <time>2013-06-03T07:34:01Z</time>
      </trkpt>
      <trkpt lat="43.93012" lon="5.21187">
        <ele>467.82</ele>
        <time>2013-06-03T07:34:07Z</time>
      </trkpt>
      <trkpt lat="43.93006" lon="5.21203">
        <ele>465.9</ele>
        <time>2013-06-03T07:34:21Z</time>
      </trkpt>
      <trkpt lat="43.93002" lon="5.21219">
        <ele>464.45</ele>
        <time>2013-06-03T07:34:36Z</time>
      </trkpt>
      <trkpt lat="43.93004" lon="5.21222">
        <ele>463.97</ele>
        <time>2013-06-03T07:34:49Z</time>
      </trkpt>
      <trkpt lat="43.93004" lon="5.21221">
        <ele>463.97</ele>
        <time>2013-06-03T07:35:07Z</time>
      </trkpt>
      <trkpt lat="43.92998" lon="5.21217">
        <ele>463.97</ele>
        <time>2013-06-03T07:35:35Z</time>
      </trkpt>
      <trkpt lat="43.92999" lon="5.21222">
        <ele>464.45</ele>
        <time>2013-06-03T07:35:55Z</time>
      </trkpt>
      <trkpt lat="43.92997" lon="5.21225">
        <ele>464.45</ele>
        <time>2013-06-03T07:36:10Z</time>
      </trkpt>
      <trkpt lat="43.93002" lon="5.21225">
        <ele>463.97</ele>
        <time>2013-06-03T07:36:29Z</time>
      </trkpt>
      <trkpt lat="43.92997" lon="5.21223">
        <ele>463.97</ele>
        <time>2013-06-03T07:36:48Z</time>
      </trkpt>
      <trkpt lat="43.92993" lon="5.21231">
        <ele>464.45</ele>
        <time>2013-06-03T07:37:07Z</time>
      </trkpt>
      <trkpt lat="43.92984" lon="5.21244">
        <ele>464.93</ele>
        <time>2013-06-03T07:37:21Z</time>
      </trkpt>
      <trkpt lat="43.9298" lon="5.21251">
        <ele>464.93</ele>
        <time>2013-06-03T07:37:34Z</time>
      </trkpt>
      <trkpt lat="43.92976" lon="5.21258">
        <ele>465.42</ele>
        <time>2013-06-03T07:37:56Z</time>
      </trkpt>
      <trkpt lat="43.92967" lon="5.21271">
        <ele>466.38</ele>
        <time>2013-06-03T07:38:10Z</time>
      </trkpt>
      <trkpt lat="43.92955" lon="5.21283">
        <ele>467.34</ele>
        <time>2013-06-03T07:38:23Z</time>
      </trkpt>
      <trkpt lat="43.92951" lon="5.21287">
        <ele>467.82</ele>
        <time>2013-06-03T07:38:28Z</time>
      </trkpt>
      <trkpt lat="43.92941" lon="5.213">
        <ele>469.26</ele>
        <time>2013-06-03T07:38:40Z</time>
      </trkpt>
      <trkpt lat="43.92929" lon="5.21311">
        <ele>469.26</ele>
        <time>2013-06-03T07:38:52Z</time>
      </trkpt>
      <trkpt lat="43.92916" lon="5.21318">
        <ele>468.3</ele>
        <time>2013-06-03T07:39:06Z</time>
      </trkpt>
      <trkpt lat="43.92898" lon="5.21323">
        <ele>465.9</ele>
        <time>2013-06-03T07:39:21Z</time>
      </trkpt>
      <trkpt lat="43.92885" lon="5.21329">
        <ele>463.97</ele>
        <time>2013-06-03T07:39:34Z</time>
      </trkpt>
      <trkpt lat="43.92869" lon="5.21338">
        <ele>461.09</ele>
        <time>2013-06-03T07:39:50Z</time>
      </trkpt>
      <trkpt lat="43.92867" lon="5.2134">
        <ele>460.61</ele>
        <time>2013-06-03T07:39:53Z</time>
      </trkpt>
      <trkpt lat="43.92855" lon="5.21342">
        <ele>458.69</ele>
        <time>2013-06-03T07:40:06Z</time>
      </trkpt>
      <trkpt lat="43.92853" lon="5.21342">
        <ele>458.69</ele>
        <time>2013-06-03T07:40:08Z</time>
      </trkpt>
      <trkpt lat="43.9285" lon="5.21343">
        <ele>458.21</ele>
        <time>2013-06-03T07:40:11Z</time>
      </trkpt>
      <trkpt lat="43.92842" lon="5.21346">
        <ele>457.24</ele>
        <time>2013-06-03T07:40:21Z</time>
      </trkpt>
      <trkpt lat="43.92839" lon="5.21351">
        <ele>456.28</ele>
        <time>2013-06-03T07:40:26Z</time>
      </trkpt>
      <trkpt lat="43.92835" lon="5.21353">
        <ele>455.32</ele>
        <time>2013-06-03T07:40:31Z</time>
      </trkpt>
      <trkpt lat="43.9283" lon="5.21356">
        <ele>454.84</ele>
        <time>2013-06-03T07:40:36Z</time>
      </trkpt>
      <trkpt lat="43.92826" lon="5.21358">
        <ele>453.88</ele>
        <time>2013-06-03T07:40:41Z</time>
      </trkpt>
      <trkpt lat="43.92822" lon="5.21358">
        <ele>453.4</ele>
        <time>2013-06-03T07:40:46Z</time>
      </trkpt>
      <trkpt lat="43.92809" lon="5.21367">
        <ele>451</ele>
        <time>2013-06-03T07:41:02Z</time>
      </trkpt>
      <trkpt lat="43.928" lon="5.21376">
        <ele>449.55</ele>
        <time>2013-06-03T07:41:14Z</time>
      </trkpt>
      <trkpt lat="43.92793" lon="5.21386">
        <ele>447.63</ele>
        <time>2013-06-03T07:41:27Z</time>
      </trkpt>
      <trkpt lat="43.92782" lon="5.21396">
        <ele>445.71</ele>
        <time>2013-06-03T07:41:42Z</time>
      </trkpt>
      <trkpt lat="43.92775" lon="5.21401">
        <ele>444.75</ele>
        <time>2013-06-03T07:41:50Z</time>
      </trkpt>
      <trkpt lat="43.92767" lon="5.21411">
        <ele>442.82</ele>
        <time>2013-06-03T07:42:04Z</time>
      </trkpt>
      <trkpt lat="43.92762" lon="5.21417">
        <ele>441.86</ele>
        <time>2013-06-03T07:42:11Z</time>
      </trkpt>
      <trkpt lat="43.92758" lon="5.21422">
        <ele>440.9</ele>
        <time>2013-06-03T07:42:17Z</time>
      </trkpt>
      <trkpt lat="43.92743" lon="5.21432">
        <ele>438.98</ele>
        <time>2013-06-03T07:42:33Z</time>
      </trkpt>
      <trkpt lat="43.92741" lon="5.21436">
        <ele>438.5</ele>
        <time>2013-06-03T07:42:37Z</time>
      </trkpt>
      <trkpt lat="43.92736" lon="5.21447">
        <ele>437.06</ele>
        <time>2013-06-03T07:42:47Z</time>
      </trkpt>
      <trkpt lat="43.92724" lon="5.21466">
        <ele>433.69</ele>
        <time>2013-06-03T07:43:03Z</time>
      </trkpt>
      <trkpt lat="43.92713" lon="5.21484">
        <ele>431.77</ele>
        <time>2013-06-03T07:43:22Z</time>
      </trkpt>
      <trkpt lat="43.92703" lon="5.21501">
        <ele>429.85</ele>
        <time>2013-06-03T07:43:40Z</time>
      </trkpt>
      <trkpt lat="43.92698" lon="5.21518">
        <ele>426.96</ele>
        <time>2013-06-03T07:43:55Z</time>
      </trkpt>
      <trkpt lat="43.92692" lon="5.21533">
        <ele>425.52</ele>
        <time>2013-06-03T07:44:06Z</time>
      </trkpt>
      <trkpt lat="43.9269" lon="5.21536">
        <ele>425.04</ele>
        <time>2013-06-03T07:44:10Z</time>
      </trkpt>
      <trkpt lat="43.92681" lon="5.21546">
        <ele>423.12</ele>
        <time>2013-06-03T07:44:24Z</time>
      </trkpt>
      <trkpt lat="43.92679" lon="5.21553">
        <ele>422.16</ele>
        <time>2013-06-03T07:44:30Z</time>
      </trkpt>
      <trkpt lat="43.92675" lon="5.21559">
        <ele>421.68</ele>
        <time>2013-06-03T07:44:35Z</time>
      </trkpt>
      <trkpt lat="43.92674" lon="5.21561">
        <ele>421.19</ele>
        <time>2013-06-03T07:44:37Z</time>
      </trkpt>
      <trkpt lat="43.92667" lon="5.21573">
        <ele>420.23</ele>
        <time>2013-06-03T07:44:52Z</time>
      </trkpt>
      <trkpt lat="43.9266" lon="5.21587">
        <ele>418.31</ele>
        <time>2013-06-03T07:45:04Z</time>
      </trkpt>
      <trkpt lat="43.92656" lon="5.21592">
        <ele>417.35</ele>
        <time>2013-06-03T07:45:10Z</time>
      </trkpt>
      <trkpt lat="43.92653" lon="5.21598">
        <ele>416.87</ele>
        <time>2013-06-03T07:45:15Z</time>
      </trkpt>
      <trkpt lat="43.92647" lon="5.21609">
        <ele>415.91</ele>
        <time>2013-06-03T07:45:26Z</time>
      </trkpt>
      <trkpt lat="43.92643" lon="5.21614">
        <ele>414.95</ele>
        <time>2013-06-03T07:45:31Z</time>
      </trkpt>
      <trkpt lat="43.9264" lon="5.21632">
        <ele>413.02</ele>
        <time>2013-06-03T07:45:46Z</time>
      </trkpt>
      <trkpt lat="43.92639" lon="5.21635">
        <ele>412.54</ele>
        <time>2013-06-03T07:45:49Z</time>
      </trkpt>
      <trkpt lat="43.92633" lon="5.21648">
        <ele>411.1</ele>
        <time>2013-06-03T07:46:02Z</time>
      </trkpt>
      <trkpt lat="43.92627" lon="5.2166">
        <ele>409.18</ele>
        <time>2013-06-03T07:46:14Z</time>
      </trkpt>
      <trkpt lat="43.92625" lon="5.21669">
        <ele>408.22</ele>
        <time>2013-06-03T07:46:21Z</time>
      </trkpt>
      <trkpt lat="43.92624" lon="5.21671">
        <ele>407.74</ele>
        <time>2013-06-03T07:46:23Z</time>
      </trkpt>
      <trkpt lat="43.92615" lon="5.21682">
        <ele>406.29</ele>
        <time>2013-06-03T07:46:36Z</time>
      </trkpt>
      <trkpt lat="43.92607" lon="5.21692">
        <ele>404.37</ele>
        <time>2013-06-03T07:46:48Z</time>
      </trkpt>
      <trkpt lat="43.92598" lon="5.21701">
        <ele>402.93</ele>
        <time>2013-06-03T07:47:00Z</time>
      </trkpt>
      <trkpt lat="43.92586" lon="5.21712">
        <ele>401.49</ele>
        <time>2013-06-03T07:47:15Z</time>
      </trkpt>
      <trkpt lat="43.9258" lon="5.21721">
        <ele>400.53</ele>
        <time>2013-06-03T07:47:25Z</time>
      </trkpt>
      <trkpt lat="43.92576" lon="5.21727">
        <ele>399.57</ele>
        <time>2013-06-03T07:47:33Z</time>
      </trkpt>
      <trkpt lat="43.92567" lon="5.21742">
        <ele>397.64</ele>
        <time>2013-06-03T07:47:49Z</time>
      </trkpt>
      <trkpt lat="43.92562" lon="5.21756">
        <ele>396.2</ele>
        <time>2013-06-03T07:48:03Z</time>
      </trkpt>
      <trkpt lat="43.92559" lon="5.21764">
        <ele>394.76</ele>
        <time>2013-06-03T07:48:10Z</time>
      </trkpt>
      <trkpt lat="43.92558" lon="5.21765">
        <ele>394.76</ele>
        <time>2013-06-03T07:48:15Z</time>
      </trkpt>
      <trkpt lat="43.92545" lon="5.21775">
        <ele>392.84</ele>
        <time>2013-06-03T07:48:31Z</time>
      </trkpt>
      <trkpt lat="43.92537" lon="5.21789">
        <ele>390.43</ele>
        <time>2013-06-03T07:48:46Z</time>
      </trkpt>
      <trkpt lat="43.92531" lon="5.218">
        <ele>388.99</ele>
        <time>2013-06-03T07:49:03Z</time>
      </trkpt>
      <trkpt lat="43.9253" lon="5.218">
        <ele>388.99</ele>
        <time>2013-06-03T07:49:11Z</time>
      </trkpt>
      <trkpt lat="43.92526" lon="5.21806">
        <ele>388.03</ele>
        <time>2013-06-03T07:49:25Z</time>
      </trkpt>
      <trkpt lat="43.92526" lon="5.21808">
        <ele>387.55</ele>
        <time>2013-06-03T07:49:42Z</time>
      </trkpt>
      <trkpt lat="43.92526" lon="5.21808">
        <ele>387.55</ele>
        <time>2013-06-03T07:49:55Z</time>
      </trkpt>
      <trkpt lat="43.92524" lon="5.21812">
        <ele>387.07</ele>
        <time>2013-06-03T07:50:15Z</time>
      </trkpt>
      <trkpt lat="43.92522" lon="5.21821">
        <ele>385.63</ele>
        <time>2013-06-03T07:50:31Z</time>
      </trkpt>
      <trkpt lat="43.9252" lon="5.21825">
        <ele>385.63</ele>
        <time>2013-06-03T07:50:51Z</time>
      </trkpt>
      <trkpt lat="43.92519" lon="5.21836">
        <ele>384.18</ele>
        <time>2013-06-03T07:51:07Z</time>
      </trkpt>
      <trkpt lat="43.92519" lon="5.21851">
        <ele>381.78</ele>
        <time>2013-06-03T07:51:22Z</time>
      </trkpt>
      <trkpt lat="43.92516" lon="5.21861">
        <ele>380.34</ele>
        <time>2013-06-03T07:51:34Z</time>
      </trkpt>
      <trkpt lat="43.92511" lon="5.21876">
        <ele>378.42</ele>
        <time>2013-06-03T07:51:48Z</time>
      </trkpt>
      <trkpt lat="43.92509" lon="5.2189">
        <ele>376.97</ele>
        <time>2013-06-03T07:52:03Z</time>
      </trkpt>
      <trkpt lat="43.92504" lon="5.21904">
        <ele>375.53</ele>
        <time>2013-06-03T07:52:16Z</time>
      </trkpt>
      <trkpt lat="43.92498" lon="5.21912">
        <ele>374.57</ele>
        <time>2013-06-03T07:52:26Z</time>
      </trkpt>
      <trkpt lat="43.9249" lon="5.21926">
        <ele>373.13</ele>
        <time>2013-06-03T07:52:41Z</time>
      </trkpt>
      <trkpt lat="43.9249" lon="5.21926">
        <ele>372.65</ele>
        <time>2013-06-03T07:52:43Z</time>
      </trkpt>
      <trkpt lat="43.92488" lon="5.2193">
        <ele>372.17</ele>
        <time>2013-06-03T07:52:47Z</time>
      </trkpt>
      <trkpt lat="43.92482" lon="5.21939">
        <ele>371.21</ele>
        <time>2013-06-03T07:52:59Z</time>
      </trkpt>
      <trkpt lat="43.92479" lon="5.21943">
        <ele>370.73</ele>
        <time>2013-06-03T07:53:03Z</time>
      </trkpt>
      <trkpt lat="43.92467" lon="5.21954">
        <ele>368.32</ele>
        <time>2013-06-03T07:53:17Z</time>
      </trkpt>
      <trkpt lat="43.92463" lon="5.21963">
        <ele>367.36</ele>
        <time>2013-06-03T07:53:25Z</time>
      </trkpt>
      <trkpt lat="43.92455" lon="5.21978">
        <ele>365.92</ele>
        <time>2013-06-03T07:53:39Z</time>
      </trkpt>
      <trkpt lat="43.9245" lon="5.21985">
        <ele>364.96</ele>
        <time>2013-06-03T07:53:47Z</time>
      </trkpt>
      <trkpt lat="43.92439" lon="5.21998">
        <ele>363.52</ele>
        <time>2013-06-03T07:54:03Z</time>
      </trkpt>
      <trkpt lat="43.9243" lon="5.22007">
        <ele>361.59</ele>
        <time>2013-06-03T07:54:16Z</time>
      </trkpt>
      <trkpt lat="43.92422" lon="5.2202">
        <ele>359.67</ele>
        <time>2013-06-03T07:54:31Z</time>
      </trkpt>
      <trkpt lat="43.92417" lon="5.22036">
        <ele>357.75</ele>
        <time>2013-06-03T07:54:46Z</time>
      </trkpt>
      <trkpt lat="43.92415" lon="5.22049">
        <ele>356.79</ele>
        <time>2013-06-03T07:54:57Z</time>
      </trkpt>
      <trkpt lat="43.92415" lon="5.22054">
        <ele>356.31</ele>
        <time>2013-06-03T07:55:00Z</time>
      </trkpt>
      <trkpt lat="43.92416" lon="5.22069">
        <ele>355.34</ele>
        <time>2013-06-03T07:55:12Z</time>
      </trkpt>
      <trkpt lat="43.92417" lon="5.22083">
        <ele>354.38</ele>
        <time>2013-06-03T07:55:25Z</time>
      </trkpt>
      <trkpt lat="43.9241" lon="5.22093">
        <ele>351.98</ele>
        <time>2013-06-03T07:55:41Z</time>
      </trkpt>
      <trkpt lat="43.92406" lon="5.22105">
        <ele>350.54</ele>
        <time>2013-06-03T07:55:55Z</time>
      </trkpt>
      <trkpt lat="43.92405" lon="5.22122">
        <ele>349.1</ele>
        <time>2013-06-03T07:56:09Z</time>
      </trkpt>
      <trkpt lat="43.92401" lon="5.22138">
        <ele>347.65</ele>
        <time>2013-06-03T07:56:22Z</time>
      </trkpt>
      <trkpt lat="43.92399" lon="5.22144">
        <ele>346.21</ele>
        <time>2013-06-03T07:56:27Z</time>
      </trkpt>
      <trkpt lat="43.92396" lon="5.22153">
        <ele>345.25</ele>
        <time>2013-06-03T07:56:37Z</time>
      </trkpt>
      <trkpt lat="43.92395" lon="5.22158">
        <ele>344.77</ele>
        <time>2013-06-03T07:56:41Z</time>
      </trkpt>
      <trkpt lat="43.9239" lon="5.22178">
        <ele>342.37</ele>
        <time>2013-06-03T07:56:56Z</time>
      </trkpt>
      <trkpt lat="43.92388" lon="5.22185">
        <ele>341.89</ele>
        <time>2013-06-03T07:57:02Z</time>
      </trkpt>
      <trkpt lat="43.92386" lon="5.22188">
        <ele>341.41</ele>
        <time>2013-06-03T07:57:05Z</time>
      </trkpt>
      <trkpt lat="43.9238" lon="5.22204">
        <ele>339.48</ele>
        <time>2013-06-03T07:57:21Z</time>
      </trkpt>
      <trkpt lat="43.92377" lon="5.22213">
        <ele>338.04</ele>
        <time>2013-06-03T07:57:30Z</time>
      </trkpt>
      <trkpt lat="43.92378" lon="5.22225">
        <ele>337.56</ele>
        <time>2013-06-03T07:57:39Z</time>
      </trkpt>
      <trkpt lat="43.92379" lon="5.22236">
        <ele>336.12</ele>
        <time>2013-06-03T07:57:53Z</time>
      </trkpt>
      <trkpt lat="43.92385" lon="5.22237">
        <ele>335.64</ele>
        <time>2013-06-03T07:58:10Z</time>
      </trkpt>
      <trkpt lat="43.92379" lon="5.22237">
        <ele>336.12</ele>
        <time>2013-06-03T07:58:32Z</time>
      </trkpt>
      <trkpt lat="43.92376" lon="5.22239">
        <ele>335.64</ele>
        <time>2013-06-03T07:58:44Z</time>
      </trkpt>
      <trkpt lat="43.92376" lon="5.22241">
        <ele>335.64</ele>
        <time>2013-06-03T07:58:56Z</time>
      </trkpt>
      <trkpt lat="43.92376" lon="5.22241">
        <ele>335.64</ele>
        <time>2013-06-03T07:59:16Z</time>
      </trkpt>
      <trkpt lat="43.92378" lon="5.22241">
        <ele>335.64</ele>
        <time>2013-06-03T07:59:49Z</time>
      </trkpt>
      <trkpt lat="43.92378" lon="5.2224">
        <ele>336.12</ele>
        <time>2013-06-03T08:00:08Z</time>
      </trkpt>
      <trkpt lat="43.92373" lon="5.22242">
        <ele>335.64</ele>
        <time>2013-06-03T08:00:21Z</time>
      </trkpt>
      <trkpt lat="43.92373" lon="5.22243">
        <ele>335.64</ele>
        <time>2013-06-03T08:00:48Z</time>
      </trkpt>
      <trkpt lat="43.92375" lon="5.22243">
        <ele>335.16</ele>
        <time>2013-06-03T08:01:18Z</time>
      </trkpt>
      <trkpt lat="43.92372" lon="5.22249">
        <ele>334.68</ele>
        <time>2013-06-03T08:01:47Z</time>
      </trkpt>
      <trkpt lat="43.92369" lon="5.22266">
        <ele>333.23</ele>
        <time>2013-06-03T08:02:00Z</time>
      </trkpt>
      <trkpt lat="43.92359" lon="5.22283">
        <ele>330.83</ele>
        <time>2013-06-03T08:02:17Z</time>
      </trkpt>
      <trkpt lat="43.92358" lon="5.22284">
        <ele>330.35</ele>
        <time>2013-06-03T08:02:18Z</time>
      </trkpt>
      <trkpt lat="43.92348" lon="5.22291">
        <ele>329.39</ele>
        <time>2013-06-03T08:02:29Z</time>
      </trkpt>
      <trkpt lat="43.92339" lon="5.22307">
        <ele>327.47</ele>
        <time>2013-06-03T08:02:44Z</time>
      </trkpt>
      <trkpt lat="43.92333" lon="5.22326">
        <ele>326.02</ele>
        <time>2013-06-03T08:02:59Z</time>
      </trkpt>
      <trkpt lat="43.92325" lon="5.22345">
        <ele>324.58</ele>
        <time>2013-06-03T08:03:14Z</time>
      </trkpt>
      <trkpt lat="43.92314" lon="5.22361">
        <ele>323.14</ele>
        <time>2013-06-03T08:03:30Z</time>
      </trkpt>
      <trkpt lat="43.92308" lon="5.22376">
        <ele>322.18</ele>
        <time>2013-06-03T08:03:42Z</time>
      </trkpt>
      <trkpt lat="43.92298" lon="5.22393">
        <ele>319.78</ele>
        <time>2013-06-03T08:03:58Z</time>
      </trkpt>
      <trkpt lat="43.92289" lon="5.22397">
        <ele>318.81</ele>
        <time>2013-06-03T08:04:09Z</time>
      </trkpt>
      <trkpt lat="43.92281" lon="5.22401">
        <ele>317.37</ele>
        <time>2013-06-03T08:04:19Z</time>
      </trkpt>
      <trkpt lat="43.92271" lon="5.22411">
        <ele>315.45</ele>
        <time>2013-06-03T08:04:33Z</time>
      </trkpt>
      <trkpt lat="43.92258" lon="5.22418">
        <ele>313.53</ele>
        <time>2013-06-03T08:04:49Z</time>
      </trkpt>
      <trkpt lat="43.92249" lon="5.22424">
        <ele>311.6</ele>
        <time>2013-06-03T08:05:01Z</time>
      </trkpt>
      <trkpt lat="43.92239" lon="5.22432">
        <ele>309.68</ele>
        <time>2013-06-03T08:05:16Z</time>
      </trkpt>
      <trkpt lat="43.92232" lon="5.22436">
        <ele>308.24</ele>
        <time>2013-06-03T08:05:27Z</time>
      </trkpt>
      <trkpt lat="43.92226" lon="5.22437">
        <ele>307.28</ele>
        <time>2013-06-03T08:05:35Z</time>
      </trkpt>
      <trkpt lat="43.92215" lon="5.22438">
        <ele>305.36</ele>
        <time>2013-06-03T08:05:48Z</time>
      </trkpt>
      <trkpt lat="43.92206" lon="5.22441">
        <ele>303.91</ele>
        <time>2013-06-03T08:06:01Z</time>
      </trkpt>
      <trkpt lat="43.92194" lon="5.22448">
        <ele>301.99</ele>
        <time>2013-06-03T08:06:15Z</time>
      </trkpt>
      <trkpt lat="43.92192" lon="5.22451">
        <ele>301.51</ele>
        <time>2013-06-03T08:06:18Z</time>
      </trkpt>
      <trkpt lat="43.92186" lon="5.22456">
        <ele>300.55</ele>
        <time>2013-06-03T08:06:25Z</time>
      </trkpt>
      <trkpt lat="43.92178" lon="5.22466">
        <ele>299.11</ele>
        <time>2013-06-03T08:06:41Z</time>
      </trkpt>
      <trkpt lat="43.92174" lon="5.22469">
        <ele>298.63</ele>
        <time>2013-06-03T08:06:46Z</time>
      </trkpt>
      <trkpt lat="43.92161" lon="5.22476">
        <ele>296.22</ele>
        <time>2013-06-03T08:07:04Z</time>
      </trkpt>
      <trkpt lat="43.92151" lon="5.22482">
        <ele>294.3</ele>
        <time>2013-06-03T08:07:19Z</time>
      </trkpt>
      <trkpt lat="43.92144" lon="5.22488">
        <ele>294.78</ele>
        <time>2013-06-03T08:07:31Z</time>
      </trkpt>
      <trkpt lat="43.92133" lon="5.22496">
        <ele>292.38</ele>
        <time>2013-06-03T08:07:46Z</time>
      </trkpt>
      <trkpt lat="43.92119" lon="5.22503">
        <ele>289.97</ele>
        <time>2013-06-03T08:08:03Z</time>
      </trkpt>
      <trkpt lat="43.92109" lon="5.22512">
        <ele>289.01</ele>
        <time>2013-06-03T08:08:18Z</time>
      </trkpt>
      <trkpt lat="43.92099" lon="5.2252">
        <ele>287.57</ele>
        <time>2013-06-03T08:08:31Z</time>
      </trkpt>
      <trkpt lat="43.92095" lon="5.22526">
        <ele>286.61</ele>
        <time>2013-06-03T08:08:43Z</time>
      </trkpt>
      <trkpt lat="43.92087" lon="5.22533">
        <ele>285.17</ele>
        <time>2013-06-03T08:08:55Z</time>
      </trkpt>
      <trkpt lat="43.92085" lon="5.22534">
        <ele>285.17</ele>
        <time>2013-06-03T08:08:57Z</time>
      </trkpt>
      <trkpt lat="43.92076" lon="5.22541">
        <ele>283.73</ele>
        <time>2013-06-03T08:09:09Z</time>
      </trkpt>
      <trkpt lat="43.92067" lon="5.22548">
        <ele>281.8</ele>
        <time>2013-06-03T08:09:23Z</time>
      </trkpt>
      <trkpt lat="43.92061" lon="5.22551">
        <ele>280.84</ele>
        <time>2013-06-03T08:09:35Z</time>
      </trkpt>
      <trkpt lat="43.92058" lon="5.22553">
        <ele>280.36</ele>
        <time>2013-06-03T08:09:39Z</time>
      </trkpt>
      <trkpt lat="43.92048" lon="5.2256">
        <ele>278.92</ele>
        <time>2013-06-03T08:09:53Z</time>
      </trkpt>
      <trkpt lat="43.92041" lon="5.22568">
        <ele>277</ele>
        <time>2013-06-03T08:10:04Z</time>
      </trkpt>
      <trkpt lat="43.92032" lon="5.22574">
        <ele>275.56</ele>
        <time>2013-06-03T08:10:17Z</time>
      </trkpt>
      <trkpt lat="43.92022" lon="5.22581">
        <ele>274.11</ele>
        <time>2013-06-03T08:10:31Z</time>
      </trkpt>
      <trkpt lat="43.9202" lon="5.22582">
        <ele>273.63</ele>
        <time>2013-06-03T08:10:34Z</time>
      </trkpt>
      <trkpt lat="43.92007" lon="5.22587">
        <ele>271.71</ele>
        <time>2013-06-03T08:10:50Z</time>
      </trkpt>
      <trkpt lat="43.91996" lon="5.22594">
        <ele>270.75</ele>
        <time>2013-06-03T08:11:04Z</time>
      </trkpt>
      <trkpt lat="43.91989" lon="5.22598">
        <ele>268.83</ele>
        <time>2013-06-03T08:11:12Z</time>
      </trkpt>
      <trkpt lat="43.91977" lon="5.22613">
        <ele>266.9</ele>
        <time>2013-06-03T08:11:28Z</time>
      </trkpt>
      <trkpt lat="43.9197" lon="5.22618">
        <ele>265.94</ele>
        <time>2013-06-03T08:11:40Z</time>
      </trkpt>
      <trkpt lat="43.91959" lon="5.22623">
        <ele>264.02</ele>
        <time>2013-06-03T08:11:54Z</time>
      </trkpt>
      <trkpt lat="43.9195" lon="5.22628">
        <ele>262.58</ele>
        <time>2013-06-03T08:12:08Z</time>
      </trkpt>
      <trkpt lat="43.91945" lon="5.22633">
        <ele>262.1</ele>
        <time>2013-06-03T08:12:18Z</time>
      </trkpt>
      <trkpt lat="43.91935" lon="5.2264">
        <ele>260.65</ele>
        <time>2013-06-03T08:12:31Z</time>
      </trkpt>
      <trkpt lat="43.91927" lon="5.22646">
        <ele>258.25</ele>
        <time>2013-06-03T08:12:44Z</time>
      </trkpt>
      <trkpt lat="43.91916" lon="5.22654">
        <ele>257.29</ele>
        <time>2013-06-03T08:12:57Z</time>
      </trkpt>
      <trkpt lat="43.91905" lon="5.22664">
        <ele>255.37</ele>
        <time>2013-06-03T08:13:13Z</time>
      </trkpt>
      <trkpt lat="43.91895" lon="5.22668">
        <ele>253.44</ele>
        <time>2013-06-03T08:13:26Z</time>
      </trkpt>
      <trkpt lat="43.91892" lon="5.2267">
        <ele>253.44</ele>
        <time>2013-06-03T08:13:33Z</time>
      </trkpt>
      <trkpt lat="43.91884" lon="5.22684">
        <ele>251.52</ele>
        <time>2013-06-03T08:13:48Z</time>
      </trkpt>
      <trkpt lat="43.91884" lon="5.22691">
        <ele>250.56</ele>
        <time>2013-06-03T08:14:00Z</time>
      </trkpt>
      <trkpt lat="43.91888" lon="5.22695">
        <ele>250.08</ele>
        <time>2013-06-03T08:14:15Z</time>
      </trkpt>
      <trkpt lat="43.91885" lon="5.22693">
        <ele>250.08</ele>
        <time>2013-06-03T08:14:44Z</time>
      </trkpt>
      <trkpt lat="43.91887" lon="5.22693">
        <ele>250.08</ele>
        <time>2013-06-03T08:15:02Z</time>
      </trkpt>
      <trkpt lat="43.91887" lon="5.22693">
        <ele>250.08</ele>
        <time>2013-06-03T08:15:27Z</time>
      </trkpt>
      <trkpt lat="43.91889" lon="5.22695">
        <ele>250.08</ele>
        <time>2013-06-03T08:15:46Z</time>
      </trkpt>
      <trkpt lat="43.91897" lon="5.22699">
        <ele>248.64</ele>
        <time>2013-06-03T08:15:59Z</time>
      </trkpt>
      <trkpt lat="43.91907" lon="5.22699">
        <ele>247.2</ele>
        <time>2013-06-03T08:16:15Z</time>
      </trkpt>
      <trkpt lat="43.91919" lon="5.22704">
        <ele>245.75</ele>
        <time>2013-06-03T08:16:31Z</time>
      </trkpt>
      <trkpt lat="43.9193" lon="5.22708">
        <ele>243.35</ele>
        <time>2013-06-03T08:16:48Z</time>
      </trkpt>
      <trkpt lat="43.91924" lon="5.22714">
        <ele>240.95</ele>
        <time>2013-06-03T08:17:03Z</time>
      </trkpt>
      <trkpt lat="43.91914" lon="5.22716">
        <ele>238.54</ele>
        <time>2013-06-03T08:17:19Z</time>
      </trkpt>
      <trkpt lat="43.91904" lon="5.22722">
        <ele>236.14</ele>
        <time>2013-06-03T08:17:36Z</time>
      </trkpt>
      <trkpt lat="43.91893" lon="5.22727">
        <ele>234.22</ele>
        <time>2013-06-03T08:17:50Z</time>
      </trkpt>
      <trkpt lat="43.91882" lon="5.2273">
        <ele>231.33</ele>
        <time>2013-06-03T08:18:07Z</time>
      </trkpt>
      <trkpt lat="43.91869" lon="5.22736">
        <ele>229.41</ele>
        <time>2013-06-03T08:18:26Z</time>
      </trkpt>
      <trkpt lat="43.91875" lon="5.22741">
        <ele>227.97</ele>
        <time>2013-06-03T08:18:38Z</time>
      </trkpt>
      <trkpt lat="43.91887" lon="5.22748">
        <ele>225.09</ele>
        <time>2013-06-03T08:18:57Z</time>
      </trkpt>
      <trkpt lat="43.91896" lon="5.22756">
        <ele>223.16</ele>
        <time>2013-06-03T08:19:11Z</time>
      </trkpt>
      <trkpt lat="43.91896" lon="5.22756">
        <ele>223.16</ele>
        <time>2013-06-03T08:19:12Z</time>
      </trkpt>
      <trkpt lat="43.91902" lon="5.22755">
        <ele>221.72</ele>
        <time>2013-06-03T08:19:28Z</time>
      </trkpt>
      <trkpt lat="43.91906" lon="5.22758">
        <ele>221.24</ele>
        <time>2013-06-03T08:19:46Z</time>
      </trkpt>
      <trkpt lat="43.91913" lon="5.22758">
        <ele>218.84</ele>
        <time>2013-06-03T08:20:04Z</time>
      </trkpt>
      <trkpt lat="43.91914" lon="5.22758">
        <ele>218.84</ele>
        <time>2013-06-03T08:20:18Z</time>
      </trkpt>
      <trkpt lat="43.91916" lon="5.22742">
        <ele>218.84</ele>
        <time>2013-06-03T08:20:36Z</time>
      </trkpt>
      <trkpt lat="43.9192" lon="5.22747">
        <ele>218.84</ele>
        <time>2013-06-03T08:20:54Z</time>
      </trkpt>
      <trkpt lat="43.91922" lon="5.22746">
        <ele>218.84</ele>
        <time>2013-06-03T08:21:09Z</time>
      </trkpt>
      <trkpt lat="43.9192" lon="5.22747">
        <ele>218.84</ele>
        <time>2013-06-03T08:21:23Z</time>
      </trkpt>
      <trkpt lat="43.91923" lon="5.22745">
        <ele>218.84</ele>
        <time>2013-06-03T08:21:43Z</time>
      </trkpt>
      <trkpt lat="43.91925" lon="5.22745">
        <ele>218.84</ele>
        <time>2013-06-03T08:22:03Z</time>
      </trkpt>
      <trkpt lat="43.91922" lon="5.22747">
        <ele>218.84</ele>
        <time>2013-06-03T08:22:23Z</time>
      </trkpt>
      <trkpt lat="43.9192" lon="5.22752">
        <ele>218.36</ele>
        <time>2013-06-03T08:22:39Z</time>
      </trkpt>
      <trkpt lat="43.91921" lon="5.22751">
        <ele>218.36</ele>
        <time>2013-06-03T08:23:02Z</time>
      </trkpt>
      <trkpt lat="43.91922" lon="5.22748">
        <ele>217.88</ele>
        <time>2013-06-03T08:23:29Z</time>
      </trkpt>
      <trkpt lat="43.9192" lon="5.22748">
        <ele>218.84</ele>
        <time>2013-06-03T08:23:47Z</time>
      </trkpt>
      <trkpt lat="43.91914" lon="5.2275">
        <ele>218.36</ele>
        <time>2013-06-03T08:24:01Z</time>
      </trkpt>
      <trkpt lat="43.91919" lon="5.22751">
        <ele>216.91</ele>
        <time>2013-06-03T08:24:12Z</time>
      </trkpt>
      <trkpt lat="43.91922" lon="5.22754">
        <ele>214.99</ele>
        <time>2013-06-03T08:24:25Z</time>
      </trkpt>
      <trkpt lat="43.91923" lon="5.22757">
        <ele>214.99</ele>
        <time>2013-06-03T08:24:48Z</time>
      </trkpt>
      <trkpt lat="43.91916" lon="5.22754">
        <ele>216.43</ele>
        <time>2013-06-03T08:25:03Z</time>
      </trkpt>
      <trkpt lat="43.91917" lon="5.22745">
        <ele>218.36</ele>
        <time>2013-06-03T08:25:17Z</time>
      </trkpt>
      <trkpt lat="43.91921" lon="5.22743">
        <ele>218.84</ele>
        <time>2013-06-03T08:25:29Z</time>
      </trkpt>
      <trkpt lat="43.91929" lon="5.22737">
        <ele>220.76</ele>
        <time>2013-06-03T08:25:45Z</time>
      </trkpt>
      <trkpt lat="43.91931" lon="5.22748">
        <ele>222.2</ele>
        <time>2013-06-03T08:26:04Z</time>
      </trkpt>
      <trkpt lat="43.91931" lon="5.22742">
        <ele>222.2</ele>
        <time>2013-06-03T08:26:17Z</time>
      </trkpt>
      <trkpt lat="43.91933" lon="5.22742">
        <ele>222.2</ele>
        <time>2013-06-03T08:26:32Z</time>
      </trkpt>
      <trkpt lat="43.91938" lon="5.22748">
        <ele>222.2</ele>
        <time>2013-06-03T08:26:50Z</time>
      </trkpt>
      <trkpt lat="43.91946" lon="5.22744">
        <ele>222.2</ele>
        <time>2013-06-03T08:27:04Z</time>
      </trkpt>
      <trkpt lat="43.9195" lon="5.2273">
        <ele>223.16</ele>
        <time>2013-06-03T08:27:19Z</time>
      </trkpt>
      <trkpt lat="43.91964" lon="5.2273">
        <ele>223.64</ele>
        <time>2013-06-03T08:27:35Z</time>
      </trkpt>
      <trkpt lat="43.91974" lon="5.22726">
        <ele>225.57</ele>
        <time>2013-06-03T08:27:50Z</time>
      </trkpt>
      <trkpt lat="43.91976" lon="5.22722">
        <ele>224.12</ele>
        <time>2013-06-03T08:28:10Z</time>
      </trkpt>
      <trkpt lat="43.91982" lon="5.22711">
        <ele>224.12</ele>
        <time>2013-06-03T08:28:27Z</time>
      </trkpt>
      <trkpt lat="43.91983" lon="5.22717">
        <ele>223.64</ele>
        <time>2013-06-03T08:28:51Z</time>
      </trkpt>
      <trkpt lat="43.91976" lon="5.22705">
        <ele>225.09</ele>
        <time>2013-06-03T08:29:05Z</time>
      </trkpt>
      <trkpt lat="43.91978" lon="5.2271">
        <ele>227.01</ele>
        <time>2013-06-03T08:29:19Z</time>
      </trkpt>
      <trkpt lat="43.91979" lon="5.22716">
        <ele>226.53</ele>
        <time>2013-06-03T08:29:39Z</time>
      </trkpt>
      <trkpt lat="43.91978" lon="5.22715">
        <ele>227.01</ele>
        <time>2013-06-03T08:29:57Z</time>
      </trkpt>
      <trkpt lat="43.91979" lon="5.22712">
        <ele>227.01</ele>
        <time>2013-06-03T08:30:18Z</time>
      </trkpt>
      <trkpt lat="43.91976" lon="5.22704">
        <ele>227.01</ele>
        <time>2013-06-03T08:30:37Z</time>
      </trkpt>
      <trkpt lat="43.91978" lon="5.22706">
        <ele>227.49</ele>
        <time>2013-06-03T08:30:55Z</time>
      </trkpt>
      <trkpt lat="43.91986" lon="5.22704">
        <ele>228.93</ele>
        <time>2013-06-03T08:31:05Z</time>
      </trkpt>
      <trkpt lat="43.91996" lon="5.227">
        <ele>228.93</ele>
        <time>2013-06-03T08:31:19Z</time>
      </trkpt>
      <trkpt lat="43.92007" lon="5.22692">
        <ele>230.37</ele>
        <time>2013-06-03T08:31:32Z</time>
      </trkpt>
      <trkpt lat="43.92014" lon="5.22696">
        <ele>230.37</ele>
        <time>2013-06-03T08:31:46Z</time>
      </trkpt>
      <trkpt lat="43.92018" lon="5.22697">
        <ele>230.85</ele>
        <time>2013-06-03T08:32:03Z</time>
      </trkpt>
      <trkpt lat="43.92029" lon="5.2269">
        <ele>231.33</ele>
        <time>2013-06-03T08:32:16Z</time>
      </trkpt>
      <trkpt lat="43.92035" lon="5.22684">
        <ele>231.33</ele>
        <time>2013-06-03T08:32:24Z</time>
      </trkpt>
      <trkpt lat="43.92043" lon="5.22681">
        <ele>231.81</ele>
        <time>2013-06-03T08:32:39Z</time>
      </trkpt>
      <trkpt lat="43.92054" lon="5.22685">
        <ele>231.81</ele>
        <time>2013-06-03T08:32:53Z</time>
      </trkpt>
      <trkpt lat="43.92057" lon="5.22687">
        <ele>231.33</ele>
        <time>2013-06-03T08:33:06Z</time>
      </trkpt>
      <trkpt lat="43.92062" lon="5.2268">
        <ele>231.33</ele>
        <time>2013-06-03T08:33:18Z</time>
      </trkpt>
      <trkpt lat="43.92065" lon="5.22675">
        <ele>233.26</ele>
        <time>2013-06-03T08:33:35Z</time>
      </trkpt>
      <trkpt lat="43.92068" lon="5.22675">
        <ele>236.14</ele>
        <time>2013-06-03T08:33:54Z</time>
      </trkpt>
      <trkpt lat="43.92067" lon="5.22676">
        <ele>236.14</ele>
        <time>2013-06-03T08:34:11Z</time>
      </trkpt>
      <trkpt lat="43.92071" lon="5.22681">
        <ele>238.06</ele>
        <time>2013-06-03T08:34:22Z</time>
      </trkpt>
      <trkpt lat="43.92071" lon="5.22679">
        <ele>238.06</ele>
        <time>2013-06-03T08:34:40Z</time>
      </trkpt>
      <trkpt lat="43.92073" lon="5.22674">
        <ele>239.02</ele>
        <time>2013-06-03T08:35:02Z</time>
      </trkpt>
      <trkpt lat="43.92073" lon="5.2267">
        <ele>239.02</ele>
        <time>2013-06-03T08:35:22Z</time>
      </trkpt>
      <trkpt lat="43.92071" lon="5.22663">
        <ele>239.02</ele>
        <time>2013-06-03T08:35:44Z</time>
      </trkpt>
      <trkpt lat="43.92075" lon="5.22661">
        <ele>239.51</ele>
        <time>2013-06-03T08:36:04Z</time>
      </trkpt>
      <trkpt lat="43.92074" lon="5.22659">
        <ele>239.51</ele>
        <time>2013-06-03T08:36:20Z</time>
      </trkpt>
      <trkpt lat="43.92078" lon="5.22661">
        <ele>239.51</ele>
        <time>2013-06-03T08:36:44Z</time>
      </trkpt>
      <trkpt lat="43.92076" lon="5.22652">
        <ele>239.51</ele>
        <time>2013-06-03T08:37:04Z</time>
      </trkpt>
      <trkpt lat="43.92072" lon="5.22646">
        <ele>239.99</ele>
        <time>2013-06-03T08:37:23Z</time>
      </trkpt>
      <trkpt lat="43.92075" lon="5.22651">
        <ele>239.51</ele>
        <time>2013-06-03T08:37:38Z</time>
      </trkpt>
      <trkpt lat="43.9208" lon="5.22644">
        <ele>239.51</ele>
        <time>2013-06-03T08:37:50Z</time>
      </trkpt>
      <trkpt lat="43.92087" lon="5.22632">
        <ele>239.99</ele>
        <time>2013-06-03T08:38:04Z</time>
      </trkpt>
      <trkpt lat="43.92098" lon="5.22625">
        <ele>239.99</ele>
        <time>2013-06-03T08:38:20Z</time>
      </trkpt>
      <trkpt lat="43.92106" lon="5.22616">
        <ele>240.47</ele>
        <time>2013-06-03T08:38:36Z</time>
      </trkpt>
      <trkpt lat="43.92117" lon="5.2261">
        <ele>239.99</ele>
        <time>2013-06-03T08:38:53Z</time>
      </trkpt>
      <trkpt lat="43.92129" lon="5.22607">
        <ele>240.47</ele>
        <time>2013-06-03T08:39:10Z</time>
      </trkpt>
      <trkpt lat="43.9214" lon="5.22604">
        <ele>240.47</ele>
        <time>2013-06-03T08:39:24Z</time>
      </trkpt>
      <trkpt lat="43.92148" lon="5.226">
        <ele>240.95</ele>
        <time>2013-06-03T08:39:39Z</time>
      </trkpt>
      <trkpt lat="43.92153" lon="5.22595">
        <ele>241.91</ele>
        <time>2013-06-03T08:39:53Z</time>
      </trkpt>
      <trkpt lat="43.92157" lon="5.22592">
        <ele>241.43</ele>
        <time>2013-06-03T08:40:05Z</time>
      </trkpt>
      <trkpt lat="43.92164" lon="5.22588">
        <ele>241.91</ele>
        <time>2013-06-03T08:40:18Z</time>
      </trkpt>
      <trkpt lat="43.92168" lon="5.22585">
        <ele>242.39</ele>
        <time>2013-06-03T08:40:36Z</time>
      </trkpt>
      <trkpt lat="43.92169" lon="5.2258">
        <ele>243.35</ele>
        <time>2013-06-03T08:40:57Z</time>
      </trkpt>
      <trkpt lat="43.92183" lon="5.22583">
        <ele>242.87</ele>
        <time>2013-06-03T08:41:16Z</time>
      </trkpt>
      <trkpt lat="43.92194" lon="5.22576">
        <ele>243.35</ele>
        <time>2013-06-03T08:41:30Z</time>
      </trkpt>
      <trkpt lat="43.92202" lon="5.2257">
        <ele>243.83</ele>
        <time>2013-06-03T08:41:42Z</time>
      </trkpt>
      <trkpt lat="43.92211" lon="5.22567">
        <ele>244.79</ele>
        <time>2013-06-03T08:41:54Z</time>
      </trkpt>
      <trkpt lat="43.92212" lon="5.22561">
        <ele>244.79</ele>
        <time>2013-06-03T08:42:08Z</time>
      </trkpt>
      <trkpt lat="43.92215" lon="5.22556">
        <ele>244.31</ele>
        <time>2013-06-03T08:42:21Z</time>
      </trkpt>
      <trkpt lat="43.92213" lon="5.22552">
        <ele>244.31</ele>
        <time>2013-06-03T08:42:36Z</time>
      </trkpt>
      <trkpt lat="43.92215" lon="5.22554">
        <ele>244.31</ele>
        <time>2013-06-03T08:42:50Z</time>
      </trkpt>
      <trkpt lat="43.92214" lon="5.22554">
        <ele>244.31</ele>
        <time>2013-06-03T08:42:59Z</time>
      </trkpt>
      <trkpt lat="43.92215" lon="5.22568">
        <ele>243.83</ele>
        <time>2013-06-03T08:43:16Z</time>
      </trkpt>
      <trkpt lat="43.92214" lon="5.22568">
        <ele>244.31</ele>
        <time>2013-06-03T08:43:30Z</time>
      </trkpt>
      <trkpt lat="43.92213" lon="5.22569">
        <ele>243.83</ele>
        <time>2013-06-03T08:43:45Z</time>
      </trkpt>
      <trkpt lat="43.92214" lon="5.22567">
        <ele>243.83</ele>
        <time>2013-06-03T08:43:59Z</time>
      </trkpt>
      <trkpt lat="43.92213" lon="5.22564">
        <ele>244.31</ele>
        <time>2013-06-03T08:44:10Z</time>
      </trkpt>
      <trkpt lat="43.92213" lon="5.22563">
        <ele>244.31</ele>
        <time>2013-06-03T08:44:25Z</time>
      </trkpt>
      <trkpt lat="43.92212" lon="5.22555">
        <ele>244.31</ele>
        <time>2013-06-03T08:44:40Z</time>
      </trkpt>
      <trkpt lat="43.92212" lon="5.2256">
        <ele>244.31</ele>
        <time>2013-06-03T08:44:57Z</time>
      </trkpt>
      <trkpt lat="43.92212" lon="5.2256">
        <ele>243.83</ele>
        <time>2013-06-03T08:45:11Z</time>
      </trkpt>
      <trkpt lat="43.92211" lon="5.22562">
        <ele>243.83</ele>
        <time>2013-06-03T08:45:36Z</time>
      </trkpt>
      <trkpt lat="43.92212" lon="5.22559">
        <ele>243.35</ele>
        <time>2013-06-03T08:45:57Z</time>
      </trkpt>
      <trkpt lat="43.92215" lon="5.22562">
        <ele>243.35</ele>
        <time>2013-06-03T08:46:31Z</time>
      </trkpt>
      <trkpt lat="43.92212" lon="5.22561">
        <ele>243.35</ele>
        <time>2013-06-03T08:47:00Z</time>
      </trkpt>
      <trkpt lat="43.9221" lon="5.22556">
        <ele>243.35</ele>
        <time>2013-06-03T08:47:26Z</time>
      </trkpt>
      <trkpt lat="43.92214" lon="5.22563">
        <ele>243.35</ele>
        <time>2013-06-03T08:47:53Z</time>
      </trkpt>
      <trkpt lat="43.9221" lon="5.2256">
        <ele>243.35</ele>
        <time>2013-06-03T08:48:19Z</time>
      </trkpt>
      <trkpt lat="43.92207" lon="5.22555">
        <ele>243.35</ele>
        <time>2013-06-03T08:48:42Z</time>
      </trkpt>
      <trkpt lat="43.92211" lon="5.22558">
        <ele>243.35</ele>
        <time>2013-06-03T08:49:08Z</time>
      </trkpt>
      <trkpt lat="43.92212" lon="5.22558">
        <ele>243.35</ele>
        <time>2013-06-03T08:49:33Z</time>
      </trkpt>
      <trkpt lat="43.9221" lon="5.22559">
        <ele>243.35</ele>
        <time>2013-06-03T08:49:54Z</time>
      </trkpt>
      <trkpt lat="43.92213" lon="5.22556">
        <ele>243.35</ele>
        <time>2013-06-03T08:50:21Z</time>
      </trkpt>
      <trkpt lat="43.92213" lon="5.2256">
        <ele>243.35</ele>
        <time>2013-06-03T08:50:57Z</time>
      </trkpt>
      <trkpt lat="43.92214" lon="5.22562">
        <ele>243.35</ele>
        <time>2013-06-03T08:51:20Z</time>
      </trkpt>
      <trkpt lat="43.92215" lon="5.22563">
        <ele>243.35</ele>
        <time>2013-06-03T08:51:45Z</time>
      </trkpt>
      <trkpt lat="43.92213" lon="5.22561">
        <ele>243.35</ele>
        <time>2013-06-03T08:52:14Z</time>
      </trkpt>
      <trkpt lat="43.92207" lon="5.22557">
        <ele>243.35</ele>
        <time>2013-06-03T08:52:46Z</time>
      </trkpt>
      <trkpt lat="43.92211" lon="5.2256">
        <ele>243.35</ele>
        <time>2013-06-03T08:53:07Z</time>
      </trkpt>
      <trkpt lat="43.92209" lon="5.22556">
        <ele>243.35</ele>
        <time>2013-06-03T08:53:31Z</time>
      </trkpt>
      <trkpt lat="43.92208" lon="5.22556">
        <ele>243.35</ele>
        <time>2013-06-03T08:53:57Z</time>
      </trkpt>
      <trkpt lat="43.92207" lon="5.22558">
        <ele>243.35</ele>
        <time>2013-06-03T08:54:22Z</time>
      </trkpt>
      <trkpt lat="43.9221" lon="5.22561">
        <ele>243.35</ele>
        <time>2013-06-03T08:54:50Z</time>
      </trkpt>
      <trkpt lat="43.92204" lon="5.22556">
        <ele>243.35</ele>
        <time>2013-06-03T08:55:15Z</time>
      </trkpt>
      <trkpt lat="43.92206" lon="5.22558">
        <ele>243.83</ele>
        <time>2013-06-03T08:55:42Z</time>
      </trkpt>
      <trkpt lat="43.92209" lon="5.22561">
        <ele>244.31</ele>
        <time>2013-06-03T08:56:04Z</time>
      </trkpt>
      <trkpt lat="43.9221" lon="5.22558">
        <ele>244.31</ele>
        <time>2013-06-03T08:56:16Z</time>
      </trkpt>
      <trkpt lat="43.92211" lon="5.22557">
        <ele>244.31</ele>
        <time>2013-06-03T08:56:31Z</time>
      </trkpt>
      <trkpt lat="43.92212" lon="5.22554">
        <ele>244.79</ele>
        <time>2013-06-03T08:56:48Z</time>
      </trkpt>
      <trkpt lat="43.92211" lon="5.22553">
        <ele>245.27</ele>
        <time>2013-06-03T08:57:03Z</time>
      </trkpt>
      <trkpt lat="43.92211" lon="5.22552">
        <ele>245.27</ele>
        <time>2013-06-03T08:57:20Z</time>
      </trkpt>
      <trkpt lat="43.92213" lon="5.22554">
        <ele>245.27</ele>
        <time>2013-06-03T08:57:44Z</time>
      </trkpt>
      <trkpt lat="43.92211" lon="5.22556">
        <ele>245.27</ele>
        <time>2013-06-03T08:57:56Z</time>
      </trkpt>
      <trkpt lat="43.92212" lon="5.2256">
        <ele>245.27</ele>
        <time>2013-06-03T08:58:18Z</time>
      </trkpt>
      <trkpt lat="43.92211" lon="5.22555">
        <ele>245.27</ele>
        <time>2013-06-03T08:58:40Z</time>
      </trkpt>
      <trkpt lat="43.92207" lon="5.22554">
        <ele>244.79</ele>
        <time>2013-06-03T08:59:02Z</time>
      </trkpt>
      <trkpt lat="43.9221" lon="5.22553">
        <ele>245.27</ele>
        <time>2013-06-03T08:59:07Z</time>
      </trkpt>
      <trkpt lat="43.92215" lon="5.22552">
        <ele>245.75</ele>
        <time>2013-06-03T08:59:19Z</time>
      </trkpt>
      <trkpt lat="43.92217" lon="5.22555">
        <ele>245.75</ele>
        <time>2013-06-03T08:59:33Z</time>
      </trkpt>
      <trkpt lat="43.92222" lon="5.22548">
        <ele>245.75</ele>
        <time>2013-06-03T08:59:47Z</time>
      </trkpt>
      <trkpt lat="43.92218" lon="5.22547">
        <ele>245.75</ele>
        <time>2013-06-03T08:59:58Z</time>
      </trkpt>
      <trkpt lat="43.92217" lon="5.22539">
        <ele>246.23</ele>
        <time>2013-06-03T09:00:15Z</time>
      </trkpt>
      <trkpt lat="43.92216" lon="5.22531">
        <ele>248.16</ele>
        <time>2013-06-03T09:00:29Z</time>
      </trkpt>
      <trkpt lat="43.92219" lon="5.22534">
        <ele>249.6</ele>
        <time>2013-06-03T09:00:44Z</time>
      </trkpt>
      <trkpt lat="43.92228" lon="5.22528">
        <ele>251.04</ele>
        <time>2013-06-03T09:00:59Z</time>
      </trkpt>
      <trkpt lat="43.92232" lon="5.22517">
        <ele>251.04</ele>
        <time>2013-06-03T09:01:14Z</time>
      </trkpt>
      <trkpt lat="43.92228" lon="5.22519">
        <ele>251.04</ele>
        <time>2013-06-03T09:01:38Z</time>
      </trkpt>
      <trkpt lat="43.9223" lon="5.22518">
        <ele>251.52</ele>
        <time>2013-06-03T09:02:00Z</time>
      </trkpt>
      <trkpt lat="43.92239" lon="5.22511">
        <ele>252.48</ele>
        <time>2013-06-03T09:02:16Z</time>
      </trkpt>
      <trkpt lat="43.9224" lon="5.22519">
        <ele>252</ele>
        <time>2013-06-03T09:02:35Z</time>
      </trkpt>
      <trkpt lat="43.92242" lon="5.22511">
        <ele>252</ele>
        <time>2013-06-03T09:02:46Z</time>
      </trkpt>
      <trkpt lat="43.9224" lon="5.22508">
        <ele>250.56</ele>
        <time>2013-06-03T09:03:04Z</time>
      </trkpt>
      <trkpt lat="43.9224" lon="5.22511">
        <ele>250.08</ele>
        <time>2013-06-03T09:03:22Z</time>
      </trkpt>
      <trkpt lat="43.92242" lon="5.22513">
        <ele>249.6</ele>
        <time>2013-06-03T09:03:38Z</time>
      </trkpt>
      <trkpt lat="43.92241" lon="5.22514">
        <ele>249.12</ele>
        <time>2013-06-03T09:03:56Z</time>
      </trkpt>
      <trkpt lat="43.9224" lon="5.22512">
        <ele>248.64</ele>
        <time>2013-06-03T09:04:12Z</time>
      </trkpt>
      <trkpt lat="43.92239" lon="5.2251">
        <ele>249.12</ele>
        <time>2013-06-03T09:04:28Z</time>
      </trkpt>
      <trkpt lat="43.92243" lon="5.22518">
        <ele>248.64</ele>
        <time>2013-06-03T09:04:47Z</time>
      </trkpt>
      <trkpt lat="43.92242" lon="5.2252">
        <ele>248.64</ele>
        <time>2013-06-03T09:05:09Z</time>
      </trkpt>
      <trkpt lat="43.92242" lon="5.22516">
        <ele>249.12</ele>
        <time>2013-06-03T09:05:29Z</time>
      </trkpt>
      <trkpt lat="43.92242" lon="5.22514">
        <ele>248.64</ele>
        <time>2013-06-03T09:05:43Z</time>
      </trkpt>
      <trkpt lat="43.92241" lon="5.22514">
        <ele>249.12</ele>
        <time>2013-06-03T09:06:02Z</time>
      </trkpt>
      <trkpt lat="43.92242" lon="5.22514">
        <ele>248.64</ele>
        <time>2013-06-03T09:06:26Z</time>
      </trkpt>
      <trkpt lat="43.92241" lon="5.22517">
        <ele>248.64</ele>
        <time>2013-06-03T09:06:49Z</time>
      </trkpt>
      <trkpt lat="43.9224" lon="5.22515">
        <ele>249.12</ele>
        <time>2013-06-03T09:07:10Z</time>
      </trkpt>
      <trkpt lat="43.9224" lon="5.22514">
        <ele>248.64</ele>
        <time>2013-06-03T09:07:27Z</time>
      </trkpt>
      <trkpt lat="43.92241" lon="5.2252">
        <ele>247.68</ele>
        <time>2013-06-03T09:07:44Z</time>
      </trkpt>
      <trkpt lat="43.92239" lon="5.22529">
        <ele>248.16</ele>
        <time>2013-06-03T09:08:08Z</time>
      </trkpt>
      <trkpt lat="43.9224" lon="5.22529">
        <ele>248.64</ele>
        <time>2013-06-03T09:08:34Z</time>
      </trkpt>
      <trkpt lat="43.92235" lon="5.22531">
        <ele>248.64</ele>
        <time>2013-06-03T09:08:54Z</time>
      </trkpt>
      <trkpt lat="43.92249" lon="5.22526">
        <ele>248.64</ele>
        <time>2013-06-03T09:09:08Z</time>
      </trkpt>
      <trkpt lat="43.92258" lon="5.22527">
        <ele>249.12</ele>
        <time>2013-06-03T09:09:23Z</time>
      </trkpt>
      <trkpt lat="43.92272" lon="5.2252">
        <ele>249.6</ele>
        <time>2013-06-03T09:09:42Z</time>
      </trkpt>
      <trkpt lat="43.92278" lon="5.22522">
        <ele>250.08</ele>
        <time>2013-06-03T09:09:51Z</time>
      </trkpt>
      <trkpt lat="43.92282" lon="5.22523">
        <ele>250.56</ele>
        <time>2013-06-03T09:09:56Z</time>
      </trkpt>
      <trkpt lat="43.92296" lon="5.22531">
        <ele>251.52</ele>
        <time>2013-06-03T09:10:10Z</time>
      </trkpt>
      <trkpt lat="43.92302" lon="5.22539">
        <ele>252</ele>
        <time>2013-06-03T09:10:21Z</time>
      </trkpt>
      <trkpt lat="43.92303" lon="5.22546">
        <ele>252.96</ele>
        <time>2013-06-03T09:10:42Z</time>
      </trkpt>
      <trkpt lat="43.92308" lon="5.22552">
        <ele>253.93</ele>
        <time>2013-06-03T09:10:52Z</time>
      </trkpt>
      <trkpt lat="43.92314" lon="5.22555">
        <ele>255.37</ele>
        <time>2013-06-03T09:11:04Z</time>
      </trkpt>
      <trkpt lat="43.92321" lon="5.22551">
        <ele>256.81</ele>
        <time>2013-06-03T09:11:21Z</time>
      </trkpt>
      <trkpt lat="43.92326" lon="5.22552">
        <ele>257.29</ele>
        <time>2013-06-03T09:11:34Z</time>
      </trkpt>
      <trkpt lat="43.92323" lon="5.22552">
        <ele>257.29</ele>
        <time>2013-06-03T09:11:50Z</time>
      </trkpt>
      <trkpt lat="43.92321" lon="5.2255">
        <ele>257.29</ele>
        <time>2013-06-03T09:12:09Z</time>
      </trkpt>
      <trkpt lat="43.92327" lon="5.22551">
        <ele>257.77</ele>
        <time>2013-06-03T09:12:25Z</time>
      </trkpt>
      <trkpt lat="43.92334" lon="5.22545">
        <ele>258.25</ele>
        <time>2013-06-03T09:12:33Z</time>
      </trkpt>
      <trkpt lat="43.92336" lon="5.22543">
        <ele>258.25</ele>
        <time>2013-06-03T09:12:38Z</time>
      </trkpt>
      <trkpt lat="43.92346" lon="5.22538">
        <ele>259.69</ele>
        <time>2013-06-03T09:12:53Z</time>
      </trkpt>
      <trkpt lat="43.9235" lon="5.22536">
        <ele>259.69</ele>
        <time>2013-06-03T09:13:05Z</time>
      </trkpt>
      <trkpt lat="43.92355" lon="5.22533">
        <ele>260.65</ele>
        <time>2013-06-03T09:13:18Z</time>
      </trkpt>
      <trkpt lat="43.92358" lon="5.2253">
        <ele>260.65</ele>
        <time>2013-06-03T09:13:29Z</time>
      </trkpt>
      <trkpt lat="43.92363" lon="5.22525">
        <ele>261.62</ele>
        <time>2013-06-03T09:13:40Z</time>
      </trkpt>
      <trkpt lat="43.92368" lon="5.2252">
        <ele>264.02</ele>
        <time>2013-06-03T09:13:53Z</time>
      </trkpt>
      <trkpt lat="43.92372" lon="5.22506">
        <ele>264.98</ele>
        <time>2013-06-03T09:14:06Z</time>
      </trkpt>
      <trkpt lat="43.92375" lon="5.22498">
        <ele>265.46</ele>
        <time>2013-06-03T09:14:17Z</time>
      </trkpt>
      <trkpt lat="43.92373" lon="5.22493">
        <ele>264.02</ele>
        <time>2013-06-03T09:14:29Z</time>
      </trkpt>
      <trkpt lat="43.92377" lon="5.22485">
        <ele>263.54</ele>
        <time>2013-06-03T09:14:43Z</time>
      </trkpt>
      <trkpt lat="43.9238" lon="5.22479">
        <ele>264.98</ele>
        <time>2013-06-03T09:14:55Z</time>
      </trkpt>
      <trkpt lat="43.92382" lon="5.22478">
        <ele>267.38</ele>
        <time>2013-06-03T09:15:05Z</time>
      </trkpt>
      <trkpt lat="43.92384" lon="5.22475">
        <ele>269.79</ele>
        <time>2013-06-03T09:15:18Z</time>
      </trkpt>
      <trkpt lat="43.92388" lon="5.22466">
        <ele>271.23</ele>
        <time>2013-06-03T09:15:30Z</time>
      </trkpt>
      <trkpt lat="43.92391" lon="5.22458">
        <ele>272.19</ele>
        <time>2013-06-03T09:15:41Z</time>
      </trkpt>
      <trkpt lat="43.92391" lon="5.22446">
        <ele>272.67</ele>
        <time>2013-06-03T09:15:52Z</time>
      </trkpt>
      <trkpt lat="43.92386" lon="5.22429">
        <ele>273.15</ele>
        <time>2013-06-03T09:16:06Z</time>
      </trkpt>
      <trkpt lat="43.92382" lon="5.22425">
        <ele>273.15</ele>
        <time>2013-06-03T09:16:24Z</time>
      </trkpt>
      <trkpt lat="43.92382" lon="5.22416">
        <ele>272.67</ele>
        <time>2013-06-03T09:16:37Z</time>
      </trkpt>
      <trkpt lat="43.92383" lon="5.22411">
        <ele>272.19</ele>
        <time>2013-06-03T09:16:49Z</time>
      </trkpt>
      <trkpt lat="43.92382" lon="5.22409">
        <ele>271.23</ele>
        <time>2013-06-03T09:17:03Z</time>
      </trkpt>
      <trkpt lat="43.9238" lon="5.22406">
        <ele>269.31</ele>
        <time>2013-06-03T09:17:17Z</time>
      </trkpt>
      <trkpt lat="43.92381" lon="5.22401">
        <ele>267.86</ele>
        <time>2013-06-03T09:17:32Z</time>
      </trkpt>
      <trkpt lat="43.92379" lon="5.22396">
        <ele>267.38</ele>
        <time>2013-06-03T09:17:44Z</time>
      </trkpt>
      <trkpt lat="43.9238" lon="5.22395">
        <ele>268.35</ele>
        <time>2013-06-03T09:17:58Z</time>
      </trkpt>
      <trkpt lat="43.92383" lon="5.22395">
        <ele>269.79</ele>
        <time>2013-06-03T09:18:08Z</time>
      </trkpt>
      <trkpt lat="43.92384" lon="5.22395">
        <ele>270.27</ele>
        <time>2013-06-03T09:18:21Z</time>
      </trkpt>
      <trkpt lat="43.92387" lon="5.22396">
        <ele>271.71</ele>
        <time>2013-06-03T09:18:31Z</time>
      </trkpt>
      <trkpt lat="43.92393" lon="5.2239">
        <ele>275.07</ele>
        <time>2013-06-03T09:18:45Z</time>
      </trkpt>
      <trkpt lat="43.92395" lon="5.22383">
        <ele>276.52</ele>
        <time>2013-06-03T09:19:00Z</time>
      </trkpt>
      <trkpt lat="43.92392" lon="5.22386">
        <ele>276.52</ele>
        <time>2013-06-03T09:19:19Z</time>
      </trkpt>
      <trkpt lat="43.92389" lon="5.22382">
        <ele>276.52</ele>
        <time>2013-06-03T09:19:41Z</time>
      </trkpt>
      <trkpt lat="43.92391" lon="5.22383">
        <ele>276.04</ele>
        <time>2013-06-03T09:19:58Z</time>
      </trkpt>
      <trkpt lat="43.92395" lon="5.22378">
        <ele>276.04</ele>
        <time>2013-06-03T09:20:22Z</time>
      </trkpt>
      <trkpt lat="43.924" lon="5.22366">
        <ele>277</ele>
        <time>2013-06-03T09:20:36Z</time>
      </trkpt>
      <trkpt lat="43.92401" lon="5.2235">
        <ele>277</ele>
        <time>2013-06-03T09:20:49Z</time>
      </trkpt>
      <trkpt lat="43.924" lon="5.22346">
        <ele>277.48</ele>
        <time>2013-06-03T09:21:02Z</time>
      </trkpt>
      <trkpt lat="43.92401" lon="5.22345">
        <ele>276.04</ele>
        <time>2013-06-03T09:21:14Z</time>
      </trkpt>
      <trkpt lat="43.92398" lon="5.2234">
        <ele>274.11</ele>
        <time>2013-06-03T09:21:29Z</time>
      </trkpt>
      <trkpt lat="43.92402" lon="5.22331">
        <ele>273.15</ele>
        <time>2013-06-03T09:21:46Z</time>
      </trkpt>
      <trkpt lat="43.92404" lon="5.22329">
        <ele>272.67</ele>
        <time>2013-06-03T09:21:58Z</time>
      </trkpt>
      <trkpt lat="43.92404" lon="5.22328">
        <ele>273.15</ele>
        <time>2013-06-03T09:22:06Z</time>
      </trkpt>
      <trkpt lat="43.924" lon="5.22317">
        <ele>273.15</ele>
        <time>2013-06-03T09:22:20Z</time>
      </trkpt>
      <trkpt lat="43.92398" lon="5.22311">
        <ele>273.63</ele>
        <time>2013-06-03T09:22:35Z</time>
      </trkpt>
      <trkpt lat="43.92396" lon="5.2231">
        <ele>273.15</ele>
        <time>2013-06-03T09:22:47Z</time>
      </trkpt>
      <trkpt lat="43.92394" lon="5.22309">
        <ele>273.15</ele>
        <time>2013-06-03T09:23:00Z</time>
      </trkpt>
      <trkpt lat="43.92394" lon="5.22308">
        <ele>274.59</ele>
        <time>2013-06-03T09:23:13Z</time>
      </trkpt>
      <trkpt lat="43.92397" lon="5.22309">
        <ele>274.59</ele>
        <time>2013-06-03T09:23:29Z</time>
      </trkpt>
      <trkpt lat="43.92399" lon="5.22307">
        <ele>275.07</ele>
        <time>2013-06-03T09:23:39Z</time>
      </trkpt>
      <trkpt lat="43.92399" lon="5.22305">
        <ele>276.04</ele>
        <time>2013-06-03T09:23:54Z</time>
      </trkpt>
      <trkpt lat="43.92398" lon="5.22299">
        <ele>277</ele>
        <time>2013-06-03T09:24:08Z</time>
      </trkpt>
      <trkpt lat="43.92398" lon="5.22294">
        <ele>278.44</ele>
        <time>2013-06-03T09:24:18Z</time>
      </trkpt>
      <trkpt lat="43.92398" lon="5.22293">
        <ele>279.88</ele>
        <time>2013-06-03T09:24:30Z</time>
      </trkpt>
      <trkpt lat="43.92397" lon="5.22296">
        <ele>279.88</ele>
        <time>2013-06-03T09:24:51Z</time>
      </trkpt>
      <trkpt lat="43.924" lon="5.22288">
        <ele>280.36</ele>
        <time>2013-06-03T09:25:02Z</time>
      </trkpt>
      <trkpt lat="43.92393" lon="5.22287">
        <ele>280.36</ele>
        <time>2013-06-03T09:25:20Z</time>
      </trkpt>
      <trkpt lat="43.9239" lon="5.22285">
        <ele>280.84</ele>
        <time>2013-06-03T09:25:38Z</time>
      </trkpt>
      <trkpt lat="43.92398" lon="5.22283">
        <ele>280.84</ele>
        <time>2013-06-03T09:25:55Z</time>
      </trkpt>
      <trkpt lat="43.92413" lon="5.22277">
        <ele>281.32</ele>
        <time>2013-06-03T09:26:17Z</time>
      </trkpt>
      <trkpt lat="43.9241" lon="5.22269">
        <ele>282.77</ele>
        <time>2013-06-03T09:26:26Z</time>
      </trkpt>
      <trkpt lat="43.92411" lon="5.22259">
        <ele>283.25</ele>
        <time>2013-06-03T09:26:40Z</time>
      </trkpt>
      <trkpt lat="43.92406" lon="5.22256">
        <ele>283.25</ele>
        <time>2013-06-03T09:26:54Z</time>
      </trkpt>
      <trkpt lat="43.92411" lon="5.22249">
        <ele>284.69</ele>
        <time>2013-06-03T09:27:07Z</time>
      </trkpt>
      <trkpt lat="43.92406" lon="5.22248">
        <ele>283.25</ele>
        <time>2013-06-03T09:27:20Z</time>
      </trkpt>
      <trkpt lat="43.92404" lon="5.22244">
        <ele>284.21</ele>
        <time>2013-06-03T09:27:31Z</time>
      </trkpt>
      <trkpt lat="43.92408" lon="5.22245">
        <ele>283.73</ele>
        <time>2013-06-03T09:27:44Z</time>
      </trkpt>
      <trkpt lat="43.92408" lon="5.22245">
        <ele>283.25</ele>
        <time>2013-06-03T09:27:49Z</time>
      </trkpt>
      <trkpt lat="43.92412" lon="5.22238">
        <ele>282.77</ele>
        <time>2013-06-03T09:28:01Z</time>
      </trkpt>
      <trkpt lat="43.92419" lon="5.22237">
        <ele>281.8</ele>
        <time>2013-06-03T09:28:14Z</time>
      </trkpt>
      <trkpt lat="43.92428" lon="5.22232">
        <ele>282.28</ele>
        <time>2013-06-03T09:28:27Z</time>
      </trkpt>
      <trkpt lat="43.92432" lon="5.22229">
        <ele>283.25</ele>
        <time>2013-06-03T09:28:38Z</time>
      </trkpt>
      <trkpt lat="43.9244" lon="5.22225">
        <ele>285.17</ele>
        <time>2013-06-03T09:28:49Z</time>
      </trkpt>
      <trkpt lat="43.92441" lon="5.22223">
        <ele>285.65</ele>
        <time>2013-06-03T09:28:50Z</time>
      </trkpt>
      <trkpt lat="43.92441" lon="5.2222">
        <ele>285.65</ele>
        <time>2013-06-03T09:29:04Z</time>
      </trkpt>
      <trkpt lat="43.92445" lon="5.22213">
        <ele>286.61</ele>
        <time>2013-06-03T09:29:13Z</time>
      </trkpt>
      <trkpt lat="43.92447" lon="5.22207">
        <ele>288.53</ele>
        <time>2013-06-03T09:29:24Z</time>
      </trkpt>
      <trkpt lat="43.92455" lon="5.22207">
        <ele>289.97</ele>
        <time>2013-06-03T09:29:35Z</time>
      </trkpt>
      <trkpt lat="43.9246" lon="5.22209">
        <ele>292.38</ele>
        <time>2013-06-03T09:29:48Z</time>
      </trkpt>
      <trkpt lat="43.92461" lon="5.22211">
        <ele>291.9</ele>
        <time>2013-06-03T09:29:51Z</time>
      </trkpt>
      <trkpt lat="43.92465" lon="5.22215">
        <ele>292.38</ele>
        <time>2013-06-03T09:30:02Z</time>
      </trkpt>
      <trkpt lat="43.92465" lon="5.22209">
        <ele>294.3</ele>
        <time>2013-06-03T09:30:12Z</time>
      </trkpt>
      <trkpt lat="43.92471" lon="5.22209">
        <ele>294.3</ele>
        <time>2013-06-03T09:30:25Z</time>
      </trkpt>
      <trkpt lat="43.92475" lon="5.22205">
        <ele>293.82</ele>
        <time>2013-06-03T09:30:37Z</time>
      </trkpt>
      <trkpt lat="43.92477" lon="5.22208">
        <ele>293.34</ele>
        <time>2013-06-03T09:30:51Z</time>
      </trkpt>
      <trkpt lat="43.92479" lon="5.22207">
        <ele>292.86</ele>
        <time>2013-06-03T09:31:04Z</time>
      </trkpt>
      <trkpt lat="43.92484" lon="5.22203">
        <ele>295.74</ele>
        <time>2013-06-03T09:31:18Z</time>
      </trkpt>
      <trkpt lat="43.92489" lon="5.222">
        <ele>297.67</ele>
        <time>2013-06-03T09:31:29Z</time>
      </trkpt>
      <trkpt lat="43.92498" lon="5.22195">
        <ele>299.59</ele>
        <time>2013-06-03T09:31:42Z</time>
      </trkpt>
      <trkpt lat="43.92507" lon="5.22191">
        <ele>301.99</ele>
        <time>2013-06-03T09:31:56Z</time>
      </trkpt>
      <trkpt lat="43.92515" lon="5.22188">
        <ele>304.39</ele>
        <time>2013-06-03T09:32:09Z</time>
      </trkpt>
      <trkpt lat="43.92515" lon="5.22188">
        <ele>304.88</ele>
        <time>2013-06-03T09:32:27Z</time>
      </trkpt>
      <trkpt lat="43.92512" lon="5.22195">
        <ele>304.88</ele>
        <time>2013-06-03T09:32:53Z</time>
      </trkpt>
      <trkpt lat="43.92505" lon="5.22191">
        <ele>304.39</ele>
        <time>2013-06-03T09:33:15Z</time>
      </trkpt>
      <trkpt lat="43.92508" lon="5.22199">
        <ele>304.88</ele>
        <time>2013-06-03T09:33:43Z</time>
      </trkpt>
      <trkpt lat="43.92518" lon="5.22191">
        <ele>306.8</ele>
        <time>2013-06-03T09:33:55Z</time>
      </trkpt>
      <trkpt lat="43.92523" lon="5.22194">
        <ele>306.32</ele>
        <time>2013-06-03T09:34:18Z</time>
      </trkpt>
      <trkpt lat="43.92535" lon="5.22188">
        <ele>305.36</ele>
        <time>2013-06-03T09:34:33Z</time>
      </trkpt>
      <trkpt lat="43.92542" lon="5.2219">
        <ele>304.88</ele>
        <time>2013-06-03T09:34:46Z</time>
      </trkpt>
      <trkpt lat="43.92544" lon="5.22191">
        <ele>303.91</ele>
        <time>2013-06-03T09:35:01Z</time>
      </trkpt>
      <trkpt lat="43.92545" lon="5.22194">
        <ele>301.99</ele>
        <time>2013-06-03T09:35:18Z</time>
      </trkpt>
      <trkpt lat="43.92545" lon="5.22196">
        <ele>301.51</ele>
        <time>2013-06-03T09:35:29Z</time>
      </trkpt>
      <trkpt lat="43.92544" lon="5.22191">
        <ele>301.51</ele>
        <time>2013-06-03T09:35:47Z</time>
      </trkpt>
      <trkpt lat="43.92542" lon="5.22191">
        <ele>301.51</ele>
        <time>2013-06-03T09:36:06Z</time>
      </trkpt>
      <trkpt lat="43.92546" lon="5.22193">
        <ele>301.03</ele>
        <time>2013-06-03T09:36:19Z</time>
      </trkpt>
      <trkpt lat="43.92549" lon="5.22192">
        <ele>301.03</ele>
        <time>2013-06-03T09:36:40Z</time>
      </trkpt>
      <trkpt lat="43.92552" lon="5.22186">
        <ele>301.03</ele>
        <time>2013-06-03T09:37:01Z</time>
      </trkpt>
      <trkpt lat="43.92553" lon="5.22187">
        <ele>301.51</ele>
        <time>2013-06-03T09:37:26Z</time>
      </trkpt>
      <trkpt lat="43.9255" lon="5.22192">
        <ele>301.03</ele>
        <time>2013-06-03T09:37:40Z</time>
      </trkpt>
      <trkpt lat="43.92549" lon="5.22194">
        <ele>301.03</ele>
        <time>2013-06-03T09:37:55Z</time>
      </trkpt>
      <trkpt lat="43.92548" lon="5.22199">
        <ele>301.03</ele>
        <time>2013-06-03T09:38:23Z</time>
      </trkpt>
      <trkpt lat="43.92547" lon="5.22198">
        <ele>301.03</ele>
        <time>2013-06-03T09:38:42Z</time>
      </trkpt>
      <trkpt lat="43.92549" lon="5.222">
        <ele>301.03</ele>
        <time>2013-06-03T09:39:01Z</time>
      </trkpt>
      <trkpt lat="43.92554" lon="5.22204">
        <ele>300.55</ele>
        <time>2013-06-03T09:39:15Z</time>
      </trkpt>
      <trkpt lat="43.9256" lon="5.22208">
        <ele>300.07</ele>
        <time>2013-06-03T09:39:27Z</time>
      </trkpt>
      <trkpt lat="43.92569" lon="5.22214">
        <ele>301.03</ele>
        <time>2013-06-03T09:39:39Z</time>
      </trkpt>
      <trkpt lat="43.92576" lon="5.22214">
        <ele>303.43</ele>
        <time>2013-06-03T09:39:52Z</time>
      </trkpt>
      <trkpt lat="43.92578" lon="5.22217">
        <ele>302.95</ele>
        <time>2013-06-03T09:39:56Z</time>
      </trkpt>
      <trkpt lat="43.92586" lon="5.22218">
        <ele>303.91</ele>
        <time>2013-06-03T09:40:06Z</time>
      </trkpt>
      <trkpt lat="43.92593" lon="5.22222">
        <ele>307.28</ele>
        <time>2013-06-03T09:40:19Z</time>
      </trkpt>
      <trkpt lat="43.92593" lon="5.22221">
        <ele>307.28</ele>
        <time>2013-06-03T09:40:20Z</time>
      </trkpt>
      <trkpt lat="43.92599" lon="5.22225">
        <ele>307.28</ele>
        <time>2013-06-03T09:40:34Z</time>
      </trkpt>
      <trkpt lat="43.92607" lon="5.22227">
        <ele>305.36</ele>
        <time>2013-06-03T09:40:48Z</time>
      </trkpt>
      <trkpt lat="43.92617" lon="5.2222">
        <ele>305.84</ele>
        <time>2013-06-03T09:41:01Z</time>
      </trkpt>
      <trkpt lat="43.92628" lon="5.22215">
        <ele>305.36</ele>
        <time>2013-06-03T09:41:15Z</time>
      </trkpt>
      <trkpt lat="43.92637" lon="5.22203">
        <ele>308.24</ele>
        <time>2013-06-03T09:41:30Z</time>
      </trkpt>
      <trkpt lat="43.9264" lon="5.22198">
        <ele>310.16</ele>
        <time>2013-06-03T09:41:43Z</time>
      </trkpt>
      <trkpt lat="43.92642" lon="5.22195">
        <ele>312.09</ele>
        <time>2013-06-03T09:41:55Z</time>
      </trkpt>
      <trkpt lat="43.92644" lon="5.22195">
        <ele>314.01</ele>
        <time>2013-06-03T09:42:08Z</time>
      </trkpt>
      <trkpt lat="43.92649" lon="5.22191">
        <ele>315.93</ele>
        <time>2013-06-03T09:42:21Z</time>
      </trkpt>
      <trkpt lat="43.92651" lon="5.22187">
        <ele>318.33</ele>
        <time>2013-06-03T09:42:36Z</time>
      </trkpt>
      <trkpt lat="43.92651" lon="5.22187">
        <ele>318.81</ele>
        <time>2013-06-03T09:42:56Z</time>
      </trkpt>
      <trkpt lat="43.92651" lon="5.22189">
        <ele>318.81</ele>
        <time>2013-06-03T09:43:10Z</time>
      </trkpt>
      <trkpt lat="43.92649" lon="5.22185">
        <ele>318.81</ele>
        <time>2013-06-03T09:43:30Z</time>
      </trkpt>
      <trkpt lat="43.92651" lon="5.22183">
        <ele>319.3</ele>
        <time>2013-06-03T09:43:50Z</time>
      </trkpt>
      <trkpt lat="43.9265" lon="5.22184">
        <ele>319.3</ele>
        <time>2013-06-03T09:44:17Z</time>
      </trkpt>
      <trkpt lat="43.9265" lon="5.22182">
        <ele>318.81</ele>
        <time>2013-06-03T09:44:40Z</time>
      </trkpt>
      <trkpt lat="43.92648" lon="5.22185">
        <ele>318.81</ele>
        <time>2013-06-03T09:44:59Z</time>
      </trkpt>
      <trkpt lat="43.92651" lon="5.22183">
        <ele>318.81</ele>
        <time>2013-06-03T09:45:14Z</time>
      </trkpt>
      <trkpt lat="43.92654" lon="5.22181">
        <ele>318.33</ele>
        <time>2013-06-03T09:45:41Z</time>
      </trkpt>
      <trkpt lat="43.92657" lon="5.22177">
        <ele>319.3</ele>
        <time>2013-06-03T09:45:45Z</time>
      </trkpt>
      <trkpt lat="43.92664" lon="5.22164">
        <ele>321.22</ele>
        <time>2013-06-03T09:45:59Z</time>
      </trkpt>
      <trkpt lat="43.92667" lon="5.22153">
        <ele>321.7</ele>
        <time>2013-06-03T09:46:13Z</time>
      </trkpt>
      <trkpt lat="43.92668" lon="5.22152">
        <ele>321.7</ele>
        <time>2013-06-03T09:46:14Z</time>
      </trkpt>
      <trkpt lat="43.9267" lon="5.22144">
        <ele>322.66</ele>
        <time>2013-06-03T09:46:22Z</time>
      </trkpt>
      <trkpt lat="43.92673" lon="5.22139">
        <ele>322.18</ele>
        <time>2013-06-03T09:46:35Z</time>
      </trkpt>
      <trkpt lat="43.92676" lon="5.22132">
        <ele>321.7</ele>
        <time>2013-06-03T09:46:46Z</time>
      </trkpt>
      <trkpt lat="43.92695" lon="5.22129">
        <ele>321.22</ele>
        <time>2013-06-03T09:47:01Z</time>
      </trkpt>
      <trkpt lat="43.92704" lon="5.22129">
        <ele>320.74</ele>
        <time>2013-06-03T09:47:13Z</time>
      </trkpt>
      <trkpt lat="43.92702" lon="5.22134">
        <ele>319.3</ele>
        <time>2013-06-03T09:47:29Z</time>
      </trkpt>
      <trkpt lat="43.92696" lon="5.22133">
        <ele>319.78</ele>
        <time>2013-06-03T09:47:48Z</time>
      </trkpt>
      <trkpt lat="43.927" lon="5.2213">
        <ele>319.78</ele>
        <time>2013-06-03T09:48:06Z</time>
      </trkpt>
      <trkpt lat="43.92693" lon="5.22125">
        <ele>320.26</ele>
        <time>2013-06-03T09:48:27Z</time>
      </trkpt>
      <trkpt lat="43.92692" lon="5.22128">
        <ele>320.26</ele>
        <time>2013-06-03T09:48:53Z</time>
      </trkpt>
      <trkpt lat="43.92697" lon="5.22127">
        <ele>320.26</ele>
        <time>2013-06-03T09:49:16Z</time>
      </trkpt>
      <trkpt lat="43.92695" lon="5.22124">
        <ele>320.26</ele>
        <time>2013-06-03T09:49:38Z</time>
      </trkpt>
      <trkpt lat="43.92702" lon="5.22126">
        <ele>320.26</ele>
        <time>2013-06-03T09:49:57Z</time>
      </trkpt>
      <trkpt lat="43.92702" lon="5.22127">
        <ele>320.26</ele>
        <time>2013-06-03T09:50:13Z</time>
      </trkpt>
      <trkpt lat="43.92702" lon="5.22125">
        <ele>321.22</ele>
        <time>2013-06-03T09:50:29Z</time>
      </trkpt>
      <trkpt lat="43.92703" lon="5.22128">
        <ele>321.7</ele>
        <time>2013-06-03T09:50:46Z</time>
      </trkpt>
      <trkpt lat="43.92708" lon="5.22127">
        <ele>321.7</ele>
        <time>2013-06-03T09:51:01Z</time>
      </trkpt>
      <trkpt lat="43.92706" lon="5.22134">
        <ele>320.26</ele>
        <time>2013-06-03T09:51:16Z</time>
      </trkpt>
      <trkpt lat="43.92713" lon="5.22136">
        <ele>321.22</ele>
        <time>2013-06-03T09:51:28Z</time>
      </trkpt>
      <trkpt lat="43.9272" lon="5.22135">
        <ele>322.66</ele>
        <time>2013-06-03T09:51:41Z</time>
      </trkpt>
      <trkpt lat="43.92724" lon="5.22141">
        <ele>323.62</ele>
        <time>2013-06-03T09:51:53Z</time>
      </trkpt>
      <trkpt lat="43.92727" lon="5.22133">
        <ele>324.1</ele>
        <time>2013-06-03T09:52:07Z</time>
      </trkpt>
      <trkpt lat="43.92734" lon="5.22126">
        <ele>325.06</ele>
        <time>2013-06-03T09:52:31Z</time>
      </trkpt>
      <trkpt lat="43.9274" lon="5.22121">
        <ele>326.5</ele>
        <time>2013-06-03T09:52:43Z</time>
      </trkpt>
      <trkpt lat="43.92742" lon="5.22119">
        <ele>326.99</ele>
        <time>2013-06-03T09:52:55Z</time>
      </trkpt>
      <trkpt lat="43.9274" lon="5.2212">
        <ele>326.99</ele>
        <time>2013-06-03T09:53:10Z</time>
      </trkpt>
      <trkpt lat="43.92739" lon="5.22121">
        <ele>326.5</ele>
        <time>2013-06-03T09:53:25Z</time>
      </trkpt>
      <trkpt lat="43.92738" lon="5.22125">
        <ele>326.02</ele>
        <time>2013-06-03T09:53:40Z</time>
      </trkpt>
      <trkpt lat="43.92737" lon="5.22126">
        <ele>325.54</ele>
        <time>2013-06-03T09:53:50Z</time>
      </trkpt>
      <trkpt lat="43.92738" lon="5.22124">
        <ele>325.54</ele>
        <time>2013-06-03T09:54:10Z</time>
      </trkpt>
      <trkpt lat="43.92737" lon="5.22124">
        <ele>325.54</ele>
        <time>2013-06-03T09:54:28Z</time>
      </trkpt>
      <trkpt lat="43.92736" lon="5.22125">
        <ele>325.06</ele>
        <time>2013-06-03T09:54:39Z</time>
      </trkpt>
      <trkpt lat="43.92735" lon="5.22126">
        <ele>325.06</ele>
        <time>2013-06-03T09:54:56Z</time>
      </trkpt>
      <trkpt lat="43.92735" lon="5.22129">
        <ele>325.06</ele>
        <time>2013-06-03T09:55:15Z</time>
      </trkpt>
      <trkpt lat="43.92733" lon="5.22133">
        <ele>324.1</ele>
        <time>2013-06-03T09:55:26Z</time>
      </trkpt>
      <trkpt lat="43.92736" lon="5.22135">
        <ele>324.58</ele>
        <time>2013-06-03T09:55:45Z</time>
      </trkpt>
      <trkpt lat="43.92735" lon="5.22129">
        <ele>324.58</ele>
        <time>2013-06-03T09:56:03Z</time>
      </trkpt>
      <trkpt lat="43.92736" lon="5.2213">
        <ele>324.58</ele>
        <time>2013-06-03T09:56:17Z</time>
      </trkpt>
      <trkpt lat="43.92739" lon="5.22129">
        <ele>324.58</ele>
        <time>2013-06-03T09:56:37Z</time>
      </trkpt>
      <trkpt lat="43.92738" lon="5.2213">
        <ele>324.1</ele>
        <time>2013-06-03T09:56:51Z</time>
      </trkpt>
      <trkpt lat="43.92742" lon="5.22132">
        <ele>323.62</ele>
        <time>2013-06-03T09:57:09Z</time>
      </trkpt>
      <trkpt lat="43.92743" lon="5.22132">
        <ele>323.62</ele>
        <time>2013-06-03T09:57:27Z</time>
      </trkpt>
      <trkpt lat="43.92746" lon="5.2213">
        <ele>322.66</ele>
        <time>2013-06-03T09:57:42Z</time>
      </trkpt>
      <trkpt lat="43.92745" lon="5.22134">
        <ele>322.18</ele>
        <time>2013-06-03T09:57:55Z</time>
      </trkpt>
      <trkpt lat="43.92744" lon="5.22133">
        <ele>321.7</ele>
        <time>2013-06-03T09:58:08Z</time>
      </trkpt>
      <trkpt lat="43.92744" lon="5.22133">
        <ele>322.18</ele>
        <time>2013-06-03T09:58:25Z</time>
      </trkpt>
      <trkpt lat="43.9274" lon="5.22141">
        <ele>321.22</ele>
        <time>2013-06-03T09:58:37Z</time>
      </trkpt>
      <trkpt lat="43.92735" lon="5.22155">
        <ele>320.74</ele>
        <time>2013-06-03T09:59:02Z</time>
      </trkpt>
      <trkpt lat="43.9274" lon="5.22161">
        <ele>319.78</ele>
        <time>2013-06-03T09:59:17Z</time>
      </trkpt>
      <trkpt lat="43.92739" lon="5.22162">
        <ele>318.81</ele>
        <time>2013-06-03T09:59:30Z</time>
      </trkpt>
      <trkpt lat="43.92734" lon="5.22165">
        <ele>319.3</ele>
        <time>2013-06-03T09:59:47Z</time>
      </trkpt>
      <trkpt lat="43.92737" lon="5.22159">
        <ele>318.33</ele>
        <time>2013-06-03T10:00:00Z</time>
      </trkpt>
      <trkpt lat="43.92741" lon="5.22152">
        <ele>316.89</ele>
        <time>2013-06-03T10:00:17Z</time>
      </trkpt>
      <trkpt lat="43.92743" lon="5.22152">
        <ele>316.41</ele>
        <time>2013-06-03T10:00:34Z</time>
      </trkpt>
      <trkpt lat="43.92741" lon="5.22151">
        <ele>314.97</ele>
        <time>2013-06-03T10:00:48Z</time>
      </trkpt>
      <trkpt lat="43.92739" lon="5.2215">
        <ele>314.01</ele>
        <time>2013-06-03T10:01:03Z</time>
      </trkpt>
      <trkpt lat="43.92738" lon="5.22149">
        <ele>314.01</ele>
        <time>2013-06-03T10:01:13Z</time>
      </trkpt>
      <trkpt lat="43.92738" lon="5.22149">
        <ele>313.53</ele>
        <time>2013-06-03T10:01:28Z</time>
      </trkpt>
      <trkpt lat="43.92738" lon="5.22147">
        <ele>313.53</ele>
        <time>2013-06-03T10:01:42Z</time>
      </trkpt>
      <trkpt lat="43.92736" lon="5.22151">
        <ele>313.05</ele>
        <time>2013-06-03T10:02:02Z</time>
      </trkpt>
      <trkpt lat="43.92733" lon="5.22154">
        <ele>311.12</ele>
        <time>2013-06-03T10:02:15Z</time>
      </trkpt>
      <trkpt lat="43.92731" lon="5.22154">
        <ele>310.16</ele>
        <time>2013-06-03T10:02:29Z</time>
      </trkpt>
      <trkpt lat="43.92731" lon="5.22154">
        <ele>310.16</ele>
        <time>2013-06-03T10:02:43Z</time>
      </trkpt>
      <trkpt lat="43.92731" lon="5.22155">
        <ele>315.45</ele>
        <time>2013-06-03T10:05:52Z</time>
      </trkpt>
      <trkpt lat="43.92729" lon="5.22141">
        <ele>315.45</ele>
        <time>2013-06-03T10:05:53Z</time>
      </trkpt>
      <trkpt lat="43.92732" lon="5.22151">
        <ele>315.45</ele>
        <time>2013-06-03T10:06:14Z</time>
      </trkpt>
      <trkpt lat="43.92731" lon="5.22148">
        <ele>313.53</ele>
        <time>2013-06-03T10:06:35Z</time>
      </trkpt>
      <trkpt lat="43.92731" lon="5.22148">
        <ele>314.01</ele>
        <time>2013-06-03T10:07:00Z</time>
      </trkpt>
      <trkpt lat="43.92732" lon="5.22149">
        <ele>314.01</ele>
        <time>2013-06-03T10:07:15Z</time>
      </trkpt>
      <trkpt lat="43.9273" lon="5.22149">
        <ele>313.53</ele>
        <time>2013-06-03T10:07:38Z</time>
      </trkpt>
      <trkpt lat="43.92729" lon="5.2215">
        <ele>313.05</ele>
        <time>2013-06-03T10:07:55Z</time>
      </trkpt>
      <trkpt lat="43.92727" lon="5.22147">
        <ele>313.53</ele>
        <time>2013-06-03T10:08:15Z</time>
      </trkpt>
      <trkpt lat="43.92727" lon="5.22148">
        <ele>312.57</ele>
        <time>2013-06-03T10:08:35Z</time>
      </trkpt>
      <trkpt lat="43.92727" lon="5.22153">
        <ele>312.57</ele>
        <time>2013-06-03T10:08:50Z</time>
      </trkpt>
      <trkpt lat="43.92729" lon="5.22156">
        <ele>312.57</ele>
        <time>2013-06-03T10:09:12Z</time>
      </trkpt>
      <trkpt lat="43.92731" lon="5.22158">
        <ele>312.57</ele>
        <time>2013-06-03T10:09:31Z</time>
      </trkpt>
      <trkpt lat="43.9273" lon="5.22156">
        <ele>312.09</ele>
        <time>2013-06-03T10:09:57Z</time>
      </trkpt>
      <trkpt lat="43.92732" lon="5.22155">
        <ele>312.57</ele>
        <time>2013-06-03T10:10:21Z</time>
      </trkpt>
      <trkpt lat="43.92731" lon="5.22157">
        <ele>312.09</ele>
        <time>2013-06-03T10:10:51Z</time>
      </trkpt>
      <trkpt lat="43.92731" lon="5.22154">
        <ele>312.57</ele>
        <time>2013-06-03T10:11:11Z</time>
      </trkpt>
      <trkpt lat="43.9273" lon="5.22154">
        <ele>312.09</ele>
        <time>2013-06-03T10:11:35Z</time>
      </trkpt>
      <trkpt lat="43.92728" lon="5.22169">
        <ele>310.16</ele>
        <time>2013-06-03T10:11:51Z</time>
      </trkpt>
      <trkpt lat="43.9273" lon="5.22175">
        <ele>310.64</ele>
        <time>2013-06-03T10:12:02Z</time>
      </trkpt>
      <trkpt lat="43.92724" lon="5.22192">
        <ele>309.68</ele>
        <time>2013-06-03T10:12:16Z</time>
      </trkpt>
      <trkpt lat="43.92726" lon="5.22192">
        <ele>309.2</ele>
        <time>2013-06-03T10:12:28Z</time>
      </trkpt>
      <trkpt lat="43.9273" lon="5.22194">
        <ele>310.16</ele>
        <time>2013-06-03T10:12:40Z</time>
      </trkpt>
      <trkpt lat="43.92732" lon="5.22199">
        <ele>309.68</ele>
        <time>2013-06-03T10:12:52Z</time>
      </trkpt>
      <trkpt lat="43.92737" lon="5.22204">
        <ele>310.16</ele>
        <time>2013-06-03T10:13:05Z</time>
      </trkpt>
      <trkpt lat="43.92737" lon="5.22207">
        <ele>311.6</ele>
        <time>2013-06-03T10:13:17Z</time>
      </trkpt>
      <trkpt lat="43.92742" lon="5.22212">
        <ele>310.16</ele>
        <time>2013-06-03T10:13:31Z</time>
      </trkpt>
      <trkpt lat="43.92745" lon="5.22218">
        <ele>310.16</ele>
        <time>2013-06-03T10:13:45Z</time>
      </trkpt>
      <trkpt lat="43.92742" lon="5.2222">
        <ele>310.16</ele>
        <time>2013-06-03T10:13:55Z</time>
      </trkpt>
      <trkpt lat="43.92738" lon="5.22223">
        <ele>312.09</ele>
        <time>2013-06-03T10:14:02Z</time>
      </trkpt>
      <trkpt lat="43.92739" lon="5.22225">
        <ele>311.12</ele>
        <time>2013-06-03T10:14:14Z</time>
      </trkpt>
      <trkpt lat="43.92742" lon="5.2223">
        <ele>311.6</ele>
        <time>2013-06-03T10:14:24Z</time>
      </trkpt>
      <trkpt lat="43.92751" lon="5.22232">
        <ele>312.09</ele>
        <time>2013-06-03T10:14:38Z</time>
      </trkpt>
      <trkpt lat="43.92754" lon="5.22232">
        <ele>312.57</ele>
        <time>2013-06-03T10:14:50Z</time>
      </trkpt>
      <trkpt lat="43.92762" lon="5.22238">
        <ele>313.05</ele>
        <time>2013-06-03T10:15:04Z</time>
      </trkpt>
      <trkpt lat="43.92763" lon="5.2224">
        <ele>313.05</ele>
        <time>2013-06-03T10:15:16Z</time>
      </trkpt>
      <trkpt lat="43.92766" lon="5.22239">
        <ele>313.53</ele>
        <time>2013-06-03T10:15:39Z</time>
      </trkpt>
      <trkpt lat="43.9277" lon="5.22238">
        <ele>313.05</ele>
        <time>2013-06-03T10:16:05Z</time>
      </trkpt>
      <trkpt lat="43.92773" lon="5.22239">
        <ele>313.05</ele>
        <time>2013-06-03T10:16:30Z</time>
      </trkpt>
      <trkpt lat="43.92777" lon="5.22243">
        <ele>313.05</ele>
        <time>2013-06-03T10:16:44Z</time>
      </trkpt>
      <trkpt lat="43.92783" lon="5.22247">
        <ele>313.05</ele>
        <time>2013-06-03T10:16:56Z</time>
      </trkpt>
      <trkpt lat="43.92789" lon="5.22249">
        <ele>313.05</ele>
        <time>2013-06-03T10:17:11Z</time>
      </trkpt>
      <trkpt lat="43.92796" lon="5.22245">
        <ele>313.05</ele>
        <time>2013-06-03T10:17:25Z</time>
      </trkpt>
      <trkpt lat="43.92801" lon="5.22248">
        <ele>313.05</ele>
        <time>2013-06-03T10:17:37Z</time>
      </trkpt>
      <trkpt lat="43.92798" lon="5.22248">
        <ele>313.05</ele>
        <time>2013-06-03T10:18:04Z</time>
      </trkpt>
      <trkpt lat="43.92803" lon="5.22252">
        <ele>314.01</ele>
        <time>2013-06-03T10:18:14Z</time>
      </trkpt>
      <trkpt lat="43.9281" lon="5.22245">
        <ele>314.01</ele>
        <time>2013-06-03T10:18:23Z</time>
      </trkpt>
      <trkpt lat="43.92814" lon="5.22245">
        <ele>314.49</ele>
        <time>2013-06-03T10:18:25Z</time>
      </trkpt>
      <trkpt lat="43.92817" lon="5.22251">
        <ele>314.01</ele>
        <time>2013-06-03T10:18:32Z</time>
      </trkpt>
      <trkpt lat="43.92819" lon="5.22254">
        <ele>314.97</ele>
        <time>2013-06-03T10:18:43Z</time>
      </trkpt>
      <trkpt lat="43.92823" lon="5.22254">
        <ele>316.41</ele>
        <time>2013-06-03T10:18:56Z</time>
      </trkpt>
      <trkpt lat="43.92826" lon="5.22253">
        <ele>314.97</ele>
        <time>2013-06-03T10:19:07Z</time>
      </trkpt>
      <trkpt lat="43.92828" lon="5.22257">
        <ele>314.97</ele>
        <time>2013-06-03T10:19:23Z</time>
      </trkpt>
      <trkpt lat="43.92837" lon="5.22262">
        <ele>314.97</ele>
        <time>2013-06-03T10:19:40Z</time>
      </trkpt>
      <trkpt lat="43.92843" lon="5.22267">
        <ele>315.45</ele>
        <time>2013-06-03T10:19:54Z</time>
      </trkpt>
      <trkpt lat="43.92845" lon="5.22268">
        <ele>314.97</ele>
        <time>2013-06-03T10:20:06Z</time>
      </trkpt>
      <trkpt lat="43.92851" lon="5.22269">
        <ele>315.45</ele>
        <time>2013-06-03T10:20:17Z</time>
      </trkpt>
      <trkpt lat="43.92855" lon="5.22266">
        <ele>315.45</ele>
        <time>2013-06-03T10:20:30Z</time>
      </trkpt>
      <trkpt lat="43.92857" lon="5.22267">
        <ele>315.93</ele>
        <time>2013-06-03T10:20:42Z</time>
      </trkpt>
      <trkpt lat="43.92859" lon="5.22261">
        <ele>317.85</ele>
        <time>2013-06-03T10:20:53Z</time>
      </trkpt>
      <trkpt lat="43.92861" lon="5.2226">
        <ele>317.85</ele>
        <time>2013-06-03T10:21:02Z</time>
      </trkpt>
      <trkpt lat="43.92866" lon="5.22256">
        <ele>318.81</ele>
        <time>2013-06-03T10:21:15Z</time>
      </trkpt>
      <trkpt lat="43.92871" lon="5.22246">
        <ele>319.3</ele>
        <time>2013-06-03T10:21:30Z</time>
      </trkpt>
      <trkpt lat="43.92876" lon="5.22235">
        <ele>319.78</ele>
        <time>2013-06-03T10:21:40Z</time>
      </trkpt>
      <trkpt lat="43.92882" lon="5.22228">
        <ele>320.26</ele>
        <time>2013-06-03T10:21:52Z</time>
      </trkpt>
      <trkpt lat="43.92885" lon="5.22224">
        <ele>321.22</ele>
        <time>2013-06-03T10:22:00Z</time>
      </trkpt>
      <trkpt lat="43.92894" lon="5.22219">
        <ele>321.7</ele>
        <time>2013-06-03T10:22:11Z</time>
      </trkpt>
      <trkpt lat="43.92901" lon="5.22221">
        <ele>321.22</ele>
        <time>2013-06-03T10:22:28Z</time>
      </trkpt>
      <trkpt lat="43.92903" lon="5.2222">
        <ele>321.7</ele>
        <time>2013-06-03T10:22:36Z</time>
      </trkpt>
      <trkpt lat="43.92909" lon="5.22219">
        <ele>321.7</ele>
        <time>2013-06-03T10:22:45Z</time>
      </trkpt>
      <trkpt lat="43.92913" lon="5.22213">
        <ele>321.22</ele>
        <time>2013-06-03T10:22:54Z</time>
      </trkpt>
      <trkpt lat="43.92913" lon="5.22204">
        <ele>321.7</ele>
        <time>2013-06-03T10:23:07Z</time>
      </trkpt>
      <trkpt lat="43.92912" lon="5.22197">
        <ele>321.22</ele>
        <time>2013-06-03T10:23:18Z</time>
      </trkpt>
      <trkpt lat="43.92913" lon="5.22191">
        <ele>322.18</ele>
        <time>2013-06-03T10:23:29Z</time>
      </trkpt>
      <trkpt lat="43.92915" lon="5.2219">
        <ele>322.18</ele>
        <time>2013-06-03T10:23:47Z</time>
      </trkpt>
      <trkpt lat="43.92944" lon="5.22193">
        <ele>321.7</ele>
        <time>2013-06-03T10:24:07Z</time>
      </trkpt>
      <trkpt lat="43.92961" lon="5.22193">
        <ele>322.18</ele>
        <time>2013-06-03T10:24:17Z</time>
      </trkpt>
      <trkpt lat="43.92959" lon="5.22193">
        <ele>322.66</ele>
        <time>2013-06-03T10:24:29Z</time>
      </trkpt>
      <trkpt lat="43.92964" lon="5.22193">
        <ele>323.14</ele>
        <time>2013-06-03T10:24:41Z</time>
      </trkpt>
      <trkpt lat="43.92966" lon="5.22194">
        <ele>323.62</ele>
        <time>2013-06-03T10:24:46Z</time>
      </trkpt>
      <trkpt lat="43.92972" lon="5.22195">
        <ele>324.58</ele>
        <time>2013-06-03T10:24:53Z</time>
      </trkpt>
      <trkpt lat="43.92974" lon="5.22194">
        <ele>323.62</ele>
        <time>2013-06-03T10:24:55Z</time>
      </trkpt>
      <trkpt lat="43.92977" lon="5.22195">
        <ele>324.58</ele>
        <time>2013-06-03T10:25:02Z</time>
      </trkpt>
      <trkpt lat="43.92982" lon="5.22197">
        <ele>325.06</ele>
        <time>2013-06-03T10:25:10Z</time>
      </trkpt>
      <trkpt lat="43.9299" lon="5.22201">
        <ele>326.02</ele>
        <time>2013-06-03T10:25:20Z</time>
      </trkpt>
      <trkpt lat="43.92998" lon="5.22213">
        <ele>326.02</ele>
        <time>2013-06-03T10:25:35Z</time>
      </trkpt>
      <trkpt lat="43.93001" lon="5.22217">
        <ele>326.99</ele>
        <time>2013-06-03T10:25:41Z</time>
      </trkpt>
      <trkpt lat="43.92996" lon="5.22221">
        <ele>326.5</ele>
        <time>2013-06-03T10:25:51Z</time>
      </trkpt>
      <trkpt lat="43.92999" lon="5.22227">
        <ele>326.99</ele>
        <time>2013-06-03T10:26:02Z</time>
      </trkpt>
      <trkpt lat="43.93004" lon="5.22236">
        <ele>327.47</ele>
        <time>2013-06-03T10:26:15Z</time>
      </trkpt>
      <trkpt lat="43.9301" lon="5.22238">
        <ele>327.47</ele>
        <time>2013-06-03T10:26:23Z</time>
      </trkpt>
      <trkpt lat="43.93018" lon="5.22246">
        <ele>327.95</ele>
        <time>2013-06-03T10:26:35Z</time>
      </trkpt>
      <trkpt lat="43.93019" lon="5.22246">
        <ele>327.95</ele>
        <time>2013-06-03T10:26:36Z</time>
      </trkpt>
      <trkpt lat="43.93023" lon="5.2225">
        <ele>328.43</ele>
        <time>2013-06-03T10:26:47Z</time>
      </trkpt>
      <trkpt lat="43.93033" lon="5.22251">
        <ele>329.87</ele>
        <time>2013-06-03T10:26:58Z</time>
      </trkpt>
      <trkpt lat="43.93041" lon="5.22254">
        <ele>329.87</ele>
        <time>2013-06-03T10:27:08Z</time>
      </trkpt>
      <trkpt lat="43.93048" lon="5.22255">
        <ele>330.35</ele>
        <time>2013-06-03T10:27:14Z</time>
      </trkpt>
      <trkpt lat="43.93054" lon="5.22253">
        <ele>331.31</ele>
        <time>2013-06-03T10:27:23Z</time>
      </trkpt>
      <trkpt lat="43.9306" lon="5.22254">
        <ele>331.79</ele>
        <time>2013-06-03T10:27:34Z</time>
      </trkpt>
      <trkpt lat="43.93068" lon="5.22254">
        <ele>332.27</ele>
        <time>2013-06-03T10:27:44Z</time>
      </trkpt>
      <trkpt lat="43.93077" lon="5.22259">
        <ele>333.23</ele>
        <time>2013-06-03T10:27:58Z</time>
      </trkpt>
      <trkpt lat="43.93082" lon="5.22261">
        <ele>333.23</ele>
        <time>2013-06-03T10:28:09Z</time>
      </trkpt>
      <trkpt lat="43.93088" lon="5.22259">
        <ele>333.71</ele>
        <time>2013-06-03T10:28:21Z</time>
      </trkpt>
      <trkpt lat="43.93092" lon="5.22256">
        <ele>333.71</ele>
        <time>2013-06-03T10:28:27Z</time>
      </trkpt>
      <trkpt lat="43.93095" lon="5.22258">
        <ele>334.68</ele>
        <time>2013-06-03T10:28:37Z</time>
      </trkpt>
      <trkpt lat="43.93096" lon="5.22257">
        <ele>334.68</ele>
        <time>2013-06-03T10:28:38Z</time>
      </trkpt>
      <trkpt lat="43.93101" lon="5.22253">
        <ele>335.64</ele>
        <time>2013-06-03T10:28:49Z</time>
      </trkpt>
      <trkpt lat="43.93108" lon="5.2225">
        <ele>336.12</ele>
        <time>2013-06-03T10:29:03Z</time>
      </trkpt>
      <trkpt lat="43.93103" lon="5.22244">
        <ele>336.6</ele>
        <time>2013-06-03T10:29:15Z</time>
      </trkpt>
      <trkpt lat="43.93102" lon="5.22239">
        <ele>336.12</ele>
        <time>2013-06-03T10:29:33Z</time>
      </trkpt>
      <trkpt lat="43.93103" lon="5.22233">
        <ele>336.6</ele>
        <time>2013-06-03T10:29:37Z</time>
      </trkpt>
      <trkpt lat="43.93111" lon="5.22218">
        <ele>336.6</ele>
        <time>2013-06-03T10:29:48Z</time>
      </trkpt>
      <trkpt lat="43.93114" lon="5.22213">
        <ele>338.04</ele>
        <time>2013-06-03T10:29:59Z</time>
      </trkpt>
      <trkpt lat="43.93114" lon="5.22211">
        <ele>337.56</ele>
        <time>2013-06-03T10:30:00Z</time>
      </trkpt>
      <trkpt lat="43.93102" lon="5.22204">
        <ele>337.56</ele>
        <time>2013-06-03T10:30:10Z</time>
      </trkpt>
      <trkpt lat="43.93101" lon="5.22203">
        <ele>338.52</ele>
        <time>2013-06-03T10:30:20Z</time>
      </trkpt>
      <trkpt lat="43.93112" lon="5.22208">
        <ele>338.04</ele>
        <time>2013-06-03T10:30:42Z</time>
      </trkpt>
      <trkpt lat="43.93107" lon="5.22209">
        <ele>338.04</ele>
        <time>2013-06-03T10:30:57Z</time>
      </trkpt>
      <trkpt lat="43.93109" lon="5.222">
        <ele>338.52</ele>
        <time>2013-06-03T10:31:12Z</time>
      </trkpt>
      <trkpt lat="43.93105" lon="5.22191">
        <ele>339.96</ele>
        <time>2013-06-03T10:31:26Z</time>
      </trkpt>
      <trkpt lat="43.93103" lon="5.2218">
        <ele>339.48</ele>
        <time>2013-06-03T10:31:38Z</time>
      </trkpt>
      <trkpt lat="43.93107" lon="5.22171">
        <ele>341.41</ele>
        <time>2013-06-03T10:31:49Z</time>
      </trkpt>
      <trkpt lat="43.93106" lon="5.22165">
        <ele>342.37</ele>
        <time>2013-06-03T10:31:55Z</time>
      </trkpt>
      <trkpt lat="43.93105" lon="5.22159">
        <ele>343.33</ele>
        <time>2013-06-03T10:32:01Z</time>
      </trkpt>
      <trkpt lat="43.931" lon="5.22148">
        <ele>342.85</ele>
        <time>2013-06-03T10:32:12Z</time>
      </trkpt>
      <trkpt lat="43.931" lon="5.22131">
        <ele>342.85</ele>
        <time>2013-06-03T10:32:27Z</time>
      </trkpt>
      <trkpt lat="43.931" lon="5.22124">
        <ele>344.29</ele>
        <time>2013-06-03T10:32:34Z</time>
      </trkpt>
      <trkpt lat="43.93104" lon="5.22112">
        <ele>344.29</ele>
        <time>2013-06-03T10:32:44Z</time>
      </trkpt>
      <trkpt lat="43.93103" lon="5.22096">
        <ele>344.29</ele>
        <time>2013-06-03T10:32:55Z</time>
      </trkpt>
      <trkpt lat="43.93103" lon="5.22083">
        <ele>344.29</ele>
        <time>2013-06-03T10:33:06Z</time>
      </trkpt>
      <trkpt lat="43.93102" lon="5.22072">
        <ele>344.77</ele>
        <time>2013-06-03T10:33:19Z</time>
      </trkpt>
      <trkpt lat="43.93102" lon="5.22065">
        <ele>345.73</ele>
        <time>2013-06-03T10:33:28Z</time>
      </trkpt>
      <trkpt lat="43.93103" lon="5.22062">
        <ele>346.69</ele>
        <time>2013-06-03T10:33:41Z</time>
      </trkpt>
      <trkpt lat="43.9309" lon="5.22052">
        <ele>346.69</ele>
        <time>2013-06-03T10:34:01Z</time>
      </trkpt>
      <trkpt lat="43.93098" lon="5.2206">
        <ele>347.65</ele>
        <time>2013-06-03T10:34:24Z</time>
      </trkpt>
      <trkpt lat="43.93148" lon="5.22064">
        <ele>347.65</ele>
        <time>2013-06-03T10:34:38Z</time>
      </trkpt>
      <trkpt lat="43.93149" lon="5.22063">
        <ele>347.65</ele>
        <time>2013-06-03T10:34:49Z</time>
      </trkpt>
      <trkpt lat="43.93147" lon="5.22062">
        <ele>347.17</ele>
        <time>2013-06-03T10:35:01Z</time>
      </trkpt>
      <trkpt lat="43.93142" lon="5.22064">
        <ele>347.17</ele>
        <time>2013-06-03T10:35:14Z</time>
      </trkpt>
      <trkpt lat="43.9314" lon="5.22065">
        <ele>347.17</ele>
        <time>2013-06-03T10:35:30Z</time>
      </trkpt>
      <trkpt lat="43.93138" lon="5.22068">
        <ele>347.17</ele>
        <time>2013-06-03T10:35:37Z</time>
      </trkpt>
      <trkpt lat="43.9314" lon="5.22069">
        <ele>347.17</ele>
        <time>2013-06-03T10:35:41Z</time>
      </trkpt>
      <trkpt lat="43.93149" lon="5.22061">
        <ele>348.13</ele>
        <time>2013-06-03T10:35:54Z</time>
      </trkpt>
      <trkpt lat="43.9315" lon="5.22059">
        <ele>348.62</ele>
        <time>2013-06-03T10:35:59Z</time>
      </trkpt>
      <trkpt lat="43.93151" lon="5.22057">
        <ele>348.13</ele>
        <time>2013-06-03T10:36:10Z</time>
      </trkpt>
      <trkpt lat="43.9315" lon="5.22056">
        <ele>348.62</ele>
        <time>2013-06-03T10:36:11Z</time>
      </trkpt>
      <trkpt lat="43.93149" lon="5.2206">
        <ele>348.13</ele>
        <time>2013-06-03T10:36:22Z</time>
      </trkpt>
      <trkpt lat="43.93148" lon="5.22063">
        <ele>349.1</ele>
        <time>2013-06-03T10:36:35Z</time>
      </trkpt>
      <trkpt lat="43.93143" lon="5.22065">
        <ele>348.13</ele>
        <time>2013-06-03T10:36:53Z</time>
      </trkpt>
      <trkpt lat="43.93144" lon="5.2206">
        <ele>348.13</ele>
        <time>2013-06-03T10:37:04Z</time>
      </trkpt>
      <trkpt lat="43.93142" lon="5.22063">
        <ele>348.62</ele>
        <time>2013-06-03T10:37:14Z</time>
      </trkpt>
      <trkpt lat="43.9314" lon="5.22066">
        <ele>347.65</ele>
        <time>2013-06-03T10:37:26Z</time>
      </trkpt>
      <trkpt lat="43.93142" lon="5.22063">
        <ele>349.1</ele>
        <time>2013-06-03T10:37:37Z</time>
      </trkpt>
      <trkpt lat="43.93143" lon="5.22063">
        <ele>348.13</ele>
        <time>2013-06-03T10:37:47Z</time>
      </trkpt>
      <trkpt lat="43.93144" lon="5.22064">
        <ele>348.13</ele>
        <time>2013-06-03T10:37:56Z</time>
      </trkpt>
      <trkpt lat="43.93147" lon="5.22062">
        <ele>347.65</ele>
        <time>2013-06-03T10:38:04Z</time>
      </trkpt>
      <trkpt lat="43.93148" lon="5.22061">
        <ele>348.62</ele>
        <time>2013-06-03T10:38:15Z</time>
      </trkpt>
      <trkpt lat="43.93147" lon="5.2206">
        <ele>348.13</ele>
        <time>2013-06-03T10:38:22Z</time>
      </trkpt>
      <trkpt lat="43.93147" lon="5.22059">
        <ele>349.58</ele>
        <time>2013-06-03T10:38:24Z</time>
      </trkpt>
      <trkpt lat="43.93145" lon="5.2206">
        <ele>347.65</ele>
        <time>2013-06-03T10:38:35Z</time>
      </trkpt>
      <trkpt lat="43.93145" lon="5.22059">
        <ele>347.17</ele>
        <time>2013-06-03T10:38:36Z</time>
      </trkpt>
      <trkpt lat="43.93146" lon="5.22059">
        <ele>348.13</ele>
        <time>2013-06-03T11:07:54Z</time>
      </trkpt>
      <trkpt lat="43.93134" lon="5.22065">
        <ele>348.13</ele>
        <time>2013-06-03T11:08:11Z</time>
      </trkpt>
      <trkpt lat="43.93132" lon="5.22065">
        <ele>348.13</ele>
        <time>2013-06-03T11:08:34Z</time>
      </trkpt>
      <trkpt lat="43.93134" lon="5.22065">
        <ele>348.13</ele>
        <time>2013-06-03T11:08:57Z</time>
      </trkpt>
      <trkpt lat="43.93119" lon="5.22063">
        <ele>347.65</ele>
        <time>2013-06-03T11:09:14Z</time>
      </trkpt>
      <trkpt lat="43.93116" lon="5.22065">
        <ele>347.65</ele>
        <time>2013-06-03T11:09:31Z</time>
      </trkpt>
      <trkpt lat="43.93118" lon="5.22066">
        <ele>347.65</ele>
        <time>2013-06-03T11:09:53Z</time>
      </trkpt>
      <trkpt lat="43.93116" lon="5.22069">
        <ele>348.13</ele>
        <time>2013-06-03T11:10:16Z</time>
      </trkpt>
      <trkpt lat="43.93118" lon="5.22071">
        <ele>348.13</ele>
        <time>2013-06-03T11:10:36Z</time>
      </trkpt>
      <trkpt lat="43.93118" lon="5.22071">
        <ele>351.5</ele>
        <time>2013-06-03T11:10:43Z</time>
      </trkpt>
      <trkpt lat="43.93119" lon="5.22072">
        <ele>355.83</ele>
        <time>2013-06-03T11:10:46Z</time>
      </trkpt>
      <trkpt lat="43.93119" lon="5.22072">
        <ele>355.83</ele>
        <time>2013-06-03T11:10:47Z</time>
      </trkpt>
      <trkpt lat="43.93118" lon="5.22074">
        <ele>359.19</ele>
        <time>2013-06-03T11:10:51Z</time>
      </trkpt>
      <trkpt lat="43.93119" lon="5.22074">
        <ele>362.55</ele>
        <time>2013-06-03T11:10:55Z</time>
      </trkpt>
      <trkpt lat="43.93119" lon="5.22074">
        <ele>365.44</ele>
        <time>2013-06-03T11:11:00Z</time>
      </trkpt>
      <trkpt lat="43.9312" lon="5.22074">
        <ele>368.8</ele>
        <time>2013-06-03T11:11:06Z</time>
      </trkpt>
      <trkpt lat="43.9312" lon="5.22073">
        <ele>370.73</ele>
        <time>2013-06-03T11:11:10Z</time>
      </trkpt>
      <trkpt lat="43.93121" lon="5.22073">
        <ele>371.69</ele>
        <time>2013-06-03T11:11:12Z</time>
      </trkpt>
      <trkpt lat="43.93122" lon="5.22072">
        <ele>374.57</ele>
        <time>2013-06-03T11:11:21Z</time>
      </trkpt>
      <trkpt lat="43.93121" lon="5.22068">
        <ele>377.94</ele>
        <time>2013-06-03T11:11:32Z</time>
      </trkpt>
      <trkpt lat="43.93112" lon="5.22064">
        <ele>378.42</ele>
        <time>2013-06-03T11:12:00Z</time>
      </trkpt>
      <trkpt lat="43.93117" lon="5.2206">
        <ele>379.86</ele>
        <time>2013-06-03T11:12:19Z</time>
      </trkpt>
      <trkpt lat="43.93122" lon="5.22061">
        <ele>379.86</ele>
        <time>2013-06-03T11:12:38Z</time>
      </trkpt>
      <trkpt lat="43.93118" lon="5.2206">
        <ele>379.38</ele>
        <time>2013-06-03T11:13:01Z</time>
      </trkpt>
      <trkpt lat="43.93119" lon="5.22063">
        <ele>379.38</ele>
        <time>2013-06-03T11:13:23Z</time>
      </trkpt>
      <trkpt lat="43.93118" lon="5.22063">
        <ele>378.9</ele>
        <time>2013-06-03T11:13:40Z</time>
      </trkpt>
      <trkpt lat="43.93118" lon="5.22064">
        <ele>378.9</ele>
        <time>2013-06-03T11:13:55Z</time>
      </trkpt>
      <trkpt lat="43.93121" lon="5.22063">
        <ele>379.38</ele>
        <time>2013-06-03T11:14:09Z</time>
      </trkpt>
      <trkpt lat="43.9312" lon="5.22059">
        <ele>378.9</ele>
        <time>2013-06-03T11:14:26Z</time>
      </trkpt>
      <trkpt lat="43.93107" lon="5.22057">
        <ele>378.9</ele>
        <time>2013-06-03T11:14:48Z</time>
      </trkpt>
      <trkpt lat="43.93102" lon="5.22055">
        <ele>379.38</ele>
        <time>2013-06-03T11:15:09Z</time>
      </trkpt>
      <trkpt lat="43.93113" lon="5.22057">
        <ele>378.9</ele>
        <time>2013-06-03T11:15:25Z</time>
      </trkpt>
      <trkpt lat="43.93116" lon="5.2206">
        <ele>378.42</ele>
        <time>2013-06-03T11:15:45Z</time>
      </trkpt>
      <trkpt lat="43.93117" lon="5.22061">
        <ele>378.42</ele>
        <time>2013-06-03T11:16:08Z</time>
      </trkpt>
      <trkpt lat="43.93117" lon="5.22061">
        <ele>378.42</ele>
        <time>2013-06-03T11:16:26Z</time>
      </trkpt>
      <trkpt lat="43.93118" lon="5.22057">
        <ele>378.42</ele>
        <time>2013-06-03T11:16:39Z</time>
      </trkpt>
      <trkpt lat="43.93128" lon="5.22052">
        <ele>379.86</ele>
        <time>2013-06-03T11:16:54Z</time>
      </trkpt>
      <trkpt lat="43.93142" lon="5.22057">
        <ele>380.34</ele>
        <time>2013-06-03T11:17:08Z</time>
      </trkpt>
      <trkpt lat="43.9315" lon="5.22058">
        <ele>380.82</ele>
        <time>2013-06-03T11:17:16Z</time>
      </trkpt>
      <trkpt lat="43.93164" lon="5.22066">
        <ele>381.3</ele>
        <time>2013-06-03T11:17:31Z</time>
      </trkpt>
      <trkpt lat="43.93175" lon="5.22073">
        <ele>381.3</ele>
        <time>2013-06-03T11:17:46Z</time>
      </trkpt>
      <trkpt lat="43.93178" lon="5.22083">
        <ele>382.26</ele>
        <time>2013-06-03T11:18:01Z</time>
      </trkpt>
      <trkpt lat="43.9318" lon="5.22096">
        <ele>382.74</ele>
        <time>2013-06-03T11:18:15Z</time>
      </trkpt>
      <trkpt lat="43.93185" lon="5.22109">
        <ele>383.22</ele>
        <time>2013-06-03T11:18:30Z</time>
      </trkpt>
      <trkpt lat="43.93189" lon="5.22119">
        <ele>384.66</ele>
        <time>2013-06-03T11:18:45Z</time>
      </trkpt>
      <trkpt lat="43.93187" lon="5.22123">
        <ele>383.7</ele>
        <time>2013-06-03T11:19:05Z</time>
      </trkpt>
      <trkpt lat="43.93191" lon="5.22117">
        <ele>384.66</ele>
        <time>2013-06-03T11:19:24Z</time>
      </trkpt>
      <trkpt lat="43.93192" lon="5.22122">
        <ele>384.66</ele>
        <time>2013-06-03T11:19:42Z</time>
      </trkpt>
      <trkpt lat="43.9319" lon="5.22122">
        <ele>384.66</ele>
        <time>2013-06-03T11:20:07Z</time>
      </trkpt>
      <trkpt lat="43.93186" lon="5.22124">
        <ele>382.74</ele>
        <time>2013-06-03T11:20:23Z</time>
      </trkpt>
      <trkpt lat="43.93181" lon="5.22128">
        <ele>383.22</ele>
        <time>2013-06-03T11:20:47Z</time>
      </trkpt>
      <trkpt lat="43.93172" lon="5.2213">
        <ele>382.26</ele>
        <time>2013-06-03T11:21:16Z</time>
      </trkpt>
      <trkpt lat="43.93173" lon="5.22117">
        <ele>381.78</ele>
        <time>2013-06-03T11:21:38Z</time>
      </trkpt>
      <trkpt lat="43.93183" lon="5.22115">
        <ele>383.22</ele>
        <time>2013-06-03T11:21:57Z</time>
      </trkpt>
      <trkpt lat="43.93189" lon="5.22116">
        <ele>384.66</ele>
        <time>2013-06-03T11:22:13Z</time>
      </trkpt>
      <trkpt lat="43.93191" lon="5.22122">
        <ele>386.11</ele>
        <time>2013-06-03T11:22:25Z</time>
      </trkpt>
      <trkpt lat="43.93195" lon="5.2213">
        <ele>386.59</ele>
        <time>2013-06-03T11:22:39Z</time>
      </trkpt>
      <trkpt lat="43.93196" lon="5.2213">
        <ele>386.59</ele>
        <time>2013-06-03T11:22:57Z</time>
      </trkpt>
      <trkpt lat="43.93198" lon="5.22131">
        <ele>385.63</ele>
        <time>2013-06-03T11:23:14Z</time>
      </trkpt>
      <trkpt lat="43.932" lon="5.22128">
        <ele>385.63</ele>
        <time>2013-06-03T11:23:30Z</time>
      </trkpt>
      <trkpt lat="43.93203" lon="5.22133">
        <ele>384.66</ele>
        <time>2013-06-03T11:23:49Z</time>
      </trkpt>
      <trkpt lat="43.93207" lon="5.22135">
        <ele>384.66</ele>
        <time>2013-06-03T11:24:04Z</time>
      </trkpt>
      <trkpt lat="43.93211" lon="5.22124">
        <ele>384.66</ele>
        <time>2013-06-03T11:24:20Z</time>
      </trkpt>
      <trkpt lat="43.93211" lon="5.22109">
        <ele>384.66</ele>
        <time>2013-06-03T11:24:34Z</time>
      </trkpt>
      <trkpt lat="43.93229" lon="5.22095">
        <ele>383.7</ele>
        <time>2013-06-03T11:24:48Z</time>
      </trkpt>
      <trkpt lat="43.93236" lon="5.22095">
        <ele>383.22</ele>
        <time>2013-06-03T11:25:05Z</time>
      </trkpt>
      <trkpt lat="43.93234" lon="5.22094">
        <ele>382.74</ele>
        <time>2013-06-03T11:25:30Z</time>
      </trkpt>
      <trkpt lat="43.93235" lon="5.22095">
        <ele>381.78</ele>
        <time>2013-06-03T11:25:55Z</time>
      </trkpt>
      <trkpt lat="43.93242" lon="5.22099">
        <ele>381.78</ele>
        <time>2013-06-03T11:26:16Z</time>
      </trkpt>
      <trkpt lat="43.93239" lon="5.22098">
        <ele>380.82</ele>
        <time>2013-06-03T11:26:40Z</time>
      </trkpt>
      <trkpt lat="43.93245" lon="5.22102">
        <ele>380.82</ele>
        <time>2013-06-03T11:27:04Z</time>
      </trkpt>
      <trkpt lat="43.9325" lon="5.22092">
        <ele>379.86</ele>
        <time>2013-06-03T11:27:18Z</time>
      </trkpt>
      <trkpt lat="43.93254" lon="5.22085">
        <ele>379.86</ele>
        <time>2013-06-03T11:27:33Z</time>
      </trkpt>
      <trkpt lat="43.9326" lon="5.22082">
        <ele>379.38</ele>
        <time>2013-06-03T11:27:50Z</time>
      </trkpt>
      <trkpt lat="43.93269" lon="5.22081">
        <ele>381.3</ele>
        <time>2013-06-03T11:28:08Z</time>
      </trkpt>
      <trkpt lat="43.93293" lon="5.22089">
        <ele>383.7</ele>
        <time>2013-06-03T11:28:24Z</time>
      </trkpt>
      <trkpt lat="43.93302" lon="5.22097">
        <ele>383.7</ele>
        <time>2013-06-03T11:28:38Z</time>
      </trkpt>
      <trkpt lat="43.93307" lon="5.22102">
        <ele>384.66</ele>
        <time>2013-06-03T11:28:52Z</time>
      </trkpt>
      <trkpt lat="43.93316" lon="5.22111">
        <ele>385.15</ele>
        <time>2013-06-03T11:29:12Z</time>
      </trkpt>
      <trkpt lat="43.93314" lon="5.22128">
        <ele>384.66</ele>
        <time>2013-06-03T11:29:28Z</time>
      </trkpt>
      <trkpt lat="43.9331" lon="5.22134">
        <ele>384.18</ele>
        <time>2013-06-03T11:29:44Z</time>
      </trkpt>
      <trkpt lat="43.93304" lon="5.22138">
        <ele>383.22</ele>
        <time>2013-06-03T11:30:10Z</time>
      </trkpt>
      <trkpt lat="43.93293" lon="5.22154">
        <ele>382.74</ele>
        <time>2013-06-03T11:30:37Z</time>
      </trkpt>
      <trkpt lat="43.93293" lon="5.22151">
        <ele>380.82</ele>
        <time>2013-06-03T11:30:57Z</time>
      </trkpt>
      <trkpt lat="43.93293" lon="5.22154">
        <ele>378.9</ele>
        <time>2013-06-03T11:31:14Z</time>
      </trkpt>
      <trkpt lat="43.93295" lon="5.22152">
        <ele>378.9</ele>
        <time>2013-06-03T11:31:41Z</time>
      </trkpt>
      <trkpt lat="43.93317" lon="5.22167">
        <ele>378.9</ele>
        <time>2013-06-03T11:32:03Z</time>
      </trkpt>
      <trkpt lat="43.93321" lon="5.22162">
        <ele>378.42</ele>
        <time>2013-06-03T11:32:29Z</time>
      </trkpt>
      <trkpt lat="43.93332" lon="5.2214">
        <ele>380.82</ele>
        <time>2013-06-03T11:33:04Z</time>
      </trkpt>
      <trkpt lat="43.93339" lon="5.22136">
        <ele>383.22</ele>
        <time>2013-06-03T11:33:19Z</time>
      </trkpt>
      <trkpt lat="43.93344" lon="5.22142">
        <ele>383.7</ele>
        <time>2013-06-03T11:33:34Z</time>
      </trkpt>
      <trkpt lat="43.93342" lon="5.22144">
        <ele>385.63</ele>
        <time>2013-06-03T11:33:50Z</time>
      </trkpt>
      <trkpt lat="43.93348" lon="5.22135">
        <ele>387.55</ele>
        <time>2013-06-03T11:34:06Z</time>
      </trkpt>
      <trkpt lat="43.93349" lon="5.22138">
        <ele>387.07</ele>
        <time>2013-06-03T11:34:20Z</time>
      </trkpt>
      <trkpt lat="43.93348" lon="5.22146">
        <ele>388.03</ele>
        <time>2013-06-03T11:34:32Z</time>
      </trkpt>
      <trkpt lat="43.93353" lon="5.22152">
        <ele>387.55</ele>
        <time>2013-06-03T11:34:47Z</time>
      </trkpt>
      <trkpt lat="43.93364" lon="5.22147">
        <ele>386.59</ele>
        <time>2013-06-03T11:35:01Z</time>
      </trkpt>
      <trkpt lat="43.93374" lon="5.22144">
        <ele>387.07</ele>
        <time>2013-06-03T11:35:14Z</time>
      </trkpt>
      <trkpt lat="43.93384" lon="5.22142">
        <ele>387.55</ele>
        <time>2013-06-03T11:35:29Z</time>
      </trkpt>
      <trkpt lat="43.93394" lon="5.22141">
        <ele>388.03</ele>
        <time>2013-06-03T11:35:42Z</time>
      </trkpt>
      <trkpt lat="43.934" lon="5.22144">
        <ele>388.99</ele>
        <time>2013-06-03T11:35:56Z</time>
      </trkpt>
      <trkpt lat="43.93405" lon="5.2214">
        <ele>387.55</ele>
        <time>2013-06-03T11:36:10Z</time>
      </trkpt>
      <trkpt lat="43.93413" lon="5.2214">
        <ele>387.55</ele>
        <time>2013-06-03T11:36:27Z</time>
      </trkpt>
      <trkpt lat="43.93419" lon="5.22137">
        <ele>387.07</ele>
        <time>2013-06-03T11:36:37Z</time>
      </trkpt>
      <trkpt lat="43.93426" lon="5.22132">
        <ele>387.07</ele>
        <time>2013-06-03T11:36:45Z</time>
      </trkpt>
      <trkpt lat="43.93432" lon="5.22127">
        <ele>387.07</ele>
        <time>2013-06-03T11:36:56Z</time>
      </trkpt>
      <trkpt lat="43.93438" lon="5.22123">
        <ele>387.55</ele>
        <time>2013-06-03T11:37:13Z</time>
      </trkpt>
      <trkpt lat="43.93447" lon="5.22116">
        <ele>387.07</ele>
        <time>2013-06-03T11:37:31Z</time>
      </trkpt>
      <trkpt lat="43.93453" lon="5.22114">
        <ele>387.07</ele>
        <time>2013-06-03T11:37:47Z</time>
      </trkpt>
      <trkpt lat="43.93461" lon="5.22113">
        <ele>386.59</ele>
        <time>2013-06-03T11:38:03Z</time>
      </trkpt>
      <trkpt lat="43.93468" lon="5.22114">
        <ele>386.59</ele>
        <time>2013-06-03T11:38:14Z</time>
      </trkpt>
      <trkpt lat="43.93477" lon="5.22113">
        <ele>386.59</ele>
        <time>2013-06-03T11:38:28Z</time>
      </trkpt>
      <trkpt lat="43.93491" lon="5.22112">
        <ele>386.59</ele>
        <time>2013-06-03T11:38:43Z</time>
      </trkpt>
      <trkpt lat="43.93521" lon="5.22114">
        <ele>387.07</ele>
        <time>2013-06-03T11:38:58Z</time>
      </trkpt>
      <trkpt lat="43.93536" lon="5.22114">
        <ele>387.07</ele>
        <time>2013-06-03T11:39:13Z</time>
      </trkpt>
      <trkpt lat="43.93551" lon="5.22104">
        <ele>388.99</ele>
        <time>2013-06-03T11:39:28Z</time>
      </trkpt>
      <trkpt lat="43.93561" lon="5.221">
        <ele>389.95</ele>
        <time>2013-06-03T11:39:41Z</time>
      </trkpt>
      <trkpt lat="43.93569" lon="5.22093">
        <ele>389.95</ele>
        <time>2013-06-03T11:39:55Z</time>
      </trkpt>
      <trkpt lat="43.93574" lon="5.22093">
        <ele>388.51</ele>
        <time>2013-06-03T11:40:02Z</time>
      </trkpt>
      <trkpt lat="43.93587" lon="5.22086">
        <ele>388.99</ele>
        <time>2013-06-03T11:40:17Z</time>
      </trkpt>
      <trkpt lat="43.93599" lon="5.22087">
        <ele>388.99</ele>
        <time>2013-06-03T11:40:31Z</time>
      </trkpt>
      <trkpt lat="43.93616" lon="5.22088">
        <ele>388.99</ele>
        <time>2013-06-03T11:40:44Z</time>
      </trkpt>
      <trkpt lat="43.93626" lon="5.22092">
        <ele>389.47</ele>
        <time>2013-06-03T11:41:01Z</time>
      </trkpt>
      <trkpt lat="43.93643" lon="5.221">
        <ele>388.99</ele>
        <time>2013-06-03T11:41:19Z</time>
      </trkpt>
      <trkpt lat="43.93656" lon="5.22104">
        <ele>389.47</ele>
        <time>2013-06-03T11:41:34Z</time>
      </trkpt>
      <trkpt lat="43.93667" lon="5.22113">
        <ele>390.43</ele>
        <time>2013-06-03T11:41:54Z</time>
      </trkpt>
      <trkpt lat="43.93675" lon="5.22117">
        <ele>390.91</ele>
        <time>2013-06-03T11:42:13Z</time>
      </trkpt>
      <trkpt lat="43.93677" lon="5.22129">
        <ele>390.43</ele>
        <time>2013-06-03T11:42:38Z</time>
      </trkpt>
      <trkpt lat="43.93687" lon="5.22131">
        <ele>390.43</ele>
        <time>2013-06-03T11:42:57Z</time>
      </trkpt>
      <trkpt lat="43.93702" lon="5.22128">
        <ele>390.91</ele>
        <time>2013-06-03T11:43:18Z</time>
      </trkpt>
      <trkpt lat="43.93715" lon="5.2213">
        <ele>391.87</ele>
        <time>2013-06-03T11:43:35Z</time>
      </trkpt>
      <trkpt lat="43.93712" lon="5.22128">
        <ele>391.39</ele>
        <time>2013-06-03T11:43:57Z</time>
      </trkpt>
      <trkpt lat="43.93713" lon="5.22126">
        <ele>390.91</ele>
        <time>2013-06-03T11:44:24Z</time>
      </trkpt>
      <trkpt lat="43.93724" lon="5.22133">
        <ele>390.43</ele>
        <time>2013-06-03T11:44:52Z</time>
      </trkpt>
      <trkpt lat="43.93739" lon="5.22135">
        <ele>389.95</ele>
        <time>2013-06-03T11:45:12Z</time>
      </trkpt>
      <trkpt lat="43.93753" lon="5.2213">
        <ele>390.43</ele>
        <time>2013-06-03T11:45:31Z</time>
      </trkpt>
      <trkpt lat="43.93761" lon="5.22119">
        <ele>391.39</ele>
        <time>2013-06-03T11:45:46Z</time>
      </trkpt>
      <trkpt lat="43.93768" lon="5.22116">
        <ele>392.36</ele>
        <time>2013-06-03T11:46:01Z</time>
      </trkpt>
      <trkpt lat="43.93781" lon="5.22118">
        <ele>391.87</ele>
        <time>2013-06-03T11:46:17Z</time>
      </trkpt>
      <trkpt lat="43.93795" lon="5.22115">
        <ele>392.36</ele>
        <time>2013-06-03T11:46:32Z</time>
      </trkpt>
      <trkpt lat="43.93809" lon="5.22118">
        <ele>393.32</ele>
        <time>2013-06-03T11:46:49Z</time>
      </trkpt>
      <trkpt lat="43.93818" lon="5.22126">
        <ele>392.36</ele>
        <time>2013-06-03T11:47:02Z</time>
      </trkpt>
      <trkpt lat="43.9383" lon="5.22137">
        <ele>391.39</ele>
        <time>2013-06-03T11:47:17Z</time>
      </trkpt>
      <trkpt lat="43.93837" lon="5.22144">
        <ele>391.39</ele>
        <time>2013-06-03T11:47:32Z</time>
      </trkpt>
      <trkpt lat="43.93835" lon="5.22141">
        <ele>391.39</ele>
        <time>2013-06-03T11:47:58Z</time>
      </trkpt>
      <trkpt lat="43.93836" lon="5.22144">
        <ele>391.39</ele>
        <time>2013-06-03T11:48:16Z</time>
      </trkpt>
      <trkpt lat="43.93841" lon="5.22136">
        <ele>394.28</ele>
        <time>2013-06-03T11:48:35Z</time>
      </trkpt>
      <trkpt lat="43.93845" lon="5.22131">
        <ele>397.16</ele>
        <time>2013-06-03T11:48:49Z</time>
      </trkpt>
      <trkpt lat="43.93854" lon="5.2213">
        <ele>394.76</ele>
        <time>2013-06-03T11:49:02Z</time>
      </trkpt>
      <trkpt lat="43.93861" lon="5.22137">
        <ele>395.24</ele>
        <time>2013-06-03T11:49:13Z</time>
      </trkpt>
      <trkpt lat="43.93868" lon="5.22149">
        <ele>396.2</ele>
        <time>2013-06-03T11:49:28Z</time>
      </trkpt>
      <trkpt lat="43.93877" lon="5.22154">
        <ele>396.68</ele>
        <time>2013-06-03T11:49:43Z</time>
      </trkpt>
      <trkpt lat="43.93885" lon="5.22166">
        <ele>395.24</ele>
        <time>2013-06-03T11:50:00Z</time>
      </trkpt>
      <trkpt lat="43.93886" lon="5.22173">
        <ele>393.32</ele>
        <time>2013-06-03T11:50:19Z</time>
      </trkpt>
      <trkpt lat="43.9389" lon="5.22175">
        <ele>393.32</ele>
        <time>2013-06-03T11:50:43Z</time>
      </trkpt>
      <trkpt lat="43.93896" lon="5.22177">
        <ele>395.24</ele>
        <time>2013-06-03T11:51:01Z</time>
      </trkpt>
      <trkpt lat="43.93895" lon="5.22175">
        <ele>396.2</ele>
        <time>2013-06-03T11:51:26Z</time>
      </trkpt>
      <trkpt lat="43.93889" lon="5.2217">
        <ele>395.72</ele>
        <time>2013-06-03T11:51:42Z</time>
      </trkpt>
      <trkpt lat="43.9389" lon="5.22173">
        <ele>396.68</ele>
        <time>2013-06-03T11:52:07Z</time>
      </trkpt>
      <trkpt lat="43.93886" lon="5.22174">
        <ele>395.72</ele>
        <time>2013-06-03T11:52:33Z</time>
      </trkpt>
      <trkpt lat="43.93887" lon="5.22175">
        <ele>396.2</ele>
        <time>2013-06-03T11:52:59Z</time>
      </trkpt>
      <trkpt lat="43.93883" lon="5.22179">
        <ele>395.72</ele>
        <time>2013-06-03T11:53:18Z</time>
      </trkpt>
      <trkpt lat="43.93878" lon="5.22178">
        <ele>394.76</ele>
        <time>2013-06-03T11:53:39Z</time>
      </trkpt>
      <trkpt lat="43.9387" lon="5.22159">
        <ele>395.72</ele>
        <time>2013-06-03T11:53:55Z</time>
      </trkpt>
      <trkpt lat="43.93864" lon="5.22155">
        <ele>394.28</ele>
        <time>2013-06-03T11:54:09Z</time>
      </trkpt>
      <trkpt lat="43.9386" lon="5.22142">
        <ele>393.32</ele>
        <time>2013-06-03T11:54:23Z</time>
      </trkpt>
      <trkpt lat="43.93851" lon="5.22133">
        <ele>393.8</ele>
        <time>2013-06-03T11:54:38Z</time>
      </trkpt>
      <trkpt lat="43.93846" lon="5.22134">
        <ele>394.76</ele>
        <time>2013-06-03T11:54:52Z</time>
      </trkpt>
      <trkpt lat="43.93844" lon="5.22137">
        <ele>392.36</ele>
        <time>2013-06-03T11:55:09Z</time>
      </trkpt>
      <trkpt lat="43.93841" lon="5.22142">
        <ele>389.47</ele>
        <time>2013-06-03T11:55:24Z</time>
      </trkpt>
      <trkpt lat="43.93838" lon="5.2214">
        <ele>389.47</ele>
        <time>2013-06-03T11:55:39Z</time>
      </trkpt>
      <trkpt lat="43.93837" lon="5.22138">
        <ele>388.99</ele>
        <time>2013-06-03T11:55:53Z</time>
      </trkpt>
      <trkpt lat="43.93835" lon="5.2214">
        <ele>388.99</ele>
        <time>2013-06-03T11:56:15Z</time>
      </trkpt>
      <trkpt lat="43.93834" lon="5.22144">
        <ele>388.99</ele>
        <time>2013-06-03T11:56:34Z</time>
      </trkpt>
      <trkpt lat="43.9383" lon="5.22154">
        <ele>388.99</ele>
        <time>2013-06-03T11:56:52Z</time>
      </trkpt>
      <trkpt lat="43.93832" lon="5.22157">
        <ele>391.39</ele>
        <time>2013-06-03T11:57:11Z</time>
      </trkpt>
      <trkpt lat="43.93831" lon="5.22156">
        <ele>391.39</ele>
        <time>2013-06-03T11:57:38Z</time>
      </trkpt>
      <trkpt lat="43.9383" lon="5.22148">
        <ele>392.36</ele>
        <time>2013-06-03T11:57:58Z</time>
      </trkpt>
      <trkpt lat="43.93827" lon="5.2216">
        <ele>394.28</ele>
        <time>2013-06-03T11:58:13Z</time>
      </trkpt>
      <trkpt lat="43.93832" lon="5.22164">
        <ele>397.16</ele>
        <time>2013-06-03T11:58:26Z</time>
      </trkpt>
      <trkpt lat="43.93834" lon="5.22169">
        <ele>399.57</ele>
        <time>2013-06-03T11:58:36Z</time>
      </trkpt>
      <trkpt lat="43.93842" lon="5.22177">
        <ele>402.93</ele>
        <time>2013-06-03T11:58:50Z</time>
      </trkpt>
      <trkpt lat="43.93846" lon="5.22183">
        <ele>403.89</ele>
        <time>2013-06-03T11:59:00Z</time>
      </trkpt>
      <trkpt lat="43.93845" lon="5.22184">
        <ele>404.85</ele>
        <time>2013-06-03T11:59:20Z</time>
      </trkpt>
      <trkpt lat="43.93849" lon="5.22188">
        <ele>405.33</ele>
        <time>2013-06-03T11:59:29Z</time>
      </trkpt>
      <trkpt lat="43.93856" lon="5.22196">
        <ele>406.77</ele>
        <time>2013-06-03T11:59:42Z</time>
      </trkpt>
      <trkpt lat="43.93857" lon="5.22141">
        <ele>406.77</ele>
        <time>2013-06-03T12:00:06Z</time>
      </trkpt>
      <trkpt lat="43.93862" lon="5.22152">
        <ele>407.26</ele>
        <time>2013-06-03T12:00:22Z</time>
      </trkpt>
      <trkpt lat="43.93869" lon="5.22162">
        <ele>408.22</ele>
        <time>2013-06-03T12:00:38Z</time>
      </trkpt>
      <trkpt lat="43.93875" lon="5.22163">
        <ele>408.7</ele>
        <time>2013-06-03T12:00:51Z</time>
      </trkpt>
      <trkpt lat="43.93883" lon="5.22162">
        <ele>409.18</ele>
        <time>2013-06-03T12:01:05Z</time>
      </trkpt>
      <trkpt lat="43.93893" lon="5.22157">
        <ele>410.14</ele>
        <time>2013-06-03T12:01:17Z</time>
      </trkpt>
      <trkpt lat="43.93899" lon="5.22159">
        <ele>410.62</ele>
        <time>2013-06-03T12:01:30Z</time>
      </trkpt>
      <trkpt lat="43.93907" lon="5.2215">
        <ele>413.02</ele>
        <time>2013-06-03T12:01:44Z</time>
      </trkpt>
      <trkpt lat="43.93914" lon="5.22198">
        <ele>413.98</ele>
        <time>2013-06-03T12:02:01Z</time>
      </trkpt>
      <trkpt lat="43.93922" lon="5.22194">
        <ele>413.98</ele>
        <time>2013-06-03T12:02:18Z</time>
      </trkpt>
      <trkpt lat="43.93924" lon="5.22191">
        <ele>414.47</ele>
        <time>2013-06-03T12:02:22Z</time>
      </trkpt>
      <trkpt lat="43.93928" lon="5.2219">
        <ele>414.47</ele>
        <time>2013-06-03T12:02:26Z</time>
      </trkpt>
      <trkpt lat="43.93937" lon="5.22189">
        <ele>415.91</ele>
        <time>2013-06-03T12:02:39Z</time>
      </trkpt>
      <trkpt lat="43.93944" lon="5.22191">
        <ele>416.39</ele>
        <time>2013-06-03T12:02:50Z</time>
      </trkpt>
      <trkpt lat="43.93947" lon="5.2219">
        <ele>416.39</ele>
        <time>2013-06-03T12:03:04Z</time>
      </trkpt>
      <trkpt lat="43.93952" lon="5.22193">
        <ele>416.87</ele>
        <time>2013-06-03T12:03:12Z</time>
      </trkpt>
      <trkpt lat="43.93964" lon="5.22194">
        <ele>415.91</ele>
        <time>2013-06-03T12:03:25Z</time>
      </trkpt>
      <trkpt lat="43.93975" lon="5.22191">
        <ele>413.5</ele>
        <time>2013-06-03T12:03:38Z</time>
      </trkpt>
      <trkpt lat="43.93984" lon="5.22188">
        <ele>413.5</ele>
        <time>2013-06-03T12:03:50Z</time>
      </trkpt>
      <trkpt lat="43.93991" lon="5.22195">
        <ele>411.58</ele>
        <time>2013-06-03T12:04:04Z</time>
      </trkpt>
      <trkpt lat="43.93995" lon="5.22199">
        <ele>410.14</ele>
        <time>2013-06-03T12:04:17Z</time>
      </trkpt>
      <trkpt lat="43.93999" lon="5.22197">
        <ele>407.74</ele>
        <time>2013-06-03T12:04:32Z</time>
      </trkpt>
      <trkpt lat="43.94002" lon="5.22199">
        <ele>405.33</ele>
        <time>2013-06-03T12:04:46Z</time>
      </trkpt>
      <trkpt lat="43.94005" lon="5.22193">
        <ele>404.37</ele>
        <time>2013-06-03T12:04:58Z</time>
      </trkpt>
      <trkpt lat="43.94013" lon="5.22191">
        <ele>407.26</ele>
        <time>2013-06-03T12:05:10Z</time>
      </trkpt>
      <trkpt lat="43.94016" lon="5.2219">
        <ele>410.62</ele>
        <time>2013-06-03T12:05:21Z</time>
      </trkpt>
      <trkpt lat="43.94016" lon="5.22196">
        <ele>411.1</ele>
        <time>2013-06-03T12:05:35Z</time>
      </trkpt>
      <trkpt lat="43.9401" lon="5.22196">
        <ele>411.1</ele>
        <time>2013-06-03T12:06:06Z</time>
      </trkpt>
      <trkpt lat="43.94014" lon="5.22196">
        <ele>410.62</ele>
        <time>2013-06-03T12:06:25Z</time>
      </trkpt>
      <trkpt lat="43.94013" lon="5.22196">
        <ele>410.62</ele>
        <time>2013-06-03T12:06:46Z</time>
      </trkpt>
      <trkpt lat="43.9402" lon="5.22197">
        <ele>411.1</ele>
        <time>2013-06-03T12:07:03Z</time>
      </trkpt>
      <trkpt lat="43.94019" lon="5.22197">
        <ele>411.1</ele>
        <time>2013-06-03T12:07:17Z</time>
      </trkpt>
      <trkpt lat="43.94019" lon="5.22197">
        <ele>411.1</ele>
        <time>2013-06-03T12:07:36Z</time>
      </trkpt>
      <trkpt lat="43.94026" lon="5.22204">
        <ele>411.1</ele>
        <time>2013-06-03T12:07:52Z</time>
      </trkpt>
      <trkpt lat="43.94023" lon="5.22201">
        <ele>411.1</ele>
        <time>2013-06-03T12:08:13Z</time>
      </trkpt>
      <trkpt lat="43.94022" lon="5.22186">
        <ele>410.62</ele>
        <time>2013-06-03T12:08:35Z</time>
      </trkpt>
      <trkpt lat="43.94017" lon="5.22189">
        <ele>410.62</ele>
        <time>2013-06-03T12:08:45Z</time>
      </trkpt>
      <trkpt lat="43.94019" lon="5.22203">
        <ele>411.58</ele>
        <time>2013-06-03T12:09:03Z</time>
      </trkpt>
      <trkpt lat="43.94017" lon="5.22203">
        <ele>410.62</ele>
        <time>2013-06-03T12:09:28Z</time>
      </trkpt>
      <trkpt lat="43.94018" lon="5.22202">
        <ele>410.62</ele>
        <time>2013-06-03T12:09:50Z</time>
      </trkpt>
      <trkpt lat="43.94019" lon="5.22209">
        <ele>411.1</ele>
        <time>2013-06-03T12:10:13Z</time>
      </trkpt>
      <trkpt lat="43.94028" lon="5.22231">
        <ele>410.62</ele>
        <time>2013-06-03T12:10:29Z</time>
      </trkpt>
      <trkpt lat="43.94028" lon="5.2225">
        <ele>410.62</ele>
        <time>2013-06-03T12:10:50Z</time>
      </trkpt>
      <trkpt lat="43.94029" lon="5.22275">
        <ele>410.62</ele>
        <time>2013-06-03T12:11:06Z</time>
      </trkpt>
      <trkpt lat="43.94038" lon="5.22307">
        <ele>411.58</ele>
        <time>2013-06-03T12:11:27Z</time>
      </trkpt>
      <trkpt lat="43.94053" lon="5.2232">
        <ele>411.58</ele>
        <time>2013-06-03T12:11:44Z</time>
      </trkpt>
      <trkpt lat="43.94072" lon="5.22325">
        <ele>411.58</ele>
        <time>2013-06-03T12:12:02Z</time>
      </trkpt>
      <trkpt lat="43.94099" lon="5.2232">
        <ele>411.58</ele>
        <time>2013-06-03T12:12:23Z</time>
      </trkpt>
      <trkpt lat="43.94123" lon="5.22308">
        <ele>412.06</ele>
        <time>2013-06-03T12:12:43Z</time>
      </trkpt>
      <trkpt lat="43.94137" lon="5.22293">
        <ele>412.06</ele>
        <time>2013-06-03T12:13:01Z</time>
      </trkpt>
      <trkpt lat="43.94153" lon="5.22272">
        <ele>412.06</ele>
        <time>2013-06-03T12:13:23Z</time>
      </trkpt>
      <trkpt lat="43.94172" lon="5.22259">
        <ele>413.98</ele>
        <time>2013-06-03T12:13:40Z</time>
      </trkpt>
      <trkpt lat="43.94187" lon="5.22242">
        <ele>416.39</ele>
        <time>2013-06-03T12:14:00Z</time>
      </trkpt>
      <trkpt lat="43.94202" lon="5.22236">
        <ele>418.79</ele>
        <time>2013-06-03T12:14:19Z</time>
      </trkpt>
      <trkpt lat="43.94215" lon="5.22239">
        <ele>416.87</ele>
        <time>2013-06-03T12:14:40Z</time>
      </trkpt>
      <trkpt lat="43.94238" lon="5.22249">
        <ele>416.39</ele>
        <time>2013-06-03T12:15:03Z</time>
      </trkpt>
      <trkpt lat="43.94251" lon="5.22269">
        <ele>416.39</ele>
        <time>2013-06-03T12:15:21Z</time>
      </trkpt>
      <trkpt lat="43.9426" lon="5.22285">
        <ele>415.91</ele>
        <time>2013-06-03T12:15:39Z</time>
      </trkpt>
      <trkpt lat="43.94267" lon="5.22309">
        <ele>415.91</ele>
        <time>2013-06-03T12:15:57Z</time>
      </trkpt>
      <trkpt lat="43.94267" lon="5.22341">
        <ele>416.39</ele>
        <time>2013-06-03T12:16:17Z</time>
      </trkpt>
      <trkpt lat="43.94255" lon="5.22351">
        <ele>415.43</ele>
        <time>2013-06-03T12:16:41Z</time>
      </trkpt>
      <trkpt lat="43.94247" lon="5.22356">
        <ele>415.43</ele>
        <time>2013-06-03T12:17:03Z</time>
      </trkpt>
      <trkpt lat="43.94245" lon="5.22362">
        <ele>415.43</ele>
        <time>2013-06-03T12:17:25Z</time>
      </trkpt>
      <trkpt lat="43.94245" lon="5.22372">
        <ele>414.95</ele>
        <time>2013-06-03T12:17:45Z</time>
      </trkpt>
      <trkpt lat="43.94258" lon="5.22382">
        <ele>415.91</ele>
        <time>2013-06-03T12:18:01Z</time>
      </trkpt>
      <trkpt lat="43.94271" lon="5.22403">
        <ele>415.91</ele>
        <time>2013-06-03T12:18:21Z</time>
      </trkpt>
      <trkpt lat="43.94282" lon="5.22419">
        <ele>416.39</ele>
        <time>2013-06-03T12:18:40Z</time>
      </trkpt>
      <trkpt lat="43.94301" lon="5.22424">
        <ele>416.87</ele>
        <time>2013-06-03T12:18:58Z</time>
      </trkpt>
      <trkpt lat="43.94311" lon="5.22427">
        <ele>416.87</ele>
        <time>2013-06-03T12:19:11Z</time>
      </trkpt>
      <trkpt lat="43.94313" lon="5.22428">
        <ele>416.87</ele>
        <time>2013-06-03T12:19:13Z</time>
      </trkpt>
      <trkpt lat="43.94324" lon="5.22429">
        <ele>417.35</ele>
        <time>2013-06-03T12:19:25Z</time>
      </trkpt>
      <trkpt lat="43.94341" lon="5.22425">
        <ele>417.35</ele>
        <time>2013-06-03T12:19:40Z</time>
      </trkpt>
      <trkpt lat="43.94357" lon="5.22417">
        <ele>417.35</ele>
        <time>2013-06-03T12:19:54Z</time>
      </trkpt>
      <trkpt lat="43.9437" lon="5.22411">
        <ele>417.83</ele>
        <time>2013-06-03T12:20:07Z</time>
      </trkpt>
      <trkpt lat="43.94383" lon="5.22406">
        <ele>417.83</ele>
        <time>2013-06-03T12:20:21Z</time>
      </trkpt>
      <trkpt lat="43.94387" lon="5.22406">
        <ele>417.83</ele>
        <time>2013-06-03T12:20:27Z</time>
      </trkpt>
      <trkpt lat="43.94402" lon="5.22408">
        <ele>418.31</ele>
        <time>2013-06-03T12:20:41Z</time>
      </trkpt>
      <trkpt lat="43.94418" lon="5.22413">
        <ele>418.31</ele>
        <time>2013-06-03T12:20:56Z</time>
      </trkpt>
      <trkpt lat="43.94434" lon="5.22419">
        <ele>418.79</ele>
        <time>2013-06-03T12:21:10Z</time>
      </trkpt>
      <trkpt lat="43.94444" lon="5.2243">
        <ele>418.79</ele>
        <time>2013-06-03T12:21:24Z</time>
      </trkpt>
      <trkpt lat="43.94447" lon="5.22444">
        <ele>418.79</ele>
        <time>2013-06-03T12:21:38Z</time>
      </trkpt>
      <trkpt lat="43.94458" lon="5.22451">
        <ele>418.79</ele>
        <time>2013-06-03T12:21:52Z</time>
      </trkpt>
      <trkpt lat="43.9447" lon="5.22456">
        <ele>419.27</ele>
        <time>2013-06-03T12:22:03Z</time>
      </trkpt>
      <trkpt lat="43.94482" lon="5.2247">
        <ele>419.75</ele>
        <time>2013-06-03T12:22:19Z</time>
      </trkpt>
      <trkpt lat="43.94488" lon="5.22478">
        <ele>422.16</ele>
        <time>2013-06-03T12:22:34Z</time>
      </trkpt>
      <trkpt lat="43.94501" lon="5.22484">
        <ele>423.12</ele>
        <time>2013-06-03T12:22:47Z</time>
      </trkpt>
      <trkpt lat="43.9451" lon="5.22484">
        <ele>422.64</ele>
        <time>2013-06-03T12:23:09Z</time>
      </trkpt>
      <trkpt lat="43.9451" lon="5.22484">
        <ele>422.16</ele>
        <time>2013-06-03T12:23:29Z</time>
      </trkpt>
      <trkpt lat="43.94508" lon="5.22487">
        <ele>422.16</ele>
        <time>2013-06-03T12:23:46Z</time>
      </trkpt>
      <trkpt lat="43.94506" lon="5.22496">
        <ele>422.64</ele>
        <time>2013-06-03T12:24:00Z</time>
      </trkpt>
      <trkpt lat="43.94506" lon="5.22506">
        <ele>423.6</ele>
        <time>2013-06-03T12:24:16Z</time>
      </trkpt>
      <trkpt lat="43.9451" lon="5.2252">
        <ele>424.08</ele>
        <time>2013-06-03T12:24:35Z</time>
      </trkpt>
      <trkpt lat="43.94516" lon="5.22528">
        <ele>424.08</ele>
        <time>2013-06-03T12:24:48Z</time>
      </trkpt>
      <trkpt lat="43.94516" lon="5.22534">
        <ele>424.08</ele>
        <time>2013-06-03T12:25:12Z</time>
      </trkpt>
      <trkpt lat="43.94514" lon="5.22532">
        <ele>424.08</ele>
        <time>2013-06-03T12:25:36Z</time>
      </trkpt>
      <trkpt lat="43.94514" lon="5.22528">
        <ele>423.6</ele>
        <time>2013-06-03T12:25:59Z</time>
      </trkpt>
      <trkpt lat="43.94513" lon="5.22527">
        <ele>424.08</ele>
        <time>2013-06-03T12:26:16Z</time>
      </trkpt>
      <trkpt lat="43.94509" lon="5.22524">
        <ele>423.6</ele>
        <time>2013-06-03T12:26:32Z</time>
      </trkpt>
      <trkpt lat="43.94509" lon="5.22522">
        <ele>424.08</ele>
        <time>2013-06-03T12:26:48Z</time>
      </trkpt>
      <trkpt lat="43.94504" lon="5.22517">
        <ele>424.08</ele>
        <time>2013-06-03T12:27:02Z</time>
      </trkpt>
      <trkpt lat="43.94504" lon="5.22506">
        <ele>422.64</ele>
        <time>2013-06-03T12:27:13Z</time>
      </trkpt>
      <trkpt lat="43.94501" lon="5.22494">
        <ele>421.68</ele>
        <time>2013-06-03T12:27:26Z</time>
      </trkpt>
      <trkpt lat="43.94495" lon="5.22486">
        <ele>421.19</ele>
        <time>2013-06-03T12:27:38Z</time>
      </trkpt>
      <trkpt lat="43.9449" lon="5.22477">
        <ele>418.79</ele>
        <time>2013-06-03T12:27:54Z</time>
      </trkpt>
      <trkpt lat="43.94484" lon="5.22471">
        <ele>418.31</ele>
        <time>2013-06-03T12:28:03Z</time>
      </trkpt>
      <trkpt lat="43.94474" lon="5.22464">
        <ele>417.83</ele>
        <time>2013-06-03T12:28:16Z</time>
      </trkpt>
      <trkpt lat="43.94464" lon="5.22461">
        <ele>417.83</ele>
        <time>2013-06-03T12:28:28Z</time>
      </trkpt>
      <trkpt lat="43.94455" lon="5.22446">
        <ele>417.35</ele>
        <time>2013-06-03T12:28:41Z</time>
      </trkpt>
      <trkpt lat="43.94439" lon="5.22431">
        <ele>416.87</ele>
        <time>2013-06-03T12:28:57Z</time>
      </trkpt>
      <trkpt lat="43.94431" lon="5.22427">
        <ele>416.39</ele>
        <time>2013-06-03T12:29:04Z</time>
      </trkpt>
      <trkpt lat="43.94426" lon="5.22424">
        <ele>416.39</ele>
        <time>2013-06-03T12:29:09Z</time>
      </trkpt>
      <trkpt lat="43.9442" lon="5.22419">
        <ele>416.39</ele>
        <time>2013-06-03T12:29:13Z</time>
      </trkpt>
      <trkpt lat="43.94406" lon="5.22414">
        <ele>416.39</ele>
        <time>2013-06-03T12:29:26Z</time>
      </trkpt>
      <trkpt lat="43.9439" lon="5.2241">
        <ele>416.39</ele>
        <time>2013-06-03T12:29:41Z</time>
      </trkpt>
      <trkpt lat="43.94374" lon="5.22414">
        <ele>415.91</ele>
        <time>2013-06-03T12:29:55Z</time>
      </trkpt>
      <trkpt lat="43.9436" lon="5.22421">
        <ele>415.43</ele>
        <time>2013-06-03T12:30:09Z</time>
      </trkpt>
      <trkpt lat="43.94349" lon="5.22428">
        <ele>415.43</ele>
        <time>2013-06-03T12:30:22Z</time>
      </trkpt>
      <trkpt lat="43.94339" lon="5.22434">
        <ele>414.95</ele>
        <time>2013-06-03T12:30:32Z</time>
      </trkpt>
      <trkpt lat="43.94325" lon="5.22435">
        <ele>414.95</ele>
        <time>2013-06-03T12:30:45Z</time>
      </trkpt>
      <trkpt lat="43.94308" lon="5.22432">
        <ele>414.47</ele>
        <time>2013-06-03T12:31:00Z</time>
      </trkpt>
      <trkpt lat="43.94293" lon="5.2243">
        <ele>413.98</ele>
        <time>2013-06-03T12:31:14Z</time>
      </trkpt>
      <trkpt lat="43.94283" lon="5.22416">
        <ele>413.98</ele>
        <time>2013-06-03T12:31:27Z</time>
      </trkpt>
      <trkpt lat="43.94272" lon="5.22404">
        <ele>413.5</ele>
        <time>2013-06-03T12:31:40Z</time>
      </trkpt>
      <trkpt lat="43.94266" lon="5.22392">
        <ele>413.02</ele>
        <time>2013-06-03T12:31:50Z</time>
      </trkpt>
      <trkpt lat="43.94265" lon="5.22388">
        <ele>413.02</ele>
        <time>2013-06-03T12:31:52Z</time>
      </trkpt>
      <trkpt lat="43.94253" lon="5.22373">
        <ele>413.02</ele>
        <time>2013-06-03T12:32:06Z</time>
      </trkpt>
      <trkpt lat="43.9425" lon="5.22365">
        <ele>413.02</ele>
        <time>2013-06-03T12:32:19Z</time>
      </trkpt>
      <trkpt lat="43.94248" lon="5.22363">
        <ele>413.02</ele>
        <time>2013-06-03T12:32:36Z</time>
      </trkpt>
      <trkpt lat="43.94251" lon="5.22358">
        <ele>413.02</ele>
        <time>2013-06-03T12:32:51Z</time>
      </trkpt>
      <trkpt lat="43.94257" lon="5.22352">
        <ele>413.02</ele>
        <time>2013-06-03T12:33:04Z</time>
      </trkpt>
      <trkpt lat="43.94262" lon="5.22344">
        <ele>413.02</ele>
        <time>2013-06-03T12:33:17Z</time>
      </trkpt>
      <trkpt lat="43.94262" lon="5.22327">
        <ele>412.54</ele>
        <time>2013-06-03T12:33:31Z</time>
      </trkpt>
      <trkpt lat="43.94263" lon="5.22318">
        <ele>412.54</ele>
        <time>2013-06-03T12:33:39Z</time>
      </trkpt>
      <trkpt lat="43.94264" lon="5.2231">
        <ele>412.54</ele>
        <time>2013-06-03T12:33:43Z</time>
      </trkpt>
      <trkpt lat="43.94255" lon="5.22291">
        <ele>412.54</ele>
        <time>2013-06-03T12:33:57Z</time>
      </trkpt>
      <trkpt lat="43.94249" lon="5.22276">
        <ele>413.02</ele>
        <time>2013-06-03T12:34:10Z</time>
      </trkpt>
      <trkpt lat="43.94242" lon="5.22262">
        <ele>413.02</ele>
        <time>2013-06-03T12:34:23Z</time>
      </trkpt>
      <trkpt lat="43.94235" lon="5.22255">
        <ele>413.5</ele>
        <time>2013-06-03T12:34:32Z</time>
      </trkpt>
      <trkpt lat="43.94223" lon="5.22249">
        <ele>413.98</ele>
        <time>2013-06-03T12:34:44Z</time>
      </trkpt>
      <trkpt lat="43.94209" lon="5.22243">
        <ele>413.98</ele>
        <time>2013-06-03T12:34:57Z</time>
      </trkpt>
      <trkpt lat="43.942" lon="5.2224">
        <ele>414.95</ele>
        <time>2013-06-03T12:35:10Z</time>
      </trkpt>
      <trkpt lat="43.94191" lon="5.22248">
        <ele>413.02</ele>
        <time>2013-06-03T12:35:25Z</time>
      </trkpt>
      <trkpt lat="43.94188" lon="5.22251">
        <ele>412.54</ele>
        <time>2013-06-03T12:35:29Z</time>
      </trkpt>
      <trkpt lat="43.94177" lon="5.22256">
        <ele>412.06</ele>
        <time>2013-06-03T12:35:43Z</time>
      </trkpt>
      <trkpt lat="43.9417" lon="5.22268">
        <ele>409.18</ele>
        <time>2013-06-03T12:35:59Z</time>
      </trkpt>
      <trkpt lat="43.94159" lon="5.22276">
        <ele>408.7</ele>
        <time>2013-06-03T12:36:12Z</time>
      </trkpt>
      <trkpt lat="43.94148" lon="5.22284">
        <ele>407.74</ele>
        <time>2013-06-03T12:36:24Z</time>
      </trkpt>
      <trkpt lat="43.94135" lon="5.22294">
        <ele>407.74</ele>
        <time>2013-06-03T12:36:38Z</time>
      </trkpt>
      <trkpt lat="43.94123" lon="5.22305">
        <ele>407.74</ele>
        <time>2013-06-03T12:36:52Z</time>
      </trkpt>
      <trkpt lat="43.9411" lon="5.22313">
        <ele>407.74</ele>
        <time>2013-06-03T12:37:04Z</time>
      </trkpt>
      <trkpt lat="43.94096" lon="5.22319">
        <ele>407.26</ele>
        <time>2013-06-03T12:37:17Z</time>
      </trkpt>
      <trkpt lat="43.94081" lon="5.22325">
        <ele>406.77</ele>
        <time>2013-06-03T12:37:31Z</time>
      </trkpt>
      <trkpt lat="43.94068" lon="5.22325">
        <ele>406.77</ele>
        <time>2013-06-03T12:37:44Z</time>
      </trkpt>
      <trkpt lat="43.94063" lon="5.22324">
        <ele>406.77</ele>
        <time>2013-06-03T12:37:50Z</time>
      </trkpt>
      <trkpt lat="43.94049" lon="5.22318">
        <ele>406.77</ele>
        <time>2013-06-03T12:38:03Z</time>
      </trkpt>
      <trkpt lat="43.94034" lon="5.223">
        <ele>406.77</ele>
        <time>2013-06-03T12:38:17Z</time>
      </trkpt>
      <trkpt lat="43.94033" lon="5.22297">
        <ele>406.77</ele>
        <time>2013-06-03T12:38:19Z</time>
      </trkpt>
      <trkpt lat="43.94031" lon="5.22279">
        <ele>406.29</ele>
        <time>2013-06-03T12:38:31Z</time>
      </trkpt>
      <trkpt lat="43.9403" lon="5.22271">
        <ele>406.29</ele>
        <time>2013-06-03T12:38:37Z</time>
      </trkpt>
      <trkpt lat="43.9403" lon="5.22266">
        <ele>406.29</ele>
        <time>2013-06-03T12:38:40Z</time>
      </trkpt>
      <trkpt lat="43.9403" lon="5.22264">
        <ele>406.29</ele>
        <time>2013-06-03T12:38:42Z</time>
      </trkpt>
      <trkpt lat="43.94029" lon="5.22261">
        <ele>406.29</ele>
        <time>2013-06-03T12:38:44Z</time>
      </trkpt>
      <trkpt lat="43.94028" lon="5.22238">
        <ele>405.81</ele>
        <time>2013-06-03T12:38:59Z</time>
      </trkpt>
      <trkpt lat="43.94028" lon="5.22236">
        <ele>405.81</ele>
        <time>2013-06-03T12:39:00Z</time>
      </trkpt>
      <trkpt lat="43.94025" lon="5.22216">
        <ele>405.81</ele>
        <time>2013-06-03T12:39:12Z</time>
      </trkpt>
      <trkpt lat="43.94023" lon="5.22205">
        <ele>405.81</ele>
        <time>2013-06-03T12:39:19Z</time>
      </trkpt>
      <trkpt lat="43.94023" lon="5.22201">
        <ele>405.33</ele>
        <time>2013-06-03T12:39:31Z</time>
      </trkpt>
      <trkpt lat="43.94023" lon="5.22201">
        <ele>405.81</ele>
        <time>2013-06-03T12:39:49Z</time>
      </trkpt>
      <trkpt lat="43.94019" lon="5.22202">
        <ele>405.33</ele>
        <time>2013-06-03T12:40:07Z</time>
      </trkpt>
      <trkpt lat="43.9402" lon="5.222">
        <ele>405.33</ele>
        <time>2013-06-03T12:40:26Z</time>
      </trkpt>
      <trkpt lat="43.94021" lon="5.22199">
        <ele>405.33</ele>
        <time>2013-06-03T12:40:46Z</time>
      </trkpt>
      <trkpt lat="43.94021" lon="5.22199">
        <ele>405.81</ele>
        <time>2013-06-03T12:41:07Z</time>
      </trkpt>
      <trkpt lat="43.9402" lon="5.22199">
        <ele>405.81</ele>
        <time>2013-06-03T12:41:31Z</time>
      </trkpt>
      <trkpt lat="43.94018" lon="5.22197">
        <ele>405.33</ele>
        <time>2013-06-03T12:41:54Z</time>
      </trkpt>
      <trkpt lat="43.94019" lon="5.22198">
        <ele>405.33</ele>
        <time>2013-06-03T12:42:18Z</time>
      </trkpt>
      <trkpt lat="43.94021" lon="5.22195">
        <ele>405.33</ele>
        <time>2013-06-03T12:42:45Z</time>
      </trkpt>
      <trkpt lat="43.94021" lon="5.22182">
        <ele>404.85</ele>
        <time>2013-06-03T12:43:03Z</time>
      </trkpt>
      <trkpt lat="43.94023" lon="5.22173">
        <ele>407.26</ele>
        <time>2013-06-03T12:43:15Z</time>
      </trkpt>
      <trkpt lat="43.94022" lon="5.22161">
        <ele>409.18</ele>
        <time>2013-06-03T12:43:28Z</time>
      </trkpt>
      <trkpt lat="43.94012" lon="5.22146">
        <ele>411.58</ele>
        <time>2013-06-03T12:43:44Z</time>
      </trkpt>
      <trkpt lat="43.94003" lon="5.2214">
        <ele>413.5</ele>
        <time>2013-06-03T12:43:59Z</time>
      </trkpt>
      <trkpt lat="43.93998" lon="5.22134">
        <ele>414.47</ele>
        <time>2013-06-03T12:44:08Z</time>
      </trkpt>
      <trkpt lat="43.93987" lon="5.22132">
        <ele>417.35</ele>
        <time>2013-06-03T12:44:23Z</time>
      </trkpt>
      <trkpt lat="43.93975" lon="5.2213">
        <ele>417.83</ele>
        <time>2013-06-03T12:44:37Z</time>
      </trkpt>
      <trkpt lat="43.93973" lon="5.22128">
        <ele>417.83</ele>
        <time>2013-06-03T12:44:39Z</time>
      </trkpt>
      <trkpt lat="43.93957" lon="5.22127">
        <ele>417.35</ele>
        <time>2013-06-03T12:44:55Z</time>
      </trkpt>
      <trkpt lat="43.93944" lon="5.22123">
        <ele>417.83</ele>
        <time>2013-06-03T12:45:08Z</time>
      </trkpt>
      <trkpt lat="43.93929" lon="5.22121">
        <ele>418.31</ele>
        <time>2013-06-03T12:45:22Z</time>
      </trkpt>
      <trkpt lat="43.93913" lon="5.22124">
        <ele>416.87</ele>
        <time>2013-06-03T12:45:39Z</time>
      </trkpt>
      <trkpt lat="43.93898" lon="5.22123">
        <ele>419.27</ele>
        <time>2013-06-03T12:45:54Z</time>
      </trkpt>
      <trkpt lat="43.93904" lon="5.22118">
        <ele>421.68</ele>
        <time>2013-06-03T12:46:09Z</time>
      </trkpt>
      <trkpt lat="43.93909" lon="5.22108">
        <ele>423.6</ele>
        <time>2013-06-03T12:46:22Z</time>
      </trkpt>
      <trkpt lat="43.93909" lon="5.22103">
        <ele>424.56</ele>
        <time>2013-06-03T12:46:28Z</time>
      </trkpt>
      <trkpt lat="43.93908" lon="5.22088">
        <ele>427.44</ele>
        <time>2013-06-03T12:46:43Z</time>
      </trkpt>
      <trkpt lat="43.93906" lon="5.22073">
        <ele>430.33</ele>
        <time>2013-06-03T12:47:00Z</time>
      </trkpt>
      <trkpt lat="43.93902" lon="5.22058">
        <ele>431.77</ele>
        <time>2013-06-03T12:47:15Z</time>
      </trkpt>
      <trkpt lat="43.939" lon="5.22044">
        <ele>435.13</ele>
        <time>2013-06-03T12:47:31Z</time>
      </trkpt>
      <trkpt lat="43.93901" lon="5.22028">
        <ele>438.02</ele>
        <time>2013-06-03T12:47:47Z</time>
      </trkpt>
      <trkpt lat="43.939" lon="5.22009">
        <ele>440.42</ele>
        <time>2013-06-03T12:48:03Z</time>
      </trkpt>
      <trkpt lat="43.939" lon="5.21994">
        <ele>441.86</ele>
        <time>2013-06-03T12:48:17Z</time>
      </trkpt>
      <trkpt lat="43.939" lon="5.21979">
        <ele>442.34</ele>
        <time>2013-06-03T12:48:30Z</time>
      </trkpt>
      <trkpt lat="43.93903" lon="5.21964">
        <ele>444.27</ele>
        <time>2013-06-03T12:48:45Z</time>
      </trkpt>
      <trkpt lat="43.93907" lon="5.21948">
        <ele>445.23</ele>
        <time>2013-06-03T12:49:01Z</time>
      </trkpt>
      <trkpt lat="43.93906" lon="5.21926">
        <ele>445.23</ele>
        <time>2013-06-03T12:49:16Z</time>
      </trkpt>
      <trkpt lat="43.93905" lon="5.21912">
        <ele>446.19</ele>
        <time>2013-06-03T12:49:29Z</time>
      </trkpt>
      <trkpt lat="43.9391" lon="5.21902">
        <ele>447.15</ele>
        <time>2013-06-03T12:49:41Z</time>
      </trkpt>
      <trkpt lat="43.93903" lon="5.21899">
        <ele>448.11</ele>
        <time>2013-06-03T12:49:53Z</time>
      </trkpt>
      <trkpt lat="43.93899" lon="5.21899">
        <ele>447.63</ele>
        <time>2013-06-03T12:49:58Z</time>
      </trkpt>
      <trkpt lat="43.93891" lon="5.21902">
        <ele>448.11</ele>
        <time>2013-06-03T12:50:11Z</time>
      </trkpt>
      <trkpt lat="43.93884" lon="5.21908">
        <ele>448.11</ele>
        <time>2013-06-03T12:50:24Z</time>
      </trkpt>
      <trkpt lat="43.93882" lon="5.21918">
        <ele>446.19</ele>
        <time>2013-06-03T12:50:42Z</time>
      </trkpt>
      <trkpt lat="43.93887" lon="5.21922">
        <ele>444.27</ele>
        <time>2013-06-03T12:50:54Z</time>
      </trkpt>
      <trkpt lat="43.9388" lon="5.21939">
        <ele>441.86</ele>
        <time>2013-06-03T12:51:07Z</time>
      </trkpt>
      <trkpt lat="43.93875" lon="5.21945">
        <ele>441.86</ele>
        <time>2013-06-03T12:51:12Z</time>
      </trkpt>
      <trkpt lat="43.93864" lon="5.21951">
        <ele>441.86</ele>
        <time>2013-06-03T12:51:24Z</time>
      </trkpt>
      <trkpt lat="43.93847" lon="5.21967">
        <ele>444.75</ele>
        <time>2013-06-03T12:51:41Z</time>
      </trkpt>
      <trkpt lat="43.93837" lon="5.21975">
        <ele>445.23</ele>
        <time>2013-06-03T12:51:55Z</time>
      </trkpt>
      <trkpt lat="43.9383" lon="5.2198">
        <ele>447.63</ele>
        <time>2013-06-03T12:52:08Z</time>
      </trkpt>
      <trkpt lat="43.93823" lon="5.21978">
        <ele>451</ele>
        <time>2013-06-03T12:52:22Z</time>
      </trkpt>
      <trkpt lat="43.93817" lon="5.21976">
        <ele>453.4</ele>
        <time>2013-06-03T12:52:33Z</time>
      </trkpt>
      <trkpt lat="43.93808" lon="5.21973">
        <ele>456.28</ele>
        <time>2013-06-03T12:52:48Z</time>
      </trkpt>
      <trkpt lat="43.93804" lon="5.21969">
        <ele>458.21</ele>
        <time>2013-06-03T12:52:59Z</time>
      </trkpt>
      <trkpt lat="43.93792" lon="5.21965">
        <ele>459.17</ele>
        <time>2013-06-03T12:53:11Z</time>
      </trkpt>
      <trkpt lat="43.9378" lon="5.21961">
        <ele>462.05</ele>
        <time>2013-06-03T12:53:26Z</time>
      </trkpt>
      <trkpt lat="43.9378" lon="5.21953">
        <ele>464.45</ele>
        <time>2013-06-03T12:53:40Z</time>
      </trkpt>
      <trkpt lat="43.93784" lon="5.2195">
        <ele>466.38</ele>
        <time>2013-06-03T12:53:54Z</time>
      </trkpt>
      <trkpt lat="43.938" lon="5.21931">
        <ele>468.78</ele>
        <time>2013-06-03T12:54:12Z</time>
      </trkpt>
      <trkpt lat="43.93792" lon="5.21929">
        <ele>470.22</ele>
        <time>2013-06-03T12:54:28Z</time>
      </trkpt>
      <trkpt lat="43.93781" lon="5.21926">
        <ele>472.63</ele>
        <time>2013-06-03T12:54:43Z</time>
      </trkpt>
      <trkpt lat="43.93773" lon="5.2192">
        <ele>475.03</ele>
        <time>2013-06-03T12:54:56Z</time>
      </trkpt>
      <trkpt lat="43.93767" lon="5.21909">
        <ele>477.43</ele>
        <time>2013-06-03T12:55:11Z</time>
      </trkpt>
      <trkpt lat="43.93761" lon="5.21898">
        <ele>480.32</ele>
        <time>2013-06-03T12:55:28Z</time>
      </trkpt>
      <trkpt lat="43.93759" lon="5.21887">
        <ele>481.76</ele>
        <time>2013-06-03T12:55:41Z</time>
      </trkpt>
      <trkpt lat="43.93758" lon="5.21874">
        <ele>483.2</ele>
        <time>2013-06-03T12:55:56Z</time>
      </trkpt>
      <trkpt lat="43.93764" lon="5.21863">
        <ele>485.12</ele>
        <time>2013-06-03T12:56:13Z</time>
      </trkpt>
      <trkpt lat="43.93763" lon="5.21845">
        <ele>484.64</ele>
        <time>2013-06-03T12:56:28Z</time>
      </trkpt>
      <trkpt lat="43.93765" lon="5.21834">
        <ele>483.68</ele>
        <time>2013-06-03T12:56:43Z</time>
      </trkpt>
      <trkpt lat="43.93765" lon="5.21828">
        <ele>483.68</ele>
        <time>2013-06-03T12:57:03Z</time>
      </trkpt>
      <trkpt lat="43.93762" lon="5.21828">
        <ele>484.16</ele>
        <time>2013-06-03T12:57:28Z</time>
      </trkpt>
      <trkpt lat="43.93762" lon="5.21828">
        <ele>483.68</ele>
        <time>2013-06-03T12:57:51Z</time>
      </trkpt>
      <trkpt lat="43.93763" lon="5.21829">
        <ele>483.68</ele>
        <time>2013-06-03T12:58:08Z</time>
      </trkpt>
      <trkpt lat="43.93762" lon="5.21832">
        <ele>484.16</ele>
        <time>2013-06-03T12:58:26Z</time>
      </trkpt>
      <trkpt lat="43.93764" lon="5.21832">
        <ele>484.16</ele>
        <time>2013-06-03T12:58:50Z</time>
      </trkpt>
      <trkpt lat="43.93764" lon="5.21832">
        <ele>484.16</ele>
        <time>2013-06-03T12:59:09Z</time>
      </trkpt>
      <trkpt lat="43.93763" lon="5.21834">
        <ele>484.16</ele>
        <time>2013-06-03T12:59:35Z</time>
      </trkpt>
      <trkpt lat="43.93765" lon="5.21835">
        <ele>484.16</ele>
        <time>2013-06-03T13:00:08Z</time>
      </trkpt>
      <trkpt lat="43.93768" lon="5.21831">
        <ele>484.16</ele>
        <time>2013-06-03T13:00:45Z</time>
      </trkpt>
      <trkpt lat="43.93764" lon="5.21833">
        <ele>484.64</ele>
        <time>2013-06-03T13:01:11Z</time>
      </trkpt>
      <trkpt lat="43.93763" lon="5.21833">
        <ele>484.16</ele>
        <time>2013-06-03T13:01:43Z</time>
      </trkpt>
      <trkpt lat="43.93763" lon="5.21834">
        <ele>484.64</ele>
        <time>2013-06-03T13:02:12Z</time>
      </trkpt>
      <trkpt lat="43.93765" lon="5.21834">
        <ele>485.12</ele>
        <time>2013-06-03T13:02:42Z</time>
      </trkpt>
      <trkpt lat="43.93762" lon="5.21833">
        <ele>485.12</ele>
        <time>2013-06-03T13:03:12Z</time>
      </trkpt>
      <trkpt lat="43.93762" lon="5.21834">
        <ele>485.12</ele>
        <time>2013-06-03T13:03:36Z</time>
      </trkpt>
      <trkpt lat="43.93762" lon="5.21831">
        <ele>485.12</ele>
        <time>2013-06-03T13:04:09Z</time>
      </trkpt>
      <trkpt lat="43.93765" lon="5.21831">
        <ele>484.64</ele>
        <time>2013-06-03T13:04:34Z</time>
      </trkpt>
      <trkpt lat="43.93763" lon="5.21826">
        <ele>485.12</ele>
        <time>2013-06-03T13:05:01Z</time>
      </trkpt>
      <trkpt lat="43.93763" lon="5.21817">
        <ele>484.64</ele>
        <time>2013-06-03T13:05:12Z</time>
      </trkpt>
      <trkpt lat="43.9376" lon="5.21805">
        <ele>484.64</ele>
        <time>2013-06-03T13:05:24Z</time>
      </trkpt>
      <trkpt lat="43.9376" lon="5.21797">
        <ele>484.64</ele>
        <time>2013-06-03T13:05:31Z</time>
      </trkpt>
      <trkpt lat="43.93758" lon="5.21787">
        <ele>483.68</ele>
        <time>2013-06-03T13:05:39Z</time>
      </trkpt>
      <trkpt lat="43.93757" lon="5.2177">
        <ele>483.68</ele>
        <time>2013-06-03T13:05:53Z</time>
      </trkpt>
      <trkpt lat="43.93756" lon="5.21759">
        <ele>483.2</ele>
        <time>2013-06-03T13:06:01Z</time>
      </trkpt>
      <trkpt lat="43.93756" lon="5.21737">
        <ele>483.2</ele>
        <time>2013-06-03T13:06:17Z</time>
      </trkpt>
      <trkpt lat="43.93753" lon="5.21724">
        <ele>484.16</ele>
        <time>2013-06-03T13:06:30Z</time>
      </trkpt>
      <trkpt lat="43.93747" lon="5.21709">
        <ele>483.2</ele>
        <time>2013-06-03T13:06:44Z</time>
      </trkpt>
      <trkpt lat="43.93739" lon="5.21695">
        <ele>483.2</ele>
        <time>2013-06-03T13:06:59Z</time>
      </trkpt>
      <trkpt lat="43.93732" lon="5.21689">
        <ele>486.56</ele>
        <time>2013-06-03T13:07:13Z</time>
      </trkpt>
      <trkpt lat="43.9372" lon="5.21687">
        <ele>488.97</ele>
        <time>2013-06-03T13:07:29Z</time>
      </trkpt>
      <trkpt lat="43.93707" lon="5.21683">
        <ele>490.89</ele>
        <time>2013-06-03T13:07:44Z</time>
      </trkpt>
      <trkpt lat="43.93696" lon="5.21679">
        <ele>491.37</ele>
        <time>2013-06-03T13:07:58Z</time>
      </trkpt>
      <trkpt lat="43.93685" lon="5.21676">
        <ele>491.85</ele>
        <time>2013-06-03T13:08:11Z</time>
      </trkpt>
      <trkpt lat="43.93676" lon="5.21674">
        <ele>491.85</ele>
        <time>2013-06-03T13:08:23Z</time>
      </trkpt>
      <trkpt lat="43.93667" lon="5.21669">
        <ele>491.37</ele>
        <time>2013-06-03T13:08:34Z</time>
      </trkpt>
      <trkpt lat="43.93655" lon="5.21664">
        <ele>490.89</ele>
        <time>2013-06-03T13:08:49Z</time>
      </trkpt>
      <trkpt lat="43.93644" lon="5.2166">
        <ele>490.41</ele>
        <time>2013-06-03T13:09:02Z</time>
      </trkpt>
      <trkpt lat="43.93631" lon="5.21655">
        <ele>489.93</ele>
        <time>2013-06-03T13:09:17Z</time>
      </trkpt>
      <trkpt lat="43.93623" lon="5.21649">
        <ele>489.93</ele>
        <time>2013-06-03T13:09:32Z</time>
      </trkpt>
      <trkpt lat="43.93611" lon="5.21641">
        <ele>491.85</ele>
        <time>2013-06-03T13:09:46Z</time>
      </trkpt>
      <trkpt lat="43.936" lon="5.21641">
        <ele>492.81</ele>
        <time>2013-06-03T13:09:57Z</time>
      </trkpt>
      <trkpt lat="43.93594" lon="5.21648">
        <ele>492.33</ele>
        <time>2013-06-03T13:10:14Z</time>
      </trkpt>
      <trkpt lat="43.93591" lon="5.21655">
        <ele>492.33</ele>
        <time>2013-06-03T13:10:38Z</time>
      </trkpt>
      <trkpt lat="43.9359" lon="5.21655">
        <ele>492.33</ele>
        <time>2013-06-03T13:10:59Z</time>
      </trkpt>
      <trkpt lat="43.93591" lon="5.21655">
        <ele>492.81</ele>
        <time>2013-06-03T13:11:15Z</time>
      </trkpt>
      <trkpt lat="43.93582" lon="5.21659">
        <ele>492.81</ele>
        <time>2013-06-03T13:11:28Z</time>
      </trkpt>
      <trkpt lat="43.93574" lon="5.21648">
        <ele>493.77</ele>
        <time>2013-06-03T13:11:42Z</time>
      </trkpt>
      <trkpt lat="43.93566" lon="5.21639">
        <ele>493.77</ele>
        <time>2013-06-03T13:11:56Z</time>
      </trkpt>
      <trkpt lat="43.93562" lon="5.2163">
        <ele>494.74</ele>
        <time>2013-06-03T13:12:09Z</time>
      </trkpt>
      <trkpt lat="43.93553" lon="5.21622">
        <ele>495.22</ele>
        <time>2013-06-03T13:12:22Z</time>
      </trkpt>
      <trkpt lat="43.93548" lon="5.21616">
        <ele>495.22</ele>
        <time>2013-06-03T13:12:34Z</time>
      </trkpt>
      <trkpt lat="43.93537" lon="5.21606">
        <ele>495.22</ele>
        <time>2013-06-03T13:12:49Z</time>
      </trkpt>
      <trkpt lat="43.93528" lon="5.21598">
        <ele>494.74</ele>
        <time>2013-06-03T13:13:01Z</time>
      </trkpt>
      <trkpt lat="43.93519" lon="5.21589">
        <ele>494.26</ele>
        <time>2013-06-03T13:13:14Z</time>
      </trkpt>
      <trkpt lat="43.93502" lon="5.21579">
        <ele>493.29</ele>
        <time>2013-06-03T13:13:27Z</time>
      </trkpt>
      <trkpt lat="43.93488" lon="5.2157">
        <ele>492.81</ele>
        <time>2013-06-03T13:13:41Z</time>
      </trkpt>
      <trkpt lat="43.93476" lon="5.21563">
        <ele>491.85</ele>
        <time>2013-06-03T13:13:55Z</time>
      </trkpt>
      <trkpt lat="43.93462" lon="5.21553">
        <ele>490.89</ele>
        <time>2013-06-03T13:14:08Z</time>
      </trkpt>
      <trkpt lat="43.93458" lon="5.2155">
        <ele>490.41</ele>
        <time>2013-06-03T13:14:12Z</time>
      </trkpt>
      <trkpt lat="43.93439" lon="5.21541">
        <ele>489.45</ele>
        <time>2013-06-03T13:14:27Z</time>
      </trkpt>
      <trkpt lat="43.93426" lon="5.21534">
        <ele>489.45</ele>
        <time>2013-06-03T13:14:40Z</time>
      </trkpt>
      <trkpt lat="43.93423" lon="5.21527">
        <ele>489.45</ele>
        <time>2013-06-03T13:15:08Z</time>
      </trkpt>
      <trkpt lat="43.93425" lon="5.21524">
        <ele>489.93</ele>
        <time>2013-06-03T13:15:40Z</time>
      </trkpt>
      <trkpt lat="43.93424" lon="5.21527">
        <ele>489.45</ele>
        <time>2013-06-03T13:16:06Z</time>
      </trkpt>
      <trkpt lat="43.9342" lon="5.21529">
        <ele>489.45</ele>
        <time>2013-06-03T13:16:27Z</time>
      </trkpt>
      <trkpt lat="43.93421" lon="5.21529">
        <ele>489.93</ele>
        <time>2013-06-03T13:16:46Z</time>
      </trkpt>
      <trkpt lat="43.93419" lon="5.21531">
        <ele>490.41</ele>
        <time>2013-06-03T13:17:09Z</time>
      </trkpt>
      <trkpt lat="43.93423" lon="5.21526">
        <ele>490.41</ele>
        <time>2013-06-03T13:17:25Z</time>
      </trkpt>
      <trkpt lat="43.93416" lon="5.21522">
        <ele>490.41</ele>
        <time>2013-06-03T13:17:38Z</time>
      </trkpt>
      <trkpt lat="43.93407" lon="5.21517">
        <ele>489.93</ele>
        <time>2013-06-03T13:17:52Z</time>
      </trkpt>
      <trkpt lat="43.93393" lon="5.21504">
        <ele>488.97</ele>
        <time>2013-06-03T13:18:07Z</time>
      </trkpt>
      <trkpt lat="43.93384" lon="5.21495">
        <ele>488.01</ele>
        <time>2013-06-03T13:18:22Z</time>
      </trkpt>
      <trkpt lat="43.93374" lon="5.21483">
        <ele>487.53</ele>
        <time>2013-06-03T13:18:36Z</time>
      </trkpt>
      <trkpt lat="43.93367" lon="5.21472">
        <ele>486.56</ele>
        <time>2013-06-03T13:18:51Z</time>
      </trkpt>
      <trkpt lat="43.93358" lon="5.21459">
        <ele>485.6</ele>
        <time>2013-06-03T13:19:04Z</time>
      </trkpt>
      <trkpt lat="43.93353" lon="5.21445">
        <ele>484.16</ele>
        <time>2013-06-03T13:19:18Z</time>
      </trkpt>
      <trkpt lat="43.93344" lon="5.21434">
        <ele>483.2</ele>
        <time>2013-06-03T13:19:32Z</time>
      </trkpt>
      <trkpt lat="43.93339" lon="5.21426">
        <ele>480.8</ele>
        <time>2013-06-03T13:19:47Z</time>
      </trkpt>
      <trkpt lat="43.93332" lon="5.21417">
        <ele>479.35</ele>
        <time>2013-06-03T13:20:00Z</time>
      </trkpt>
      <trkpt lat="43.93324" lon="5.21404">
        <ele>476.95</ele>
        <time>2013-06-03T13:20:15Z</time>
      </trkpt>
      <trkpt lat="43.93317" lon="5.21395">
        <ele>476.47</ele>
        <time>2013-06-03T13:20:27Z</time>
      </trkpt>
      <trkpt lat="43.9331" lon="5.21387">
        <ele>474.07</ele>
        <time>2013-06-03T13:20:41Z</time>
      </trkpt>
      <trkpt lat="43.93303" lon="5.21381">
        <ele>470.7</ele>
        <time>2013-06-03T13:20:55Z</time>
      </trkpt>
      <trkpt lat="43.93293" lon="5.21371">
        <ele>468.3</ele>
        <time>2013-06-03T13:21:11Z</time>
      </trkpt>
      <trkpt lat="43.93284" lon="5.21368">
        <ele>465.9</ele>
        <time>2013-06-03T13:21:25Z</time>
      </trkpt>
      <trkpt lat="43.93276" lon="5.21362">
        <ele>463.97</ele>
        <time>2013-06-03T13:21:41Z</time>
      </trkpt>
      <trkpt lat="43.93266" lon="5.21359">
        <ele>461.57</ele>
        <time>2013-06-03T13:21:57Z</time>
      </trkpt>
      <trkpt lat="43.93254" lon="5.21353">
        <ele>459.65</ele>
        <time>2013-06-03T13:22:11Z</time>
      </trkpt>
      <trkpt lat="43.93246" lon="5.21351">
        <ele>459.17</ele>
        <time>2013-06-03T13:22:17Z</time>
      </trkpt>
      <trkpt lat="43.93235" lon="5.21344">
        <ele>457.72</ele>
        <time>2013-06-03T13:22:26Z</time>
      </trkpt>
      <trkpt lat="43.93227" lon="5.21332">
        <ele>454.36</ele>
        <time>2013-06-03T13:22:40Z</time>
      </trkpt>
      <trkpt lat="43.93226" lon="5.2133">
        <ele>454.36</ele>
        <time>2013-06-03T13:22:41Z</time>
      </trkpt>
      <trkpt lat="43.93213" lon="5.21323">
        <ele>451.48</ele>
        <time>2013-06-03T13:22:55Z</time>
      </trkpt>
      <trkpt lat="43.93205" lon="5.21324">
        <ele>451</ele>
        <time>2013-06-03T13:23:04Z</time>
      </trkpt>
      <trkpt lat="43.93188" lon="5.21317">
        <ele>450.52</ele>
        <time>2013-06-03T13:23:22Z</time>
      </trkpt>
      <trkpt lat="43.93172" lon="5.21314">
        <ele>450.52</ele>
        <time>2013-06-03T13:23:37Z</time>
      </trkpt>
      <trkpt lat="43.93162" lon="5.21317">
        <ele>450.03</ele>
        <time>2013-06-03T13:23:51Z</time>
      </trkpt>
      <trkpt lat="43.93153" lon="5.21316">
        <ele>448.11</ele>
        <time>2013-06-03T13:24:04Z</time>
      </trkpt>
      <trkpt lat="43.93145" lon="5.21313">
        <ele>447.63</ele>
        <time>2013-06-03T13:24:12Z</time>
      </trkpt>
      <trkpt lat="43.9313" lon="5.21305">
        <ele>446.67</ele>
        <time>2013-06-03T13:24:26Z</time>
      </trkpt>
      <trkpt lat="43.9312" lon="5.213">
        <ele>444.75</ele>
        <time>2013-06-03T13:24:39Z</time>
      </trkpt>
      <trkpt lat="43.93109" lon="5.21301">
        <ele>442.82</ele>
        <time>2013-06-03T13:24:52Z</time>
      </trkpt>
      <trkpt lat="43.93102" lon="5.21294">
        <ele>442.34</ele>
        <time>2013-06-03T13:25:03Z</time>
      </trkpt>
      <trkpt lat="43.93098" lon="5.21284">
        <ele>443.31</ele>
        <time>2013-06-03T13:25:23Z</time>
      </trkpt>
      <trkpt lat="43.93098" lon="5.21283">
        <ele>443.31</ele>
        <time>2013-06-03T13:25:25Z</time>
      </trkpt>
      <trkpt lat="43.93086" lon="5.21266">
        <ele>443.31</ele>
        <time>2013-06-03T13:25:41Z</time>
      </trkpt>
      <trkpt lat="43.93076" lon="5.21257">
        <ele>443.31</ele>
        <time>2013-06-03T13:25:55Z</time>
      </trkpt>
      <trkpt lat="43.93068" lon="5.21243">
        <ele>443.79</ele>
        <time>2013-06-03T13:26:09Z</time>
      </trkpt>
      <trkpt lat="43.93054" lon="5.21236">
        <ele>446.19</ele>
        <time>2013-06-03T13:26:25Z</time>
      </trkpt>
      <trkpt lat="43.9304" lon="5.21237">
        <ele>448.11</ele>
        <time>2013-06-03T13:26:40Z</time>
      </trkpt>
      <trkpt lat="43.93028" lon="5.21233">
        <ele>451</ele>
        <time>2013-06-03T13:26:56Z</time>
      </trkpt>
      <trkpt lat="43.93016" lon="5.21231">
        <ele>452.92</ele>
        <time>2013-06-03T13:27:11Z</time>
      </trkpt>
      <trkpt lat="43.93006" lon="5.21228">
        <ele>454.84</ele>
        <time>2013-06-03T13:27:26Z</time>
      </trkpt>
      <trkpt lat="43.93001" lon="5.21222">
        <ele>456.28</ele>
        <time>2013-06-03T13:27:39Z</time>
      </trkpt>
      <trkpt lat="43.93" lon="5.21221">
        <ele>456.28</ele>
        <time>2013-06-03T13:28:09Z</time>
      </trkpt>
      <trkpt lat="43.93001" lon="5.21223">
        <ele>456.28</ele>
        <time>2013-06-03T13:28:30Z</time>
      </trkpt>
      <trkpt lat="43.93001" lon="5.21219">
        <ele>456.28</ele>
        <time>2013-06-03T13:28:54Z</time>
      </trkpt>
      <trkpt lat="43.93002" lon="5.21218">
        <ele>456.76</ele>
        <time>2013-06-03T13:29:15Z</time>
      </trkpt>
      <trkpt lat="43.93002" lon="5.21218">
        <ele>456.28</ele>
        <time>2013-06-03T13:29:33Z</time>
      </trkpt>
      <trkpt lat="43.93002" lon="5.2122">
        <ele>456.28</ele>
        <time>2013-06-03T13:29:47Z</time>
      </trkpt>
      <trkpt lat="43.93003" lon="5.21211">
        <ele>456.76</ele>
        <time>2013-06-03T13:29:59Z</time>
      </trkpt>
      <trkpt lat="43.93005" lon="5.21206">
        <ele>457.72</ele>
        <time>2013-06-03T13:30:13Z</time>
      </trkpt>
      <trkpt lat="43.93009" lon="5.21192">
        <ele>459.17</ele>
        <time>2013-06-03T13:30:27Z</time>
      </trkpt>
      <trkpt lat="43.93017" lon="5.21177">
        <ele>461.09</ele>
        <time>2013-06-03T13:30:44Z</time>
      </trkpt>
      <trkpt lat="43.93021" lon="5.21166">
        <ele>462.53</ele>
        <time>2013-06-03T13:30:56Z</time>
      </trkpt>
      <trkpt lat="43.93022" lon="5.21163">
        <ele>463.01</ele>
        <time>2013-06-03T13:30:59Z</time>
      </trkpt>
      <trkpt lat="43.9302" lon="5.21144">
        <ele>463.97</ele>
        <time>2013-06-03T13:31:14Z</time>
      </trkpt>
      <trkpt lat="43.93015" lon="5.21124">
        <ele>464.93</ele>
        <time>2013-06-03T13:31:30Z</time>
      </trkpt>
      <trkpt lat="43.93009" lon="5.2111">
        <ele>466.38</ele>
        <time>2013-06-03T13:31:44Z</time>
      </trkpt>
      <trkpt lat="43.92999" lon="5.21094">
        <ele>465.9</ele>
        <time>2013-06-03T13:31:59Z</time>
      </trkpt>
      <trkpt lat="43.92992" lon="5.21086">
        <ele>465.42</ele>
        <time>2013-06-03T13:32:07Z</time>
      </trkpt>
      <trkpt lat="43.92978" lon="5.21074">
        <ele>464.93</ele>
        <time>2013-06-03T13:32:24Z</time>
      </trkpt>
      <trkpt lat="43.92961" lon="5.2106">
        <ele>464.45</ele>
        <time>2013-06-03T13:32:41Z</time>
      </trkpt>
      <trkpt lat="43.92945" lon="5.21046">
        <ele>463.49</ele>
        <time>2013-06-03T13:32:57Z</time>
      </trkpt>
      <trkpt lat="43.9293" lon="5.21033">
        <ele>462.53</ele>
        <time>2013-06-03T13:33:12Z</time>
      </trkpt>
      <trkpt lat="43.92914" lon="5.21017">
        <ele>462.53</ele>
        <time>2013-06-03T13:33:29Z</time>
      </trkpt>
      <trkpt lat="43.92904" lon="5.21003">
        <ele>461.57</ele>
        <time>2013-06-03T13:33:43Z</time>
      </trkpt>
      <trkpt lat="43.92893" lon="5.20984">
        <ele>460.61</ele>
        <time>2013-06-03T13:34:00Z</time>
      </trkpt>
      <trkpt lat="43.92886" lon="5.20964">
        <ele>460.13</ele>
        <time>2013-06-03T13:34:15Z</time>
      </trkpt>
      <trkpt lat="43.92878" lon="5.20942">
        <ele>459.65</ele>
        <time>2013-06-03T13:34:33Z</time>
      </trkpt>
      <trkpt lat="43.9287" lon="5.2092">
        <ele>458.69</ele>
        <time>2013-06-03T13:34:49Z</time>
      </trkpt>
      <trkpt lat="43.92862" lon="5.20903">
        <ele>458.21</ele>
        <time>2013-06-03T13:35:03Z</time>
      </trkpt>
      <trkpt lat="43.92858" lon="5.20899">
        <ele>457.72</ele>
        <time>2013-06-03T13:35:08Z</time>
      </trkpt>
      <trkpt lat="43.92847" lon="5.20886">
        <ele>457.24</ele>
        <time>2013-06-03T13:35:23Z</time>
      </trkpt>
      <trkpt lat="43.92834" lon="5.20875">
        <ele>456.28</ele>
        <time>2013-06-03T13:35:38Z</time>
      </trkpt>
      <trkpt lat="43.92821" lon="5.20862">
        <ele>455.8</ele>
        <time>2013-06-03T13:35:53Z</time>
      </trkpt>
      <trkpt lat="43.92811" lon="5.20851">
        <ele>455.32</ele>
        <time>2013-06-03T13:36:06Z</time>
      </trkpt>
      <trkpt lat="43.92809" lon="5.2085">
        <ele>454.84</ele>
        <time>2013-06-03T13:36:08Z</time>
      </trkpt>
      <trkpt lat="43.92803" lon="5.20839">
        <ele>455.32</ele>
        <time>2013-06-03T13:36:22Z</time>
      </trkpt>
      <trkpt lat="43.928" lon="5.20834">
        <ele>455.32</ele>
        <time>2013-06-03T13:36:38Z</time>
      </trkpt>
      <trkpt lat="43.92801" lon="5.20829">
        <ele>454.84</ele>
        <time>2013-06-03T13:36:57Z</time>
      </trkpt>
      <trkpt lat="43.928" lon="5.20826">
        <ele>455.32</ele>
        <time>2013-06-03T13:37:11Z</time>
      </trkpt>
      <trkpt lat="43.928" lon="5.2083">
        <ele>455.32</ele>
        <time>2013-06-03T13:37:31Z</time>
      </trkpt>
      <trkpt lat="43.928" lon="5.20835">
        <ele>455.8</ele>
        <time>2013-06-03T13:37:50Z</time>
      </trkpt>
      <trkpt lat="43.92799" lon="5.20836">
        <ele>455.8</ele>
        <time>2013-06-03T13:38:05Z</time>
      </trkpt>
      <trkpt lat="43.92801" lon="5.20837">
        <ele>455.8</ele>
        <time>2013-06-03T13:38:22Z</time>
      </trkpt>
      <trkpt lat="43.928" lon="5.20838">
        <ele>455.8</ele>
        <time>2013-06-03T13:38:39Z</time>
      </trkpt>
    </trkseg>
  </trk>
</gpx>